Provisional Data: Long Run near Gaines, PA


Please select a monitoring station.
Please select start date.
Please select start date.

Toggle Unit: C/F Toggle Unit: C/F
Sample Time Temperature (C) Temperature (F) Specific Conductivity (mS/cm) pH   Turbidity (NTU+) DO (mg/L)
12/4/2020 12:00:00 AM 3.89 39.002 0.109 7.28 2.94 12.29
12/4/2020 12:15:00 AM 3.88 38.984 0.109 7.28 2.7 12.3
12/4/2020 12:30:00 AM 3.89 39.002 0.109 7.28 2.91 12.29
12/4/2020 12:45:00 AM 3.89 39.002 0.109 7.29 2.8 12.29
12/4/2020 1:00:00 AM 3.9 39.02 0.109 7.29 2.74 12.29
12/4/2020 1:15:00 AM 3.9 39.02 0.109 7.29 2.69 12.29
12/4/2020 1:30:00 AM 3.9 39.02 0.109 7.29 2.67 12.29
12/4/2020 1:45:00 AM 3.91 39.038 0.109 7.29 2.81 12.29
12/4/2020 2:00:00 AM 3.91 39.038 0.109 7.29 2.8 12.28
12/4/2020 2:15:00 AM 3.92 39.056 0.109 7.28 2.85 12.28
12/4/2020 2:30:00 AM 3.92 39.056 0.109 7.3 2.65 12.28
12/4/2020 2:45:00 AM 3.92 39.056 0.109 7.29 2.68 12.27
12/4/2020 3:00:00 AM 3.91 39.038 0.109 7.28 2.75 12.27
12/4/2020 3:15:00 AM 3.88 38.984 0.109 7.29 2.75 12.27
12/4/2020 3:30:00 AM 3.87 38.966 0.109 7.28 2.94 12.28
12/4/2020 3:45:00 AM 3.85 38.93 0.109 7.28 2.61 12.28
12/4/2020 4:00:00 AM 3.84 38.912 0.109 7.29 2.71 12.29
12/4/2020 4:15:00 AM 3.84 38.912 0.109 7.28 2.76 12.29
12/4/2020 4:30:00 AM 3.82 38.876 0.109 7.28 2.68 12.29
12/4/2020 4:45:00 AM 3.8 38.84 0.109 7.28 2.66 12.3
12/4/2020 5:00:00 AM 3.78 38.804 0.109 7.28 2.66 12.3
12/4/2020 5:15:00 AM 3.77 38.786 0.109 7.28 2.74 12.3
12/4/2020 5:30:00 AM 3.77 38.786 0.109 7.28 2.68 12.31
12/4/2020 5:45:00 AM 3.77 38.786 0.109 7.27 2.87 12.31
12/4/2020 6:00:00 AM 3.77 38.786 0.109 7.28 2.85 12.31
12/4/2020 6:15:00 AM 3.78 38.804 0.109 7.28 2.75 12.31
12/4/2020 6:30:00 AM 3.79 38.822 0.109 7.28 2.67 12.31
12/4/2020 6:45:00 AM 3.8 38.84 0.108 7.28 2.8 12.3
12/4/2020 7:00:00 AM 3.81 38.858 0.108 7.28 2.6 12.3
12/4/2020 7:15:00 AM 3.82 38.876 0.109 7.29 2.72 12.3
12/4/2020 7:30:00 AM 3.84 38.912 0.109 7.28 2.66 12.3
12/4/2020 7:45:00 AM 3.85 38.93 0.109 7.29 2.63 12.32
12/4/2020 8:00:00 AM 3.87 38.966 0.109 7.29 2.81 12.35
12/4/2020 8:15:00 AM 3.89 39.002 0.108 7.3 2.68 12.4
12/4/2020 8:30:00 AM 3.91 39.038 0.108 7.33 2.76 12.5
12/4/2020 8:45:00 AM 3.93 39.074 0.108 7.34 2.68 12.57
12/4/2020 9:00:00 AM 3.97 39.146 0.108 7.39 2.65 12.68
12/4/2020 9:15:00 AM 4.03 39.254 0.108 7.42 2.9 12.76
12/4/2020 9:30:00 AM 4.08 39.344 0.108 7.45 2.73 12.79
12/4/2020 9:45:00 AM 4.14 39.452 0.108 7.46 2.78 12.82
12/4/2020 10:00:00 AM 4.2 39.56 0.107 7.49 2.55 12.83
12/4/2020 10:15:00 AM 4.26 39.668 0.107 7.5 2.65 12.83
12/4/2020 10:30:00 AM 4.38 39.884 0.107 7.53 2.65 12.87
12/4/2020 10:45:00 AM 4.45 40.01 0.107 7.55 2.72 12.88
12/4/2020 11:00:00 AM 4.57 40.226 0.107 7.57 2.69 12.88
12/4/2020 11:15:00 AM 4.69 40.442 0.107 7.59 2.55 12.87
12/4/2020 11:30:00 AM 4.8 40.64 0.106 7.61 2.73 12.84
12/4/2020 11:45:00 AM 4.96 40.928 0.106 7.62 2.64 12.81
12/4/2020 12:00:00 PM 5.14 41.252 0.106 7.63 2.6 12.8
12/4/2020 12:15:00 PM 5.31 41.558 0.106 7.66 2.71 12.78
12/4/2020 12:30:00 PM 5.45 41.81 0.106 7.67 2.62 12.74
12/4/2020 12:45:00 PM 5.56 42.008 0.106 7.68 2.61 12.71
12/4/2020 1:00:00 PM 5.68 42.224 0.105 7.69 2.65 12.66
12/4/2020 1:15:00 PM 5.75 42.35 0.105 7.69 2.69 12.62
12/4/2020 1:30:00 PM 5.79 42.422 0.105 7.7 2.72 12.59
12/4/2020 1:45:00 PM 5.81 42.458 0.105 7.69 2.77 12.56
12/4/2020 2:00:00 PM 5.81 42.458 0.105 7.69 2.69 12.53
12/4/2020 2:15:00 PM 5.8 42.44 0.105 7.66 2.6 12.46
12/4/2020 2:30:00 PM 5.78 42.404 0.105 7.63 2.76 12.41
12/4/2020 2:45:00 PM 5.76 42.368 0.105 7.61 2.64 12.35
12/4/2020 3:00:00 PM 5.74 42.332 0.105 7.59 2.66 12.31
12/4/2020 3:15:00 PM 5.73 42.314 0.105 7.58 2.66 12.29
12/4/2020 3:30:00 PM 5.7 42.26 0.105 7.56 2.61 12.24
12/4/2020 3:45:00 PM 5.67 42.206 0.105 7.54 2.74 12.2
12/4/2020 4:00:00 PM 5.64 42.152 0.105 7.52 2.57 12.14
12/4/2020 4:15:00 PM 5.6 42.08 0.106 7.48 2.67 12.07
12/4/2020 4:30:00 PM 5.57 42.026 0.106 7.45 2.65 12.01
12/4/2020 4:45:00 PM 5.53 41.954 0.106 7.43 2.69 11.96
12/4/2020 5:00:00 PM 5.5 41.9 0.106 7.4 2.88 11.9
12/4/2020 5:15:00 PM 5.45 41.81 0.106 7.39 2.58 11.87
12/4/2020 5:30:00 PM 5.4 41.72 0.106 7.36 2.71 11.85
12/4/2020 5:45:00 PM 5.36 41.648 0.106 7.35 2.76 11.83
12/4/2020 6:00:00 PM 5.32 41.576 0.106 7.34 2.65 11.82
12/4/2020 6:15:00 PM 5.26 41.468 0.106 7.33 2.66 11.82
12/4/2020 6:30:00 PM 5.2 41.36 0.106 7.32 2.7 11.82
12/4/2020 6:45:00 PM 5.14 41.252 0.106 7.31 2.84 11.83
12/4/2020 7:00:00 PM 5.08 41.144 0.107 7.29 2.66 11.85
12/4/2020 7:15:00 PM 5.02 41.036 0.106 7.29 2.57 11.85
12/4/2020 7:30:00 PM 4.98 40.964 0.106 7.29 2.69 11.86
12/4/2020 7:45:00 PM 4.93 40.874 0.106 7.29 2.77 11.88
12/4/2020 8:00:00 PM 4.88 40.784 0.107 7.29 2.7 11.89
12/4/2020 8:15:00 PM 4.84 40.712 0.106 7.29 2.62 11.9
12/4/2020 8:30:00 PM 4.8 40.64 0.107 7.28 2.7 11.92
12/4/2020 8:45:00 PM 4.76 40.568 0.106 7.28 2.78 11.93
12/4/2020 9:00:00 PM 4.74 40.532 0.107 7.27 2.6 11.94
12/4/2020 9:15:00 PM 4.72 40.496 0.107 7.28 2.78 11.95
12/4/2020 9:30:00 PM 4.7 40.46 0.107 7.28 3.03 11.96
12/4/2020 9:45:00 PM 4.68 40.424 0.107 7.28 2.87 11.97
12/4/2020 10:00:00 PM 4.66 40.388 0.107 7.28 2.89 11.98
12/4/2020 10:15:00 PM 4.65 40.37 0.107 7.28 2.55 11.98
12/4/2020 10:30:00 PM 4.64 40.352 0.107 7.29 3.02 11.99
12/4/2020 10:45:00 PM 4.63 40.334 0.107 7.28 2.82 11.99
12/4/2020 11:00:00 PM 4.62 40.316 0.107 7.28 2.71 11.99
12/4/2020 11:15:00 PM 4.6 40.28 0.107 7.28 2.72 12
12/4/2020 11:30:00 PM 4.59 40.262 0.107 7.27 2.63 12
12/4/2020 11:45:00 PM 4.58 40.244 0.107 7.28 2.64 12
12/5/2020 12:00:00 AM 4.57 40.226 0.107 7.26 2.71 12
12/5/2020 12:15:00 AM 4.57 40.226 0.107 7.27 2.55 12
12/5/2020 12:30:00 AM 4.56 40.208 0.107 7.28 2.75 12
12/5/2020 12:45:00 AM 4.56 40.208 0.107 7.28 2.64 12
12/5/2020 1:00:00 AM 4.56 40.208 0.107 7.27 2.66 12
12/5/2020 1:15:00 AM 4.55 40.19 0.107 7.27 2.88 12
12/5/2020 1:30:00 AM 4.55 40.19 0.107 7.29 2.79 12.01
12/5/2020 1:45:00 AM 4.55 40.19 0.107 7.27 2.76 12
12/5/2020 2:00:00 AM 4.55 40.19 0.107 7.28 2.74 12
12/5/2020 2:15:00 AM 4.55 40.19 0.107 7.27 2.68 12
12/5/2020 2:30:00 AM 4.55 40.19 0.107 7.27 2.79 12
12/5/2020 2:45:00 AM 4.55 40.19 0.107 7.27 2.65 11.99
12/5/2020 3:00:00 AM 4.55 40.19 0.107 7.26 2.77 11.99
12/5/2020 3:15:00 AM 4.56 40.208 0.107 7.27 2.65 11.99
12/5/2020 3:30:00 AM 4.56 40.208 0.107 7.28 2.67 11.99
12/5/2020 3:45:00 AM 4.56 40.208 0.107 7.27 2.62 11.99
12/5/2020 4:00:00 AM 4.57 40.226 0.107 7.28 2.92 11.99
12/5/2020 4:15:00 AM 4.57 40.226 0.107 7.27 2.7 11.98
12/5/2020 4:30:00 AM 4.58 40.244 0.107 7.28 2.69 11.98
12/5/2020 4:45:00 AM 4.58 40.244 0.107 7.28 2.73 11.98
12/5/2020 5:00:00 AM 4.59 40.262 0.107 7.29 2.93 11.98
12/5/2020 5:15:00 AM 4.59 40.262 0.107 7.27 2.92 11.98
12/5/2020 5:30:00 AM 4.6 40.28 0.107 7.28 2.92 11.98
12/5/2020 5:45:00 AM 4.6 40.28 0.107 7.29 2.83 11.97
12/5/2020 6:00:00 AM 4.61 40.298 0.107 7.27 2.82 11.97
12/5/2020 6:15:00 AM 4.62 40.316 0.107 7.27 2.62 11.97
12/5/2020 6:30:00 AM 4.63 40.334 0.107 7.28 2.88 11.97
12/5/2020 6:45:00 AM 4.63 40.334 0.107 7.28 2.69 11.97
12/5/2020 7:00:00 AM 4.63 40.334 0.107 7.27 2.73 11.97
12/5/2020 7:15:00 AM 4.63 40.334 0.107 7.3 2.79 11.97
12/5/2020 7:30:00 AM 4.62 40.316 0.107 7.28 2.72 11.98
12/5/2020 7:45:00 AM 4.62 40.316 0.107 7.3 2.88 12
12/5/2020 8:00:00 AM 4.62 40.316 0.107 7.29 2.63 12.03
12/5/2020 8:15:00 AM 4.63 40.334 0.107 7.31 2.73 12.1
12/5/2020 8:30:00 AM 4.64 40.352 0.107 7.32 2.82 12.18
12/5/2020 8:45:00 AM 4.65 40.37 0.107 7.35 2.75 12.28
12/5/2020 9:00:00 AM 4.67 40.406 0.106 7.39 2.66 12.37
12/5/2020 9:15:00 AM 4.69 40.442 0.106 7.41 2.8 12.44
12/5/2020 9:30:00 AM 4.71 40.478 0.106 7.43 2.65 12.5
12/5/2020 9:45:00 AM 4.73 40.514 0.106 7.44 2.8 12.54
12/5/2020 10:00:00 AM 4.73 40.514 0.106 7.46 2.62 12.51
12/5/2020 10:15:00 AM 4.74 40.532 0.106 7.45 2.68 12.51
12/5/2020 10:30:00 AM 4.75 40.55 0.106 7.47 2.78 12.54
12/5/2020 10:45:00 AM 4.77 40.586 0.106 7.5 2.68 12.59
12/5/2020 11:00:00 AM 4.8 40.64 0.106 7.53 2.85 12.64
12/5/2020 11:15:00 AM 4.81 40.658 0.105 7.53 2.67 12.65
12/5/2020 11:30:00 AM 4.84 40.712 0.105 7.56 2.9 12.69
12/5/2020 11:45:00 AM 4.86 40.748 0.105 7.57 2.72 12.7
12/5/2020 12:00:00 PM 4.87 40.766 0.105 7.56 2.66 12.63
12/5/2020 12:15:00 PM 4.89 40.802 0.105 7.57 2.77 12.65
12/5/2020 12:30:00 PM 4.9 40.82 0.105 7.56 2.64 12.64
12/5/2020 12:45:00 PM 4.91 40.838 0.105 7.58 2.68 12.66
12/5/2020 1:00:00 PM 4.92 40.856 0.105 7.59 2.68 12.65
12/5/2020 1:15:00 PM 4.92 40.856 0.105 7.58 2.72 12.64
12/5/2020 1:30:00 PM 4.93 40.874 0.105 7.59 2.61 12.62
12/5/2020 1:45:00 PM 4.92 40.856 0.105 7.56 2.71 12.56
12/5/2020 2:00:00 PM 4.92 40.856 0.105 7.55 2.62 12.56
12/5/2020 2:15:00 PM 4.92 40.856 0.105 7.56 2.68 12.58
12/5/2020 2:30:00 PM 4.95 40.91 0.105 7.6 2.62 12.62
12/5/2020 2:45:00 PM 4.96 40.928 0.105 7.6 2.72 12.65
12/5/2020 3:00:00 PM 4.95 40.91 0.105 7.59 2.57 12.58
12/5/2020 3:15:00 PM 4.94 40.892 0.105 7.56 2.65 12.5
12/5/2020 3:30:00 PM 4.93 40.874 0.105 7.53 2.58 12.4
12/5/2020 3:45:00 PM 4.91 40.838 0.105 7.5 2.74 12.32
12/5/2020 4:00:00 PM 4.9 40.82 0.105 7.45 2.66 12.27
12/5/2020 4:15:00 PM 4.88 40.784 0.105 7.45 2.74 12.21
12/5/2020 4:30:00 PM 4.85 40.73 0.105 7.43 2.86 12.17
12/5/2020 4:45:00 PM 4.82 40.676 0.105 7.39 2.87 12.13
12/5/2020 5:00:00 PM 4.79 40.622 0.105 7.38 2.89 12.09
12/5/2020 5:15:00 PM 4.76 40.568 0.105 7.36 2.77 12.06
12/5/2020 5:30:00 PM 4.74 40.532 0.105 7.36 2.62 12.05
12/5/2020 5:45:00 PM 4.71 40.478 0.105 7.35 2.74 12.04
12/5/2020 6:00:00 PM 4.69 40.442 0.106 7.33 2.87 12.03
12/5/2020 6:15:00 PM 4.66 40.388 0.106 7.33 2.78 12.02
12/5/2020 6:30:00 PM 4.63 40.334 0.106 7.31 2.81 12.02
12/5/2020 6:45:00 PM 4.61 40.298 0.106 7.31 2.89 12.02
12/5/2020 7:00:00 PM 4.59 40.262 0.106 7.32 2.74 12.02
12/5/2020 7:15:00 PM 4.55 40.19 0.106 7.31 2.77 12.03
12/5/2020 7:30:00 PM 4.53 40.154 0.106 7.3 2.63 12.04
12/5/2020 7:45:00 PM 4.51 40.118 0.106 7.31 2.68 12.04
12/5/2020 8:00:00 PM 4.49 40.082 0.106 7.31 2.65 12.05
12/5/2020 8:15:00 PM 4.47 40.046 0.106 7.3 2.6 12.06
12/5/2020 8:30:00 PM 4.44 39.992 0.106 7.3 2.66 12.06
12/5/2020 8:45:00 PM 4.43 39.974 0.106 7.3 2.71 12.07
12/5/2020 9:00:00 PM 4.4 39.92 0.106 7.3 2.67 12.07
12/5/2020 9:15:00 PM 4.39 39.902 0.106 7.3 2.72 12.07
12/5/2020 9:30:00 PM 4.37 39.866 0.106 7.29 2.85 12.08
12/5/2020 9:45:00 PM 4.34 39.812 0.106 7.3 2.63 12.09
12/5/2020 10:00:00 PM 4.33 39.794 0.106 7.29 3.2 12.09
12/5/2020 10:15:00 PM 4.31 39.758 0.106 7.29 2.69 12.1
12/5/2020 10:30:00 PM 4.29 39.722 0.106 7.29 2.54 12.1
12/5/2020 10:45:00 PM 4.27 39.686 0.106 7.29 2.65 12.11
12/5/2020 11:00:00 PM 4.25 39.65 0.105 7.29 2.69 12.11
12/5/2020 11:15:00 PM 4.23 39.614 0.106 7.3 2.82 12.12
12/5/2020 11:30:00 PM 4.22 39.596 0.106 7.29 2.8 12.12
12/5/2020 11:45:00 PM 4.2 39.56 0.106 7.3 2.65 12.13
12/6/2020 12:00:00 AM 4.18 39.524 0.106 7.29 2.65 12.13
12/6/2020 12:15:00 AM 4.15 39.47 0.106 7.29 2.84 12.14
12/6/2020 12:30:00 AM 4.12 39.416 0.106 7.29 2.75 12.15
12/6/2020 12:45:00 AM 4.1 39.38 0.106 7.28 2.65 12.16
12/6/2020 1:00:00 AM 4.07 39.326 0.106 7.29 2.71 12.17
12/6/2020 1:15:00 AM 4.04 39.272 0.106 7.29 2.81 12.17
12/6/2020 1:30:00 AM 4.02 39.236 0.106 7.28 2.7 12.18
12/6/2020 1:45:00 AM 4 39.2 0.106 7.28 2.84 12.19
12/6/2020 2:00:00 AM 3.98 39.164 0.106 7.28 2.81 12.19
12/6/2020 2:15:00 AM 3.97 39.146 0.106 7.3 2.96 12.2
12/6/2020 2:30:00 AM 3.96 39.128 0.106 7.29 2.57 12.21
12/6/2020 2:45:00 AM 3.95 39.11 0.106 7.28 2.89 12.21
12/6/2020 3:00:00 AM 3.93 39.074 0.106 7.29 2.69 12.22
12/6/2020 3:15:00 AM 3.91 39.038 0.106 7.29 2.75 12.22
12/6/2020 3:30:00 AM 3.88 38.984 0.106 7.29 2.78 12.23
12/6/2020 3:45:00 AM 3.85 38.93 0.106 7.29 2.67 12.24
12/6/2020 4:00:00 AM 3.83 38.894 0.106 7.29 2.72 12.24
12/6/2020 4:15:00 AM 3.82 38.876 0.106 7.29 2.77 12.25
12/6/2020 4:30:00 AM 3.81 38.858 0.106 7.29 2.7 12.26
12/6/2020 4:45:00 AM 3.79 38.822 0.106 7.29 2.73 12.26
12/6/2020 5:00:00 AM 3.77 38.786 0.106 7.27 2.7 12.27
12/6/2020 5:15:00 AM 3.75 38.75 0.106 7.28 2.72 12.28
12/6/2020 5:30:00 AM 3.73 38.714 0.106 7.29 2.82 12.28
12/6/2020 5:45:00 AM 3.71 38.678 0.106 7.29 2.7 12.29
12/6/2020 6:00:00 AM 3.69 38.642 0.106 7.28 2.79 12.3
12/6/2020 6:15:00 AM 3.67 38.606 0.106 7.27 2.77 12.3
12/6/2020 6:30:00 AM 3.66 38.588 0.106 7.28 2.55 12.31
12/6/2020 6:45:00 AM 3.63 38.534 0.106 7.28 2.69 12.32
12/6/2020 7:00:00 AM 3.61 38.498 0.106 7.28 2.87 12.32
12/6/2020 7:15:00 AM 3.6 38.48 0.106 7.28 2.71 12.33
12/6/2020 7:30:00 AM 3.58 38.444 0.106 7.3 2.66 12.35
12/6/2020 7:45:00 AM 3.56 38.408 0.106 7.29 2.71 12.38
12/6/2020 8:00:00 AM 3.56 38.408 0.106 7.3 2.82 12.42
12/6/2020 8:15:00 AM 3.55 38.39 0.106 7.32 2.67 12.51
12/6/2020 8:30:00 AM 3.54 38.372 0.105 7.33 2.55 12.59
12/6/2020 8:45:00 AM 3.54 38.372 0.105 7.36 2.65 12.68
12/6/2020 9:00:00 AM 3.55 38.39 0.105 7.38 2.66 12.78
12/6/2020 9:15:00 AM 3.56 38.408 0.105 7.41 2.67 12.86
12/6/2020 9:30:00 AM 3.57 38.426 0.105 7.44 2.47 12.94
12/6/2020 9:45:00 AM 3.6 38.48 0.105 7.46 2.65 13.01
12/6/2020 10:00:00 AM 3.63 38.534 0.104 7.5 2.76 13.08
12/6/2020 10:15:00 AM 3.63 38.534 0.104 7.52 2.65 13.11
12/6/2020 10:30:00 AM 3.65 38.57 0.104 7.55 2.67 13.16
12/6/2020 10:45:00 AM 3.66 38.588 0.104 7.57 2.76 13.18
12/6/2020 11:00:00 AM 3.69 38.642 0.104 7.58 2.64 13.21
12/6/2020 11:15:00 AM 3.72 38.696 0.104 7.59 2.66 13.2
12/6/2020 11:30:00 AM 3.77 38.786 0.104 7.59 2.71 13.15
12/6/2020 11:45:00 AM 3.81 38.858 0.103 7.59 2.53 13.13
12/6/2020 12:00:00 PM 3.85 38.93 0.103 7.6 2.64 13.13
12/6/2020 12:15:00 PM 3.93 39.074 0.103 7.62 2.64 13.1
12/6/2020 12:30:00 PM 3.99 39.182 0.103 7.62 2.66 13.07
12/6/2020 12:45:00 PM 4.12 39.416 0.103 7.63 2.57 13.06
12/6/2020 1:00:00 PM 4.23 39.614 0.103 7.64 2.73 13.03
12/6/2020 1:15:00 PM 4.31 39.758 0.103 7.66 2.72 13.01
12/6/2020 1:30:00 PM 4.36 39.848 0.103 7.65 2.6 12.96
12/6/2020 1:45:00 PM 4.38 39.884 0.103 7.64 2.62 12.91
12/6/2020 2:00:00 PM 4.43 39.974 0.103 7.63 2.62 12.89
12/6/2020 2:15:00 PM 4.46 40.028 0.103 7.64 2.63 12.85
12/6/2020 2:30:00 PM 4.47 40.046 0.103 7.63 2.54 12.83
12/6/2020 2:45:00 PM 4.45 40.01 0.102 7.61 13.49 12.76
12/6/2020 3:00:00 PM 4.41 39.938 0.103 7.6 2.79 12.75
12/6/2020 3:15:00 PM 4.35 39.83 0.103 7.57 2.73 12.72
12/6/2020 3:30:00 PM 4.3 39.74 0.103 7.55 2.76 12.67
12/6/2020 3:45:00 PM 4.25 39.65 0.103 7.52 2.69 12.64
12/6/2020 4:00:00 PM 4.2 39.56 0.103 7.5 2.61 12.6
12/6/2020 4:15:00 PM 4.15 39.47 0.103 7.47 2.57 12.56
12/6/2020 4:30:00 PM 4.1 39.38 0.103 7.44 2.66 12.52
12/6/2020 4:45:00 PM 4.05 39.29 0.103 7.42 2.75 12.47
12/6/2020 5:00:00 PM 3.99 39.182 0.103 7.4 2.57 12.42
12/6/2020 5:15:00 PM 3.93 39.074 0.104 7.37 2.55 12.39
12/6/2020 5:30:00 PM 3.86 38.948 0.104 7.37 2.6 12.37
12/6/2020 5:45:00 PM 3.8 38.84 0.104 7.35 2.68 12.36
12/6/2020 6:00:00 PM 3.74 38.732 0.104 7.33 2.6 12.36
12/6/2020 6:15:00 PM 3.71 38.678 0.104 7.32 2.5 12.35
12/6/2020 6:30:00 PM 3.68 38.624 0.104 7.32 2.62 12.35
12/6/2020 6:45:00 PM 3.65 38.57 0.104 7.31 2.64 12.35
12/6/2020 7:00:00 PM 3.63 38.534 0.104 7.32 2.49 12.35
12/6/2020 7:15:00 PM 3.6 38.48 0.104 7.31 2.56 12.36
12/6/2020 7:30:00 PM 3.58 38.444 0.104 7.3 2.52 12.36
12/6/2020 7:45:00 PM 3.55 38.39 0.104 7.3 2.74 12.37
12/6/2020 8:00:00 PM 3.52 38.336 0.104 7.3 2.86 12.38
12/6/2020 8:15:00 PM 3.5 38.3 0.104 7.31 2.67 12.38
12/6/2020 8:30:00 PM 3.48 38.264 0.104 7.29 2.6 12.38
12/6/2020 8:45:00 PM 3.45 38.21 0.104 7.31 2.59 12.39
12/6/2020 9:00:00 PM 3.41 38.138 0.104 7.29 2.64 12.4
12/6/2020 9:15:00 PM 3.38 38.084 0.105 7.28 2.7 12.41
12/6/2020 9:30:00 PM 3.35 38.03 0.104 7.29 2.63 12.42
12/6/2020 9:45:00 PM 3.33 37.994 0.104 7.3 2.62 12.43
12/6/2020 10:00:00 PM 3.31 37.958 0.104 7.29 2.67 12.43
12/6/2020 10:15:00 PM 3.27 37.886 0.104 7.29 2.75 12.44
12/6/2020 10:30:00 PM 3.24 37.832 0.104 7.28 2.64 12.45
12/6/2020 10:45:00 PM 3.21 37.778 0.104 7.28 2.61 12.46
12/6/2020 11:00:00 PM 3.17 37.706 0.104 7.27 2.63 12.47
12/6/2020 11:15:00 PM 3.14 37.652 0.105 7.28 2.56 12.48
12/6/2020 11:30:00 PM 3.11 37.598 0.104 7.28 2.66 12.49
12/6/2020 11:45:00 PM 3.1 37.58 0.104 7.29 2.6 12.49
12/7/2020 12:00:00 AM 3.1 37.58 0.105 7.28 2.62 12.5
12/7/2020 12:15:00 AM 3.09 37.562 0.105 7.28 2.82 12.5
12/7/2020 12:30:00 AM 3.09 37.562 0.104 7.29 2.43 12.5
12/7/2020 12:45:00 AM 3.08 37.544 0.105 7.29 2.62 12.5
12/7/2020 1:00:00 AM 3.07 37.526 0.104 7.29 2.59 12.5
12/7/2020 1:15:00 AM 3.07 37.526 0.105 7.29 2.69 12.5
12/7/2020 1:30:00 AM 3.07 37.526 0.105 7.29 2.61 12.5
12/7/2020 1:45:00 AM 3.06 37.508 0.105 7.29 2.55 12.51
12/7/2020 2:00:00 AM 3.06 37.508 0.105 7.28 2.76 12.51
12/7/2020 2:15:00 AM 3.06 37.508 0.105 7.29 2.52 12.51
12/7/2020 2:30:00 AM 3.05 37.49 0.105 7.29 2.61 12.51
12/7/2020 2:45:00 AM 3.04 37.472 0.104 7.29 2.6 12.51
12/7/2020 3:00:00 AM 3.04 37.472 0.105 7.3 2.45 12.51
12/7/2020 3:15:00 AM 3.03 37.454 0.104 7.29 2.58 12.51
12/7/2020 3:30:00 AM 3.02 37.436 0.105 7.29 2.61 12.51
12/7/2020 3:45:00 AM 3.02 37.436 0.105 7.28 2.55 12.52
12/7/2020 4:00:00 AM 3.01 37.418 0.104 7.29 2.71 12.52
12/7/2020 4:15:00 AM 3.01 37.418 0.104 7.28 2.55 12.52
12/7/2020 4:30:00 AM 3 37.4 0.104 7.29 2.62 12.52
12/7/2020 4:45:00 AM 2.99 37.382 0.104 7.29 2.55 12.52
12/7/2020 5:00:00 AM 2.98 37.364 0.105 7.29 2.69 12.52
12/7/2020 5:15:00 AM 2.98 37.364 0.104 7.28 2.57 12.52
12/7/2020 5:30:00 AM 2.97 37.346 0.104 7.29 2.67 12.52
12/7/2020 5:45:00 AM 2.97 37.346 0.104 7.29 2.65 12.52
12/7/2020 6:00:00 AM 2.96 37.328 0.105 7.28 2.68 12.52
12/7/2020 6:15:00 AM 2.96 37.328 0.104 7.29 2.57 12.52
12/7/2020 6:30:00 AM 2.95 37.31 0.104 7.29 2.62 12.52
12/7/2020 6:45:00 AM 2.93 37.274 0.104 7.29 2.69 12.53
12/7/2020 7:00:00 AM 2.91 37.238 0.104 7.29 2.51 12.53
12/7/2020 7:15:00 AM 2.89 37.202 0.104 7.3 2.55 12.54
12/7/2020 7:30:00 AM 2.87 37.166 0.104 7.28 2.58 12.56
12/7/2020 7:45:00 AM 2.86 37.148 0.104 7.29 2.53 12.59
12/7/2020 8:00:00 AM 2.84 37.112 0.104 7.3 2.55 12.65
12/7/2020 8:15:00 AM 2.83 37.094 0.104 7.32 2.52 12.74
12/7/2020 8:30:00 AM 2.84 37.112 0.104 7.34 2.66 12.85
12/7/2020 8:45:00 AM 2.85 37.13 0.104 7.36 2.46 12.95
12/7/2020 9:00:00 AM 2.87 37.166 0.104 7.39 2.6 13.05
12/7/2020 9:15:00 AM 2.89 37.202 0.104 7.42 2.59 13.13
12/7/2020 9:30:00 AM 2.9 37.22 0.104 7.45 2.56 13.19
12/7/2020 9:45:00 AM 2.93 37.274 0.103 7.47 2.63 13.25
12/7/2020 10:00:00 AM 2.96 37.328 0.103 7.5 2.66 13.3
12/7/2020 10:15:00 AM 3.01 37.418 0.103 7.53 2.45 13.35
12/7/2020 10:30:00 AM 3.09 37.562 0.103 7.56 2.55 13.38
12/7/2020 10:45:00 AM 3.2 37.76 0.103 7.58 2.49 13.39
12/7/2020 11:00:00 AM 3.28 37.904 0.102 7.61 2.44 13.4
12/7/2020 11:15:00 AM 3.39 38.102 0.102 7.62 2.48 13.39
12/7/2020 11:30:00 AM 3.5 38.3 0.102 7.64 2.41 13.36
12/7/2020 11:45:00 AM 3.6 38.48 0.102 7.65 2.57 13.32
12/7/2020 12:00:00 PM 3.7 38.66 0.102 7.66 2.46 13.28
12/7/2020 12:15:00 PM 3.83 38.894 0.102 7.67 2.51 13.24
12/7/2020 12:30:00 PM 3.93 39.074 0.102 7.68 2.49 13.21
12/7/2020 12:45:00 PM 4 39.2 0.101 7.68 2.52 13.17
12/7/2020 1:00:00 PM 4.01 39.218 0.101 7.68 2.64 13.13
12/7/2020 1:15:00 PM 4.04 39.272 0.101 7.67 2.53 13.09
12/7/2020 1:30:00 PM 4.07 39.326 0.101 7.68 2.54 13.05
12/7/2020 1:45:00 PM 4.06 39.308 0.101 7.66 2.47 13.02
12/7/2020 2:00:00 PM 4.04 39.272 0.101 7.66 2.6 13.02
12/7/2020 2:15:00 PM 4.02 39.236 0.101 7.66 2.55 13.01
12/7/2020 2:30:00 PM 3.99 39.182 0.101 7.65 2.57 12.96
12/7/2020 2:45:00 PM 3.97 39.146 0.101 7.63 2.52 12.92
12/7/2020 3:00:00 PM 3.94 39.092 0.101 7.61 2.45 12.91
12/7/2020 3:15:00 PM 3.89 39.002 0.101 7.6 2.54 12.87
12/7/2020 3:30:00 PM 3.86 38.948 0.101 7.58 2.93 12.85
12/7/2020 3:45:00 PM 3.84 38.912 0.101 7.56 2.79 12.84
12/7/2020 4:00:00 PM 3.81 38.858 0.101 7.55 2.58 12.8
12/7/2020 4:15:00 PM 3.77 38.786 0.101 7.52 2.47 12.76
12/7/2020 4:30:00 PM 3.72 38.696 0.101 7.49 2.67 12.71
12/7/2020 4:45:00 PM 3.67 38.606 0.101 7.46 2.52 12.64
12/7/2020 5:00:00 PM 3.64 38.552 0.102 7.43 2.49 12.57
12/7/2020 5:15:00 PM 3.6 38.48 0.101 7.42 2.54 12.51
12/7/2020 5:30:00 PM 3.56 38.408 0.102 7.38 2.64 12.47
12/7/2020 5:45:00 PM 3.52 38.336 0.102 7.38 2.54 12.44
12/7/2020 6:00:00 PM 3.48 38.264 0.102 7.35 2.6 12.43
12/7/2020 6:15:00 PM 3.43 38.174 0.102 7.34 2.69 12.42
12/7/2020 6:30:00 PM 3.39 38.102 0.102 7.34 2.6 12.41
12/7/2020 6:45:00 PM 3.36 38.048 0.102 7.32 2.52 12.41
12/7/2020 7:00:00 PM 3.31 37.958 0.102 7.31 2.62 12.41
12/7/2020 7:15:00 PM 3.27 37.886 0.102 7.31 2.67 12.42
12/7/2020 7:30:00 PM 3.22 37.796 0.103 7.3 2.73 12.43
12/7/2020 7:45:00 PM 3.17 37.706 0.102 7.31 2.6 12.44
12/7/2020 8:00:00 PM 3.11 37.598 0.102 7.3 2.59 12.45
12/7/2020 8:15:00 PM 3.07 37.526 0.103 7.29 2.49 12.47
12/7/2020 8:30:00 PM 3.03 37.454 0.103 7.29 2.59 12.48
12/7/2020 8:45:00 PM 2.99 37.382 0.103 7.29 2.67 12.49
12/7/2020 9:00:00 PM 2.96 37.328 0.103 7.29 2.46 12.5
12/7/2020 9:15:00 PM 2.93 37.274 0.103 7.29 2.74 12.51
12/7/2020 9:30:00 PM 2.92 37.256 0.103 7.28 2.73 12.52
12/7/2020 9:45:00 PM 2.9 37.22 0.103 7.29 2.68 12.52
12/7/2020 10:00:00 PM 2.89 37.202 0.103 7.29 2.54 12.53
12/7/2020 10:15:00 PM 2.88 37.184 0.103 7.29 2.66 12.53
12/7/2020 10:30:00 PM 2.87 37.166 0.103 7.29 2.58 12.53
12/7/2020 10:45:00 PM 2.86 37.148 0.103 7.29 2.57 12.54
12/7/2020 11:00:00 PM 2.86 37.148 0.103 7.29 2.5 12.54
12/7/2020 11:15:00 PM 2.85 37.13 0.103 7.29 2.56 12.54
12/7/2020 11:30:00 PM 2.84 37.112 0.103 7.29 2.42 12.55
12/7/2020 11:45:00 PM 2.84 37.112 0.103 7.29 2.52 12.55
12/8/2020 12:00:00 AM 2.83 37.094 0.103 7.29 2.45 12.55
12/8/2020 12:15:00 AM 2.82 37.076 0.103 7.29 2.46 12.55
12/8/2020 12:30:00 AM 2.82 37.076 0.103 7.28 2.52 12.56
12/8/2020 12:45:00 AM 2.81 37.058 0.103 7.28 2.54 12.56
12/8/2020 1:00:00 AM 2.79 37.022 0.103 7.29 2.53 12.56
12/8/2020 1:15:00 AM 2.79 37.022 0.103 7.28 2.69 12.56
12/8/2020 1:30:00 AM 2.77 36.986 0.103 7.28 2.71 12.56
12/8/2020 1:45:00 AM 2.74 36.932 0.103 7.28 2.49 12.57
12/8/2020 2:00:00 AM 2.71 36.878 0.103 7.27 2.61 12.58
12/8/2020 2:15:00 AM 2.66 36.788 0.103 7.28 2.53 12.59
12/8/2020 2:30:00 AM 2.62 36.716 0.103 7.28 2.58 12.6
12/8/2020 2:45:00 AM 2.58 36.644 0.104 7.27 2.9 12.61
12/8/2020 3:00:00 AM 2.56 36.608 0.103 7.27 2.55 12.62
12/8/2020 3:15:00 AM 2.54 36.572 0.103 7.28 2.48 12.63
12/8/2020 3:30:00 AM 2.51 36.518 0.103 7.27 2.55 12.64
12/8/2020 3:45:00 AM 2.49 36.482 0.104 7.27 2.44 12.65
12/8/2020 4:00:00 AM 2.46 36.428 0.103 7.28 2.57 12.66
12/8/2020 4:15:00 AM 2.44 36.392 0.103 7.27 2.58 12.67
12/8/2020 4:30:00 AM 2.41 36.338 0.103 7.27 2.67 12.68
12/8/2020 4:45:00 AM 2.39 36.302 0.104 7.27 2.49 12.68
12/8/2020 5:00:00 AM 2.36 36.248 0.103 7.27 2.71 12.69
12/8/2020 5:15:00 AM 2.33 36.194 0.103 7.27 2.53 12.7
12/8/2020 5:30:00 AM 2.3 36.14 0.103 7.27 2.55 12.71
12/8/2020 5:45:00 AM 2.27 36.086 0.103 7.27 2.49 12.72
12/8/2020 6:00:00 AM 2.24 36.032 0.103 7.27 2.54 12.73
12/8/2020 6:15:00 AM 2.21 35.978 0.103 7.27 2.58 12.74
12/8/2020 6:30:00 AM 2.18 35.924 0.103 7.28 2.48 12.76
12/8/2020 6:45:00 AM 2.16 35.888 0.103 7.26 2.56 12.76
12/8/2020 7:00:00 AM 2.13 35.834 0.103 7.27 2.49 12.78
12/8/2020 7:15:00 AM 2.1 35.78 0.104 7.27 2.5 12.78
12/8/2020 7:30:00 AM 2.07 35.726 0.103 7.27 2.61 12.81
12/8/2020 7:45:00 AM 2.06 35.708 0.103 7.28 2.53 12.85
12/8/2020 8:00:00 AM 2.04 35.672 0.103 7.28 2.79 12.91
12/8/2020 8:15:00 AM 2.02 35.636 0.103 7.3 2.45 12.98
12/8/2020 8:30:00 AM 2.01 35.618 0.103 7.31 2.55 13.06
12/8/2020 8:45:00 AM 2 35.6 0.103 7.33 2.57 13.13
12/8/2020 9:00:00 AM 1.99 35.582 0.103 7.35 2.61 13.2
12/8/2020 9:15:00 AM 2 35.6 0.103 7.37 2.65 13.28
12/8/2020 9:30:00 AM 2.02 35.636 0.103 7.4 2.48 13.37
12/8/2020 9:45:00 AM 2.07 35.726 0.103 7.41 2.45 13.43
12/8/2020 10:00:00 AM 2.1 35.78 0.102 7.44 2.45 13.5
12/8/2020 10:15:00 AM 2.17 35.906 0.102 7.47 2.5 13.55
12/8/2020 10:30:00 AM 2.21 35.978 0.102 7.49 2.52 13.57
12/8/2020 10:45:00 AM 2.27 36.086 0.102 7.5 2.62 13.6
12/8/2020 11:00:00 AM 2.35 36.23 0.102 7.53 2.42 13.63
12/8/2020 11:15:00 AM 2.42 36.356 0.102 7.54 2.43 13.6
12/8/2020 11:30:00 AM 2.47 36.446 0.101 7.54 2.64 13.56
12/8/2020 11:45:00 AM 2.57 36.626 0.101 7.55 2.52 13.53
12/8/2020 12:00:00 PM 2.68 36.824 0.101 7.55 2.48 13.49
12/8/2020 12:15:00 PM 2.8 37.04 0.101 7.56 2.63 13.44
12/8/2020 12:30:00 PM 2.93 37.274 0.101 7.57 2.51 13.39
12/8/2020 12:45:00 PM 3.06 37.508 0.101 7.58 2.52 13.34
12/8/2020 1:00:00 PM 3.16 37.688 0.101 7.58 2.48 13.3
12/8/2020 1:15:00 PM 3.27 37.886 0.101 7.57 2.51 13.26
12/8/2020 1:30:00 PM 3.36 38.048 0.101 7.58 2.51 13.21
12/8/2020 1:45:00 PM 3.44 38.192 0.1 7.58 2.52 13.16
12/8/2020 2:00:00 PM 3.5 38.3 0.101 7.57 2.33 13.1
12/8/2020 2:15:00 PM 3.54 38.372 0.1 7.56 2.41 13.06
12/8/2020 2:30:00 PM 3.56 38.408 0.1 7.55 2.48 13.02
12/8/2020 2:45:00 PM 3.56 38.408 0.1 7.54 2.49 12.99
12/8/2020 3:00:00 PM 3.52 38.336 0.1 7.53 2.53 12.96
12/8/2020 3:15:00 PM 3.46 38.228 0.101 7.51 2.41 12.93
12/8/2020 3:30:00 PM 3.41 38.138 0.1 7.5 2.41 12.9
12/8/2020 3:45:00 PM 3.35 38.03 0.101 7.48 2.4 12.88
12/8/2020 4:00:00 PM 3.31 37.958 0.101 7.47 2.54 12.86
12/8/2020 4:15:00 PM 3.27 37.886 0.101 7.45 2.49 12.83
12/8/2020 4:30:00 PM 3.23 37.814 0.101 7.43 2.57 12.79
12/8/2020 4:45:00 PM 3.19 37.742 0.101 7.4 2.49 12.74
12/8/2020 5:00:00 PM 3.15 37.67 0.101 7.39 2.5 12.69
12/8/2020 5:15:00 PM 3.11 37.598 0.101 7.37 2.61 12.65
12/8/2020 5:30:00 PM 3.08 37.544 0.101 7.36 2.53 12.62
12/8/2020 5:45:00 PM 3.03 37.454 0.101 7.34 2.58 12.6
12/8/2020 6:00:00 PM 2.99 37.382 0.101 7.33 2.57 12.59
12/8/2020 6:15:00 PM 2.93 37.274 0.101 7.31 2.42 12.59
12/8/2020 6:30:00 PM 2.89 37.202 0.102 7.31 2.44 12.59
12/8/2020 6:45:00 PM 2.84 37.112 0.101 7.31 2.47 12.6
12/8/2020 7:00:00 PM 2.8 37.04 0.102 7.3 2.47 12.61
12/8/2020 7:15:00 PM 2.75 36.95 0.102 7.29 2.63 12.61
12/8/2020 7:30:00 PM 2.71 36.878 0.102 7.28 2.58 12.62
12/8/2020 7:45:00 PM 2.67 36.806 0.102 7.29 2.46 12.63
12/8/2020 8:00:00 PM 2.64 36.752 0.102 7.28 2.7 12.64
12/8/2020 8:15:00 PM 2.61 36.698 0.102 7.28 2.48 12.65
12/8/2020 8:30:00 PM 2.59 36.662 0.102 7.27 2.59 12.66
12/8/2020 8:45:00 PM 2.58 36.644 0.102 7.28 2.51 12.66
12/8/2020 9:00:00 PM 2.56 36.608 0.102 7.28 2.61 12.67
12/8/2020 9:15:00 PM 2.56 36.608 0.102 7.29 2.46 12.67
12/8/2020 9:30:00 PM 2.56 36.608 0.102 7.28 2.63 12.67
12/8/2020 9:45:00 PM 2.57 36.626 0.102 7.28 2.55 12.67
12/8/2020 10:00:00 PM 2.58 36.644 0.102 7.28 2.76 12.67
12/8/2020 10:15:00 PM 2.58 36.644 0.102 7.27 2.35 12.67
12/8/2020 10:30:00 PM 2.59 36.662 0.102 7.28 2.49 12.67
12/8/2020 10:45:00 PM 2.6 36.68 0.102 7.27 2.44 12.66
12/8/2020 11:00:00 PM 2.61 36.698 0.102 7.27 2.54 12.66
12/8/2020 11:15:00 PM 2.62 36.716 0.102 7.28 2.49 12.66
12/8/2020 11:30:00 PM 2.63 36.734 0.102 7.27 2.52 12.65
12/8/2020 11:45:00 PM 2.63 36.734 0.102 7.28 2.55 12.65
12/9/2020 12:00:00 AM 2.64 36.752 0.102 7.28 2.6 12.64
12/9/2020 12:15:00 AM 2.65 36.77 0.102 7.28 2.59 12.64
12/9/2020 12:30:00 AM 2.66 36.788 0.102 7.28 2.79 12.63
12/9/2020 12:45:00 AM 2.67 36.806 0.102 7.28 2.63 12.63
12/9/2020 1:00:00 AM 2.68 36.824 0.102 7.28 2.56 12.62
12/9/2020 1:15:00 AM 2.68 36.824 0.102 7.28 2.57 12.61
12/9/2020 1:30:00 AM 2.69 36.842 0.102 7.28 2.34 12.61
12/9/2020 1:45:00 AM 2.7 36.86 0.102 7.28 2.51 12.6
12/9/2020 2:00:00 AM 2.69 36.842 0.102 7.29 2.38 12.6
12/9/2020 2:15:00 AM 2.69 36.842 0.102 7.28 2.58 12.59
12/9/2020 2:30:00 AM 2.71 36.878 0.102 7.28 2.55 12.58
12/9/2020 2:45:00 AM 2.72 36.896 0.102 7.28 2.56 12.58
12/9/2020 3:00:00 AM 2.73 36.914 0.102 7.28 2.49 12.57
12/9/2020 3:15:00 AM 2.73 36.914 0.102 7.28 2.54 12.57
12/9/2020 3:30:00 AM 2.74 36.932 0.102 7.27 2.69 12.57
12/9/2020 3:45:00 AM 2.75 36.95 0.102 7.27 2.66 12.56
12/9/2020 4:00:00 AM 2.75 36.95 0.102 7.28 2.56 12.56
12/9/2020 4:15:00 AM 2.75 36.95 0.102 7.27 2.61 12.55
12/9/2020 4:30:00 AM 2.75 36.95 0.102 7.28 2.54 12.55
12/9/2020 4:45:00 AM 2.75 36.95 0.102 7.28 2.54 12.55
12/9/2020 5:00:00 AM 2.76 36.968 0.102 7.27 2.61 12.55
12/9/2020 5:15:00 AM 2.76 36.968 0.102 7.28 2.59 12.55
12/9/2020 5:30:00 AM 2.76 36.968 0.102 7.27 2.67 12.54
12/9/2020 5:45:00 AM 2.77 36.986 0.102 7.28 2.61 12.54
12/9/2020 6:00:00 AM 2.78 37.004 0.102 7.27 2.6 12.53
12/9/2020 6:15:00 AM 2.78 37.004 0.102 7.28 2.58 12.53
12/9/2020 6:30:00 AM 2.78 37.004 0.102 7.27 2.79 12.53
12/9/2020 6:45:00 AM 2.79 37.022 0.102 7.27 2.62 12.53
12/9/2020 7:00:00 AM 2.8 37.04 0.102 7.27 2.65 12.53
12/9/2020 7:15:00 AM 2.8 37.04 0.102 7.27 2.65 12.52
12/9/2020 7:30:00 AM 2.8 37.04 0.102 7.27 2.64 12.53
12/9/2020 7:45:00 AM 2.8 37.04 0.102 7.28 2.53 12.54
12/9/2020 8:00:00 AM 2.8 37.04 0.102 7.27 2.45 12.55
12/9/2020 8:15:00 AM 2.81 37.058 0.102 7.28 2.38 12.57
12/9/2020 8:30:00 AM 2.81 37.058 0.102 7.29 2.73 12.6
12/9/2020 8:45:00 AM 2.8 37.04 0.102 7.29 2.63 12.65
12/9/2020 9:00:00 AM 2.78 37.004 0.102 7.31 2.7 12.71
12/9/2020 9:15:00 AM 2.78 37.004 0.102 7.32 2.5 12.79
12/9/2020 9:30:00 AM 2.79 37.022 0.102 7.35 2.51 12.89
12/9/2020 9:45:00 AM 2.81 37.058 0.101 7.38 2.52 13
12/9/2020 10:00:00 AM 2.84 37.112 0.101 7.41 2.66 13.09
12/9/2020 10:15:00 AM 2.88 37.184 0.101 7.44 2.4 13.16
12/9/2020 10:30:00 AM 2.92 37.256 0.101 7.46 2.48 13.24
12/9/2020 10:45:00 AM 2.96 37.328 0.101 7.49 2.41 13.27
12/9/2020 11:00:00 AM 2.98 37.364 0.101 7.5 2.59 13.26
12/9/2020 11:15:00 AM 3.02 37.436 0.101 7.51 2.64 13.27
12/9/2020 11:30:00 AM 3.04 37.472 0.101 7.52 2.49 13.27
12/9/2020 11:45:00 AM 3.06 37.508 0.1 7.52 2.41 13.23
12/9/2020 12:00:00 PM 3.08 37.544 0.1 7.52 2.59 13.21
12/9/2020 12:15:00 PM 3.11 37.598 0.1 7.53 2.52 13.2
12/9/2020 12:30:00 PM 3.12 37.616 0.1 7.51 2.53 13.16
12/9/2020 12:45:00 PM 3.13 37.634 0.1 7.5 2.42 13.11
12/9/2020 1:00:00 PM 3.15 37.67 0.1 7.5 2.46 13.07
12/9/2020 1:15:00 PM 3.16 37.688 0.1 7.48 2.46 13.02
12/9/2020 1:30:00 PM 3.16 37.688 0.1 7.47 2.52 12.97
12/9/2020 1:45:00 PM 3.17 37.706 0.1 7.46 2.7 12.93
12/9/2020 2:00:00 PM 3.18 37.724 0.1 7.45 2.51 12.9
12/9/2020 2:15:00 PM 3.19 37.742 0.1 7.44 2.7 12.86
12/9/2020 2:30:00 PM 3.2 37.76 0.1 7.44 2.4 12.84
12/9/2020 2:45:00 PM 3.2 37.76 0.1 7.43 2.56 12.82
12/9/2020 3:00:00 PM 3.22 37.796 0.1 7.41 2.37 12.79
12/9/2020 3:15:00 PM 3.22 37.796 0.1 7.4 2.38 12.77
12/9/2020 3:30:00 PM 3.23 37.814 0.1 7.4 2.53 12.73
12/9/2020 3:45:00 PM 3.24 37.832 0.1 7.39 2.56 12.7
12/9/2020 4:00:00 PM 3.25 37.85 0.1 7.39 2.47 12.68
12/9/2020 4:15:00 PM 3.26 37.868 0.1 7.38 2.39 12.65
12/9/2020 4:30:00 PM 3.26 37.868 0.1 7.38 2.65 12.62
12/9/2020 4:45:00 PM 3.27 37.886 0.1 7.36 2.46 12.58
12/9/2020 5:00:00 PM 3.27 37.886 0.1 7.34 2.41 12.54
12/9/2020 5:15:00 PM 3.28 37.904 0.1 7.33 2.59 12.51
12/9/2020 5:30:00 PM 3.28 37.904 0.1 7.33 2.66 12.48
12/9/2020 5:45:00 PM 3.28 37.904 0.101 7.31 2.56 12.45
12/9/2020 6:00:00 PM 3.29 37.922 0.101 7.31 2.47 12.43
12/9/2020 6:15:00 PM 3.29 37.922 0.101 7.3 2.44 12.42
12/9/2020 6:30:00 PM 3.3 37.94 0.101 7.3 2.53 12.41
12/9/2020 6:45:00 PM 3.3 37.94 0.101 7.29 2.63 12.4
12/9/2020 7:00:00 PM 3.31 37.958 0.101 7.29 2.56 12.39
12/9/2020 7:15:00 PM 3.31 37.958 0.101 7.29 2.44 12.39
12/9/2020 7:30:00 PM 3.32 37.976 0.101 7.29 2.54 12.38
12/9/2020 7:45:00 PM 3.32 37.976 0.101 7.29 2.6 12.38
12/9/2020 8:00:00 PM 3.32 37.976 0.101 7.28 2.47 12.38
12/9/2020 8:15:00 PM 3.33 37.994 0.101 7.28 2.56 12.37
12/9/2020 8:30:00 PM 3.34 38.012 0.101 7.28 2.62 12.37
12/9/2020 8:45:00 PM 3.34 38.012 0.101 7.28 2.68 12.37
12/9/2020 9:00:00 PM 3.35 38.03 0.101 7.28 2.52 12.37
12/9/2020 9:15:00 PM 3.35 38.03 0.101 7.28 2.45 12.37
12/9/2020 9:30:00 PM 3.36 38.048 0.101 7.28 2.49 12.37
12/9/2020 9:45:00 PM 3.36 38.048 0.101 7.28 2.43 12.36
12/9/2020 10:00:00 PM 3.36 38.048 0.101 7.28 2.61 12.36
12/9/2020 10:15:00 PM 3.37 38.066 0.101 7.27 2.51 12.36
12/9/2020 10:30:00 PM 3.37 38.066 0.101 7.27 2.52 12.36
12/9/2020 10:45:00 PM 3.37 38.066 0.101 7.28 2.69 12.36
12/9/2020 11:00:00 PM 3.38 38.084 0.101 7.27 2.85 12.36
12/9/2020 11:15:00 PM 3.38 38.084 0.101 7.28 2.59 12.36
12/9/2020 11:30:00 PM 3.39 38.102 0.101 7.27 2.7 12.36
12/9/2020 11:45:00 PM 3.39 38.102 0.101 7.28 2.5 12.36
12/10/2020 12:00:00 AM 3.39 38.102 0.101 7.27 2.55 12.36
12/10/2020 12:15:00 AM 3.4 38.12 0.101 7.27 2.5 12.36
12/10/2020 12:30:00 AM 3.4 38.12 0.101 7.27 2.5 12.35
12/10/2020 12:45:00 AM 3.41 38.138 0.101 7.27 2.5 12.36
12/10/2020 1:00:00 AM 3.41 38.138 0.101 7.27 2.3 12.36
12/10/2020 1:15:00 AM 3.42 38.156 0.101 7.28 2.5 12.36
12/10/2020 1:30:00 AM 3.42 38.156 0.101 7.26 2.38 12.36
12/10/2020 1:45:00 AM 3.43 38.174 0.101 7.27 2.46 12.36
12/10/2020 2:00:00 AM 3.43 38.174 0.101 7.26 2.64 12.36
12/10/2020 2:15:00 AM 3.44 38.192 0.101 7.26 2.51 12.36
12/10/2020 2:30:00 AM 3.44 38.192 0.101 7.26 2.5 12.36
12/10/2020 2:45:00 AM 3.44 38.192 0.101 7.27 2.44 12.35
12/10/2020 3:00:00 AM 3.45 38.21 0.101 7.26 2.46 12.36
12/10/2020 3:15:00 AM 3.45 38.21 0.101 7.26 2.55 12.36
12/10/2020 3:30:00 AM 3.45 38.21 0.101 7.26 2.47 12.36
12/10/2020 3:45:00 AM 3.46 38.228 0.101 7.26 2.53 12.36
12/10/2020 4:00:00 AM 3.46 38.228 0.101 7.27 2.56 12.36
12/10/2020 4:15:00 AM 3.46 38.228 0.101 7.26 2.5 12.36
12/10/2020 4:30:00 AM 3.46 38.228 0.101 7.26 2.48 12.36
12/10/2020 4:45:00 AM 3.46 38.228 0.101 7.26 2.45 12.36
12/10/2020 5:00:00 AM 3.47 38.246 0.101 7.27 2.44 12.36
12/10/2020 5:15:00 AM 3.47 38.246 0.101 7.26 2.47 12.36
12/10/2020 5:30:00 AM 3.47 38.246 0.101 7.26 2.54 12.36
12/10/2020 5:45:00 AM 3.47 38.246 0.101 7.26 2.53 12.36
12/10/2020 6:00:00 AM 3.48 38.264 0.101 7.26 2.64 12.37
12/10/2020 6:15:00 AM 3.48 38.264 0.101 7.26 2.45 12.37
12/10/2020 6:30:00 AM 3.48 38.264 0.101 7.26 2.46 12.37
12/10/2020 6:45:00 AM 3.49 38.282 0.101 7.26 2.37 12.37
12/10/2020 7:00:00 AM 3.49 38.282 0.101 7.26 2.53 12.37
12/10/2020 7:15:00 AM 3.49 38.282 0.101 7.25 2.53 12.37
12/10/2020 7:30:00 AM 3.47 38.246 0.101 7.26 2.67 12.39
12/10/2020 7:45:00 AM 3.45 38.21 0.101 7.27 2.61 12.43
12/10/2020 8:00:00 AM 3.43 38.174 0.101 7.28 2.63 12.51
12/10/2020 8:15:00 AM 3.43 38.174 0.101 7.29 2.63 12.6
12/10/2020 8:30:00 AM 3.44 38.192 0.101 7.32 2.58 12.71
12/10/2020 8:45:00 AM 3.46 38.228 0.101 7.35 2.56 12.8
12/10/2020 9:00:00 AM 3.49 38.282 0.101 7.38 2.67 12.91
12/10/2020 9:15:00 AM 3.53 38.354 0.101 7.41 2.52 13.02
12/10/2020 9:30:00 AM 3.58 38.444 0.101 7.44 2.53 13.11
12/10/2020 9:45:00 AM 3.63 38.534 0.1 7.47 2.48 13.16
12/10/2020 10:00:00 AM 3.67 38.606 0.1 7.5 2.69 13.21
12/10/2020 10:15:00 AM 3.72 38.696 0.1 7.53 2.54 13.27
12/10/2020 10:30:00 AM 3.79 38.822 0.1 7.57 2.79 13.31
12/10/2020 10:45:00 AM 3.85 38.93 0.1 7.6 2.5 13.34
12/10/2020 11:00:00 AM 3.92 39.056 0.1 7.62 2.59 13.36
12/10/2020 11:15:00 AM 4 39.2 0.099 7.65 2.45 13.38
12/10/2020 11:30:00 AM 4.07 39.326 0.1 7.67 2.41 13.39
12/10/2020 11:45:00 AM 4.14 39.452 0.099 7.7 2.59 13.39
12/10/2020 12:00:00 PM 4.2 39.56 0.099 7.71 2.57 13.38
12/10/2020 12:15:00 PM 4.29 39.722 0.099 7.73 2.5 13.39
12/10/2020 12:30:00 PM 4.36 39.848 0.099 7.75 2.68 13.35
12/10/2020 12:45:00 PM 4.46 40.028 0.099 7.74 2.65 13.31
12/10/2020 1:00:00 PM 4.51 40.118 0.099 7.73 2.72 13.22
12/10/2020 1:15:00 PM 4.57 40.226 0.098 7.72 2.44 13.16
12/10/2020 1:30:00 PM 4.63 40.334 0.099 7.72 2.45 13.15
12/10/2020 1:45:00 PM 4.67 40.406 0.098 7.72 2.43 13.11
12/10/2020 2:00:00 PM 4.67 40.406 0.098 7.69 2.46 13.02
12/10/2020 2:15:00 PM 4.68 40.424 0.098 7.66 2.46 12.95
12/10/2020 2:30:00 PM 4.69 40.442 0.098 7.65 2.49 12.91
12/10/2020 2:45:00 PM 4.7 40.46 0.098 7.63 2.58 12.86
12/10/2020 3:00:00 PM 4.67 40.406 0.098 7.61 2.58 12.81
12/10/2020 3:15:00 PM 4.62 40.316 0.099 7.59 2.61 12.78
12/10/2020 3:30:00 PM 4.55 40.19 0.098 7.57 2.65 12.74
12/10/2020 3:45:00 PM 4.49 40.082 0.099 7.54 2.47 12.71
12/10/2020 4:00:00 PM 4.43 39.974 0.099 7.51 2.39 12.69
12/10/2020 4:15:00 PM 4.38 39.884 0.099 7.49 2.5 12.65
12/10/2020 4:30:00 PM 4.32 39.776 0.099 7.47 2.54 12.61
12/10/2020 4:45:00 PM 4.25 39.65 0.099 7.44 2.58 12.55
12/10/2020 5:00:00 PM 4.19 39.542 0.099 7.41 2.44 12.48
12/10/2020 5:15:00 PM 4.14 39.452 0.099 7.38 2.56 12.43
12/10/2020 5:30:00 PM 4.09 39.362 0.099 7.35 2.52 12.39
12/10/2020 5:45:00 PM 4.04 39.272 0.099 7.34 2.79 12.36
12/10/2020 6:00:00 PM 3.99 39.182 0.099 7.32 2.53 12.34
12/10/2020 6:15:00 PM 3.93 39.074 0.099 7.31 2.6 12.34
12/10/2020 6:30:00 PM 3.89 39.002 0.1 7.31 2.53 12.34
12/10/2020 6:45:00 PM 3.85 38.93 0.1 7.29 2.5 12.33
12/10/2020 7:00:00 PM 3.8 38.84 0.1 7.29 2.61 12.34
12/10/2020 7:15:00 PM 3.75 38.75 0.1 7.28 2.62 12.35
12/10/2020 7:30:00 PM 3.7 38.66 0.1 7.28 2.7 12.36
12/10/2020 7:45:00 PM 3.64 38.552 0.1 7.27 2.57 12.37
12/10/2020 8:00:00 PM 3.58 38.444 0.1 7.27 2.51 12.38
12/10/2020 8:15:00 PM 3.53 38.354 0.1 7.26 2.51 12.4
12/10/2020 8:30:00 PM 3.47 38.246 0.1 7.26 2.67 12.42
12/10/2020 8:45:00 PM 3.42 38.156 0.101 7.25 2.58 12.43
12/10/2020 9:00:00 PM 3.37 38.066 0.101 7.26 2.6 12.44
12/10/2020 9:15:00 PM 3.32 37.976 0.101 7.25 2.69 12.46
12/10/2020 9:30:00 PM 3.27 37.886 0.101 7.25 2.7 12.47
12/10/2020 9:45:00 PM 3.23 37.814 0.101 7.25 2.69 12.49
12/10/2020 10:00:00 PM 3.18 37.724 0.101 7.25 2.64 12.51
12/10/2020 10:15:00 PM 3.13 37.634 0.101 7.25 2.43 12.52
12/10/2020 10:30:00 PM 3.09 37.562 0.101 7.25 2.54 12.54
12/10/2020 10:45:00 PM 3.05 37.49 0.101 7.24 2.54 12.55
12/10/2020 11:00:00 PM 3.01 37.418 0.101 7.25 2.6 12.56
12/10/2020 11:15:00 PM 2.97 37.346 0.101 7.25 2.52 12.57
12/10/2020 11:30:00 PM 2.93 37.274 0.101 7.24 2.58 12.59
12/10/2020 11:45:00 PM 2.89 37.202 0.101 7.24 2.65 12.6
12/11/2020 12:00:00 AM 2.86 37.148 0.101 7.25 2.61 12.61
12/11/2020 12:15:00 AM 2.82 37.076 0.101 7.24 2.55 12.63
12/11/2020 12:30:00 AM 2.79 37.022 0.101 7.24 2.48 12.63
12/11/2020 12:45:00 AM 2.75 36.95 0.101 7.25 2.6 12.65
12/11/2020 1:00:00 AM 2.72 36.896 0.101 7.24 2.52 12.66
12/11/2020 1:15:00 AM 2.69 36.842 0.101 7.24 2.6 12.67
12/11/2020 1:30:00 AM 2.67 36.806 0.101 7.24 2.55 12.67
12/11/2020 1:45:00 AM 2.64 36.752 0.101 7.24 2.55 12.68
12/11/2020 2:00:00 AM 2.61 36.698 0.101 7.24 2.58 12.7
12/11/2020 2:15:00 AM 2.59 36.662 0.101 7.24 2.47 12.7
12/11/2020 2:30:00 AM 2.56 36.608 0.101 7.24 2.46 12.71
12/11/2020 2:45:00 AM 2.54 36.572 0.101 7.24 2.52 12.72
12/11/2020 3:00:00 AM 2.51 36.518 0.102 7.24 2.55 12.73
12/11/2020 3:15:00 AM 2.48 36.464 0.101 7.24 2.46 12.73
12/11/2020 3:30:00 AM 2.46 36.428 0.102 7.24 2.56 12.74
12/11/2020 3:45:00 AM 2.43 36.374 0.101 7.24 2.6 12.75
12/11/2020 4:00:00 AM 2.4 36.32 0.102 7.24 2.53 12.76
12/11/2020 4:15:00 AM 2.38 36.284 0.101 7.24 2.54 12.76
12/11/2020 4:30:00 AM 2.36 36.248 0.102 7.24 2.62 12.77
12/11/2020 4:45:00 AM 2.33 36.194 0.101 7.24 2.4 12.78
12/11/2020 5:00:00 AM 2.31 36.158 0.101 7.24 2.53 12.79
12/11/2020 5:15:00 AM 2.29 36.122 0.101 7.24 2.6 12.8
12/11/2020 5:30:00 AM 2.26 36.068 0.102 7.24 2.42 12.8
12/11/2020 5:45:00 AM 2.24 36.032 0.101 7.24 2.43 12.81
12/11/2020 6:00:00 AM 2.22 35.996 0.101 7.23 2.65 12.82
12/11/2020 6:15:00 AM 2.2 35.96 0.101 7.23 2.59 12.83
12/11/2020 6:30:00 AM 2.18 35.924 0.101 7.24 2.48 12.84
12/11/2020 6:45:00 AM 2.16 35.888 0.102 7.23 2.66 12.84
12/11/2020 7:00:00 AM 2.14 35.852 0.101 7.24 2.61 12.86
12/11/2020 7:15:00 AM 2.13 35.834 0.102 7.24 2.7 12.86
12/11/2020 7:30:00 AM 2.11 35.798 0.101 7.24 2.48 12.88
12/11/2020 7:45:00 AM 2.1 35.78 0.101 7.25 2.5 12.92
12/11/2020 8:00:00 AM 2.1 35.78 0.101 7.26 2.64 13.02
12/11/2020 8:15:00 AM 2.11 35.798 0.101 7.29 2.4 13.14
12/11/2020 8:30:00 AM 2.12 35.816 0.101 7.31 2.53 13.25
12/11/2020 8:45:00 AM 2.15 35.87 0.101 7.34 2.66 13.37
12/11/2020 9:00:00 AM 2.18 35.924 0.101 7.38 2.56 13.47
12/11/2020 9:15:00 AM 2.22 35.996 0.101 7.41 2.61 13.56
12/11/2020 9:30:00 AM 2.28 36.104 0.1 7.44 2.44 13.65
12/11/2020 9:45:00 AM 2.37 36.266 0.1 7.48 2.54 13.72
12/11/2020 10:00:00 AM 2.47 36.446 0.1 7.51 2.51 13.76
12/11/2020 10:15:00 AM 2.55 36.59 0.1 7.53 2.39 13.77
12/11/2020 10:30:00 AM 2.62 36.716 0.1 7.55 2.39 13.79
12/11/2020 10:45:00 AM 2.71 36.878 0.1 7.57 2.45 13.78
12/11/2020 11:00:00 AM 2.79 37.022 0.1 7.58 2.5 13.75
12/11/2020 11:15:00 AM 2.91 37.238 0.1 7.6 2.41 13.74
12/11/2020 11:30:00 AM 3.04 37.472 0.099 7.62 2.53 13.72
12/11/2020 11:45:00 AM 3.16 37.688 0.099 7.64 2.43 13.68
12/11/2020 12:00:00 PM 3.27 37.886 0.099 7.65 2.5 13.66
12/11/2020 12:15:00 PM 3.42 38.156 0.099 7.67 2.5 13.62
12/11/2020 12:30:00 PM 3.57 38.426 0.099 7.68 2.33 13.58
12/11/2020 12:45:00 PM 3.7 38.66 0.099 7.7 2.55 13.53
12/11/2020 1:00:00 PM 3.83 38.894 0.098 7.71 2.49 13.49
12/11/2020 1:15:00 PM 3.94 39.092 0.098 7.71 2.42 13.44
12/11/2020 1:30:00 PM 4.05 39.29 0.098 7.71 2.39 13.38
12/11/2020 1:45:00 PM 4.15 39.47 0.098 7.72 2.46 13.35
12/11/2020 2:00:00 PM 4.27 39.686 0.098 7.74 2.45 13.33
12/11/2020 2:15:00 PM 4.37 39.866 0.098 7.74 2.41 13.29
12/11/2020 2:30:00 PM 4.46 40.028 0.098 7.74 2.5 13.24
12/11/2020 2:45:00 PM 4.49 40.082 0.098 7.72 2.58 13.14
12/11/2020 3:00:00 PM 4.49 40.082 0.098 7.68 2.49 13.05
12/11/2020 3:15:00 PM 4.48 40.064 0.098 7.65 2.47 12.97
12/11/2020 3:30:00 PM 4.47 40.046 0.098 7.62 2.4 12.9
12/11/2020 3:45:00 PM 4.43 39.974 0.098 7.59 2.53 12.84
12/11/2020 4:00:00 PM 4.4 39.92 0.098 7.55 2.55 12.78
12/11/2020 4:15:00 PM 4.38 39.884 0.098 7.53 2.59 12.73
12/11/2020 4:30:00 PM 4.35 39.83 0.098 7.5 2.44 12.66
12/11/2020 4:45:00 PM 4.31 39.758 0.098 7.47 2.51 12.57
12/11/2020 5:00:00 PM 4.27 39.686 0.098 7.43 2.54 12.49
12/11/2020 5:15:00 PM 4.23 39.614 0.098 7.4 2.62 12.42
12/11/2020 5:30:00 PM 4.18 39.524 0.099 7.37 2.44 12.36
12/11/2020 5:45:00 PM 4.13 39.434 0.099 7.35 2.57 12.33
12/11/2020 6:00:00 PM 4.08 39.344 0.099 7.34 2.58 12.3
12/11/2020 6:15:00 PM 4.03 39.254 0.099 7.32 2.53 12.29
12/11/2020 6:30:00 PM 3.98 39.164 0.099 7.31 2.5 12.28
12/11/2020 6:45:00 PM 3.94 39.092 0.099 7.29 2.45 12.28
12/11/2020 7:00:00 PM 3.91 39.038 0.099 7.28 2.51 12.27
12/11/2020 7:15:00 PM 3.88 38.984 0.099 7.28 2.45 12.27
12/11/2020 7:30:00 PM 3.85 38.93 0.099 7.27 2.49 12.28
12/11/2020 7:45:00 PM 3.83 38.894 0.099 7.27 2.64 12.28
12/11/2020 8:00:00 PM 3.8 38.84 0.099 7.27 2.43 12.29
12/11/2020 8:15:00 PM 3.78 38.804 0.099 7.26 2.52 12.29
12/11/2020 8:30:00 PM 3.75 38.75 0.1 7.26 2.75 12.29
12/11/2020 8:45:00 PM 3.72 38.696 0.1 7.25 2.41 12.3
12/11/2020 9:00:00 PM 3.68 38.624 0.1 7.26 2.55 12.31
12/11/2020 9:15:00 PM 3.65 38.57 0.1 7.25 2.51 12.31
12/11/2020 9:30:00 PM 3.61 38.498 0.1 7.25 2.56 12.33
12/11/2020 9:45:00 PM 3.57 38.426 0.1 7.24 2.58 12.34
12/11/2020 10:00:00 PM 3.53 38.354 0.1 7.24 2.55 12.35
12/11/2020 10:15:00 PM 3.49 38.282 0.1 7.24 2.47 12.37
12/11/2020 10:30:00 PM 3.44 38.192 0.1 7.24 2.37 12.38
12/11/2020 10:45:00 PM 3.41 38.138 0.1 7.24 2.46 12.39
12/11/2020 11:00:00 PM 3.37 38.066 0.1 7.24 2.56 12.4
12/11/2020 11:15:00 PM 3.34 38.012 0.1 7.24 2.54 12.41
12/11/2020 11:30:00 PM 3.31 37.958 0.1 7.23 2.65 12.42
12/11/2020 11:45:00 PM 3.27 37.886 0.1 7.24 2.59 12.44
12/12/2020 12:00:00 AM 3.25 37.85 0.1 7.23 2.37 12.44
12/12/2020 12:15:00 AM 3.23 37.814 0.1 7.23 2.57 12.45
12/12/2020 12:30:00 AM 3.21 37.778 0.101 7.23 2.5 12.46
12/12/2020 12:45:00 AM 3.19 37.742 0.1 7.23 2.42 12.47
12/12/2020 1:00:00 AM 3.16 37.688 0.1 7.23 2.39 12.48
12/12/2020 1:15:00 AM 3.15 37.67 0.1 7.24 2.51 12.49
12/12/2020 1:30:00 AM 3.13 37.634 0.101 7.23 2.48 12.49
12/12/2020 1:45:00 AM 3.11 37.598 0.101 7.23 2.53 12.5
12/12/2020 2:00:00 AM 3.1 37.58 0.101 7.24 2.47 12.5
12/12/2020 2:15:00 AM 3.09 37.562 0.101 7.23 2.64 12.51
12/12/2020 2:30:00 AM 3.06 37.508 0.101 7.24 2.6 12.52
12/12/2020 2:45:00 AM 3.04 37.472 0.101 7.23 2.49 12.52
12/12/2020 3:00:00 AM 3.02 37.436 0.101 7.23 2.45 12.53
12/12/2020 3:15:00 AM 3 37.4 0.101 7.24 2.43 12.54
12/12/2020 3:30:00 AM 2.99 37.382 0.101 7.23 2.51 12.54
12/12/2020 3:45:00 AM 2.97 37.346 0.101 7.24 2.57 12.55
12/12/2020 4:00:00 AM 2.95 37.31 0.101 7.23 2.51 12.55
12/12/2020 4:15:00 AM 2.92 37.256 0.101 7.23 2.38 12.55
12/12/2020 4:30:00 AM 2.91 37.238 0.101 7.23 2.52 12.56
12/12/2020 4:45:00 AM 2.9 37.22 0.101 7.23 2.47 12.57
12/12/2020 5:00:00 AM 2.89 37.202 0.101 7.23 2.5 12.57
12/12/2020 5:15:00 AM 2.89 37.202 0.101 7.23 2.44 12.57
12/12/2020 5:30:00 AM 2.89 37.202 0.101 7.23 2.45 12.58
12/12/2020 5:45:00 AM 2.9 37.22 0.101 7.23 2.47 12.58
12/12/2020 6:00:00 AM 2.9 37.22 0.101 7.24 2.59 12.58
12/12/2020 6:15:00 AM 2.9 37.22 0.101 7.24 2.49 12.57
12/12/2020 6:30:00 AM 2.9 37.22 0.101 7.23 2.43 12.57
12/12/2020 6:45:00 AM 2.91 37.238 0.101 7.23 2.47 12.57
12/12/2020 7:00:00 AM 2.91 37.238 0.101 7.23 2.51 12.57
12/12/2020 7:15:00 AM 2.91 37.238 0.101 7.24 2.58 12.57
12/12/2020 7:30:00 AM 2.91 37.238 0.101 7.24 2.56 12.57
12/12/2020 7:45:00 AM 2.92 37.256 0.101 7.24 2.38 12.58
12/12/2020 8:00:00 AM 2.93 37.274 0.101 7.24 2.52 12.61
12/12/2020 8:15:00 AM 2.94 37.292 0.101 7.25 2.49 12.66
12/12/2020 8:30:00 AM 2.95 37.31 0.101 7.27 2.43 12.75
12/12/2020 8:45:00 AM 2.97 37.346 0.1 7.29 2.46 12.84
12/12/2020 9:00:00 AM 3 37.4 0.101 7.33 2.54 12.98
12/12/2020 9:15:00 AM 3.03 37.454 0.1 7.35 2.55 13.06
12/12/2020 9:30:00 AM 3.07 37.526 0.1 7.39 2.54 13.17
12/12/2020 9:45:00 AM 3.12 37.616 0.1 7.42 2.48 13.28
12/12/2020 10:00:00 AM 3.17 37.706 0.1 7.45 2.59 13.34
12/12/2020 10:15:00 AM 3.19 37.742 0.1 7.48 2.57 13.35
12/12/2020 10:30:00 AM 3.25 37.85 0.1 7.5 2.47 13.41
12/12/2020 10:45:00 AM 3.38 38.084 0.1 7.54 2.6 13.48
12/12/2020 11:00:00 AM 3.45 38.21 0.099 7.57 2.63 13.5
12/12/2020 11:15:00 AM 3.52 38.336 0.099 7.6 2.55 13.52
12/12/2020 11:30:00 AM 3.61 38.498 0.099 7.62 2.5 13.52
12/12/2020 11:45:00 AM 3.7 38.66 0.099 7.64 2.42 13.52
12/12/2020 12:00:00 PM 3.81 38.858 0.099 7.67 2.52 13.51
12/12/2020 12:15:00 PM 3.91 39.038 0.099 7.69 2.57 13.49
12/12/2020 12:30:00 PM 4.01 39.218 0.099 7.71 2.47 13.47
12/12/2020 12:45:00 PM 4.11 39.398 0.098 7.74 2.55 13.46
12/12/2020 1:00:00 PM 4.2 39.56 0.098 7.74 2.46 13.39
12/12/2020 1:15:00 PM 4.26 39.668 0.098 7.72 2.51 13.28
12/12/2020 1:30:00 PM 4.36 39.848 0.098 7.71 2.49 13.22
12/12/2020 1:45:00 PM 4.46 40.028 0.098 7.71 2.39 13.16
12/12/2020 2:00:00 PM 4.54 40.172 0.098 7.69 2.41 13.08
12/12/2020 2:15:00 PM 4.61 40.298 0.098 7.68 2.44 13.01
12/12/2020 2:30:00 PM 4.68 40.424 0.098 7.68 2.38 12.96
12/12/2020 2:45:00 PM 4.77 40.586 0.098 7.69 2.46 12.97
12/12/2020 3:00:00 PM 4.85 40.73 0.098 7.68 2.43 12.91
12/12/2020 3:15:00 PM 4.89 40.802 0.097 7.66 2.64 12.81
12/12/2020 3:30:00 PM 4.92 40.856 0.098 7.62 2.56 12.74
12/12/2020 3:45:00 PM 4.93 40.874 0.098 7.6 2.56 12.64
12/12/2020 4:00:00 PM 4.94 40.892 0.098 7.55 2.57 12.51
12/12/2020 4:15:00 PM 4.94 40.892 0.098 7.51 2.39 12.41
12/12/2020 4:30:00 PM 4.93 40.874 0.098 7.47 2.56 12.31
12/12/2020 4:45:00 PM 4.92 40.856 0.098 7.44 2.55 12.23
12/12/2020 5:00:00 PM 4.91 40.838 0.098 7.41 2.56 12.15
12/12/2020 5:15:00 PM 4.9 40.82 0.099 7.39 2.47 12.08
12/12/2020 5:30:00 PM 4.9 40.82 0.098 7.37 2.57 12.02
12/12/2020 5:45:00 PM 4.9 40.82 0.099 7.36 2.62 11.98
12/12/2020 6:00:00 PM 4.91 40.838 0.099 7.34 2.5 11.95
12/12/2020 6:15:00 PM 4.91 40.838 0.099 7.33 2.46 11.92
12/12/2020 6:30:00 PM 4.9 40.82 0.099 7.32 2.67 11.9
12/12/2020 6:45:00 PM 4.89 40.802 0.099 7.31 2.69 11.88
12/12/2020 7:00:00 PM 4.89 40.802 0.099 7.3 2.6 11.87
12/12/2020 7:15:00 PM 4.87 40.766 0.099 7.3 2.48 11.86
12/12/2020 7:30:00 PM 4.85 40.73 0.099 7.29 2.54 11.86
12/12/2020 7:45:00 PM 4.83 40.694 0.099 7.28 2.52 11.86
12/12/2020 8:00:00 PM 4.81 40.658 0.099 7.28 2.48 11.86
12/12/2020 8:15:00 PM 4.79 40.622 0.099 7.27 2.46 11.86
12/12/2020 8:30:00 PM 4.78 40.604 0.099 7.26 2.63 11.86
12/12/2020 8:45:00 PM 4.77 40.586 0.099 7.27 2.47 11.86
12/12/2020 9:00:00 PM 4.77 40.586 0.1 7.26 2.78 11.86
12/12/2020 9:15:00 PM 4.77 40.586 0.1 7.26 2.63 11.86
12/12/2020 9:30:00 PM 4.77 40.586 0.1 7.26 2.45 11.86
12/12/2020 9:45:00 PM 4.77 40.586 0.1 7.26 2.5 11.85
12/12/2020 10:00:00 PM 4.77 40.586 0.099 7.25 2.55 11.85
12/12/2020 10:15:00 PM 4.78 40.604 0.1 7.25 2.52 11.85
12/12/2020 10:30:00 PM 4.78 40.604 0.1 7.25 2.5 11.85
12/12/2020 10:45:00 PM 4.78 40.604 0.1 7.25 2.39 11.85
12/12/2020 11:00:00 PM 4.78 40.604 0.1 7.25 2.56 11.84
12/12/2020 11:15:00 PM 4.78 40.604 0.1 7.25 2.31 11.84
12/12/2020 11:30:00 PM 4.78 40.604 0.1 7.24 2.48 11.84
12/12/2020 11:45:00 PM 4.78 40.604 0.1 7.25 2.44 11.84
12/13/2020 12:00:00 AM 4.78 40.604 0.1 7.24 2.47 11.83
12/13/2020 12:15:00 AM 4.77 40.586 0.1 7.25 2.41 11.83
12/13/2020 12:30:00 AM 4.76 40.568 0.1 7.24 2.69 11.83
12/13/2020 12:45:00 AM 4.75 40.55 0.1 7.24 2.49 11.83
12/13/2020 1:00:00 AM 4.75 40.55 0.1 7.24 2.53 11.83
12/13/2020 1:15:00 AM 4.76 40.568 0.1 7.25 2.64 11.83
12/13/2020 1:30:00 AM 4.77 40.586 0.1 7.24 2.58 11.83
12/13/2020 1:45:00 AM 4.77 40.586 0.1 7.24 2.54 11.83
12/13/2020 2:00:00 AM 4.79 40.622 0.099 7.24 2.77 11.82
12/13/2020 2:15:00 AM 4.82 40.676 0.099 7.24 2.66 11.83
12/13/2020 2:30:00 AM 4.83 40.694 0.099 7.24 2.51 11.81
12/13/2020 2:45:00 AM 4.83 40.694 0.099 7.24 2.75 11.81
12/13/2020 3:00:00 AM 4.84 40.712 0.099 7.24 2.47 11.81
12/13/2020 3:15:00 AM 4.82 40.676 0.099 7.25 2.62 11.81
12/13/2020 3:30:00 AM 4.8 40.64 0.099 7.24 2.51 11.81
12/13/2020 3:45:00 AM 4.77 40.586 0.099 7.24 2.71 11.81
12/13/2020 4:00:00 AM 4.75 40.55 0.099 7.24 2.6 11.82
12/13/2020 4:15:00 AM 4.74 40.532 0.099 7.24 2.66 11.82
12/13/2020 4:30:00 AM 4.72 40.496 0.099 7.24 2.58 11.83
12/13/2020 4:45:00 AM 4.69 40.442 0.099 7.23 2.51 11.84
12/13/2020 5:00:00 AM 4.65 40.37 0.1 7.24 2.61 11.85
12/13/2020 5:15:00 AM 4.62 40.316 0.1 7.24 2.5 11.86
12/13/2020 5:30:00 AM 4.58 40.244 0.1 7.24 2.39 11.87
12/13/2020 5:45:00 AM 4.55 40.19 0.1 7.24 2.46 11.88
12/13/2020 6:00:00 AM 4.51 40.118 0.1 7.24 2.53 11.9
12/13/2020 6:15:00 AM 4.49 40.082 0.1 7.24 2.62 11.91
12/13/2020 6:30:00 AM 4.48 40.064 0.1 7.24 2.49 11.92
12/13/2020 6:45:00 AM 4.48 40.064 0.1 7.24 2.62 11.93
12/13/2020 7:00:00 AM 4.49 40.082 0.1 7.25 2.51 11.93
12/13/2020 7:15:00 AM 4.5 40.1 0.1 7.25 2.4 11.94
12/13/2020 7:30:00 AM 4.51 40.118 0.1 7.25 2.6 11.94
12/13/2020 7:45:00 AM 4.52 40.136 0.1 7.25 2.61 11.95
12/13/2020 8:00:00 AM 4.53 40.154 0.1 7.25 2.45 11.96
12/13/2020 8:15:00 AM 4.54 40.172 0.1 7.26 2.53 11.99
12/13/2020 8:30:00 AM 4.55 40.19 0.1 7.26 2.55 12.01
12/13/2020 8:45:00 AM 4.57 40.226 0.1 7.28 2.44 12.07
12/13/2020 9:00:00 AM 4.59 40.262 0.1 7.3 2.38 12.17
12/13/2020 9:15:00 AM 4.62 40.316 0.1 7.32 2.42 12.26
12/13/2020 9:30:00 AM 4.66 40.388 0.1 7.35 2.41 12.39
12/13/2020 9:45:00 AM 4.7 40.46 0.099 7.39 2.38 12.52
12/13/2020 10:00:00 AM 4.74 40.532 0.099 7.43 2.47 12.62
12/13/2020 10:15:00 AM 4.78 40.604 0.099 7.45 2.53 12.69
12/13/2020 10:30:00 AM 4.82 40.676 0.099 7.49 2.47 12.79
12/13/2020 10:45:00 AM 4.87 40.766 0.099 7.54 2.34 12.87
12/13/2020 11:00:00 AM 4.92 40.856 0.099 7.59 2.55 12.95
12/13/2020 11:15:00 AM 4.97 40.946 0.099 7.62 2.88 12.99
12/13/2020 11:30:00 AM 5.02 41.036 0.099 7.64 2.49 13
12/13/2020 11:45:00 AM 5.07 41.126 0.098 7.67 2.43 13.03
12/13/2020 12:00:00 PM 5.15 41.27 0.098 7.72 2.39 13.06
12/13/2020 12:15:00 PM 5.18 41.324 0.098 7.73 2.46 13.04
12/13/2020 12:30:00 PM 5.21 41.378 0.098 7.73 2.44 13.03
12/13/2020 12:45:00 PM 5.27 41.486 0.098 7.77 2.47 13.07
12/13/2020 1:00:00 PM 5.31 41.558 0.098 7.79 2.48 13.04
12/13/2020 1:15:00 PM 5.33 41.594 0.098 7.8 2.45 13.04
12/13/2020 1:30:00 PM 5.36 41.648 0.098 7.78 2.52 12.97
12/13/2020 1:45:00 PM 5.4 41.72 0.097 7.79 2.44 12.96
12/13/2020 2:00:00 PM 5.42 41.756 0.097 7.8 2.54 12.96
12/13/2020 2:15:00 PM 5.44 41.792 0.097 7.81 9.39 12.97
12/13/2020 2:30:00 PM 5.46 41.828 0.097 7.82 3.69 12.96
12/13/2020 2:45:00 PM 5.46 41.828 0.098 7.82 2.49 12.93
12/13/2020 3:00:00 PM 5.46 41.828 0.097 7.8 2.61 12.9
12/13/2020 3:15:00 PM 5.46 41.828 0.097 7.78 2.55 12.85
12/13/2020 3:30:00 PM 5.45 41.81 0.097 7.76 2.59 12.8
12/13/2020 3:45:00 PM 5.44 41.792 0.097 7.74 2.45 12.78
12/13/2020 4:00:00 PM 5.41 41.738 0.098 7.7 2.54 12.68
12/13/2020 4:15:00 PM 5.38 41.684 0.098 7.64 2.57 12.56
12/13/2020 4:30:00 PM 5.35 41.63 0.098 7.58 2.49 12.46
12/13/2020 4:45:00 PM 5.32 41.576 0.098 7.53 2.62 12.35
12/13/2020 5:00:00 PM 5.29 41.522 0.098 7.49 2.42 12.23
12/13/2020 5:15:00 PM 5.25 41.45 0.098 7.45 2.5 12.13
12/13/2020 5:30:00 PM 5.22 41.396 0.098 7.41 2.54 12.07
12/13/2020 5:45:00 PM 5.19 41.342 0.098 7.39 2.69 12.02
12/13/2020 6:00:00 PM 5.16 41.288 0.098 7.38 2.5 11.98
12/13/2020 6:15:00 PM 5.12 41.216 0.099 7.35 2.6 11.95
12/13/2020 6:30:00 PM 5.09 41.162 0.099 7.34 2.65 11.93
12/13/2020 6:45:00 PM 5.06 41.108 0.099 7.33 2.52 11.92
12/13/2020 7:00:00 PM 5.03 41.054 0.099 7.32 2.39 11.91
12/13/2020 7:15:00 PM 5 41 0.099 7.31 2.55 11.9
12/13/2020 7:30:00 PM 4.97 40.946 0.099 7.3 2.5 11.9
12/13/2020 7:45:00 PM 4.94 40.892 0.1 7.29 2.53 11.9
12/13/2020 8:00:00 PM 4.92 40.856 0.1 7.29 2.9 11.9
12/13/2020 8:15:00 PM 4.9 40.82 0.1 7.29 2.6 11.9
12/13/2020 8:30:00 PM 4.87 40.766 0.1 7.28 2.54 11.9
12/13/2020 8:45:00 PM 4.85 40.73 0.1 7.28 2.6 11.9
12/13/2020 9:00:00 PM 4.82 40.676 0.1 7.28 2.53 11.91
12/13/2020 9:15:00 PM 4.8 40.64 0.1 7.27 2.79 11.91
12/13/2020 9:30:00 PM 4.78 40.604 0.1 7.27 2.74 11.91
12/13/2020 9:45:00 PM 4.76 40.568 0.1 7.27 2.67 11.91
12/13/2020 10:00:00 PM 4.74 40.532 0.1 7.26 2.61 11.92
12/13/2020 10:15:00 PM 4.72 40.496 0.1 7.26 2.5 11.92
12/13/2020 10:30:00 PM 4.7 40.46 0.1 7.27 2.46 11.93
12/13/2020 10:45:00 PM 4.69 40.442 0.1 7.27 2.52 11.93
12/13/2020 11:00:00 PM 4.67 40.406 0.1 7.26 2.49 11.94
12/13/2020 11:15:00 PM 4.65 40.37 0.1 7.26 2.59 11.94
12/13/2020 11:30:00 PM 4.64 40.352 0.101 7.27 2.55 11.94
12/13/2020 11:45:00 PM 4.62 40.316 0.1 7.26 2.47 11.94
12/14/2020 12:00:00 AM 4.61 40.298 0.101 7.26 2.69 11.95
12/14/2020 12:15:00 AM 4.59 40.262 0.101 7.26 2.45 11.95
12/14/2020 12:30:00 AM 4.58 40.244 0.101 7.26 2.47 11.95
12/14/2020 12:45:00 AM 4.57 40.226 0.101 7.26 2.62 11.95
12/14/2020 1:00:00 AM 4.55 40.19 0.101 7.26 2.48 11.96
12/14/2020 1:15:00 AM 4.54 40.172 0.101 7.26 2.57 11.96
12/14/2020 1:30:00 AM 4.53 40.154 0.101 7.26 2.66 11.96
12/14/2020 1:45:00 AM 4.51 40.118 0.101 7.26 2.43 11.96
12/14/2020 2:00:00 AM 4.5 40.1 0.101 7.26 2.51 11.96
12/14/2020 2:15:00 AM 4.49 40.082 0.101 7.26 2.46 11.96
12/14/2020 2:30:00 AM 4.47 40.046 0.101 7.25 2.45 11.96
12/14/2020 2:45:00 AM 4.46 40.028 0.101 7.25 2.55 11.97
12/14/2020 3:00:00 AM 4.44 39.992 0.101 7.25 2.49 11.97
12/14/2020 3:15:00 AM 4.43 39.974 0.101 7.25 2.46 11.97
12/14/2020 3:30:00 AM 4.42 39.956 0.101 7.25 2.6 11.97
12/14/2020 3:45:00 AM 4.4 39.92 0.101 7.25 2.51 11.98
12/14/2020 4:00:00 AM 4.39 39.902 0.101 7.26 2.45 11.98
12/14/2020 4:15:00 AM 4.38 39.884 0.101 7.26 2.61 11.99
12/14/2020 4:30:00 AM 4.37 39.866 0.104 7.26 2.4 11.99
12/14/2020 4:45:00 AM 4.35 39.83 0.101 7.25 2.61 12
12/14/2020 5:00:00 AM 4.31 39.758 0.101 7.26 2.61 12
12/14/2020 5:15:00 AM 4.26 39.668 0.101 7.25 2.46 12
12/14/2020 5:30:00 AM 4.22 39.596 0.101 7.25 2.62 12.02
12/14/2020 5:45:00 AM 4.17 39.506 0.101 7.25 2.5 12.02
12/14/2020 6:00:00 AM 4.13 39.434 0.101 7.24 2.67 12.03
12/14/2020 6:15:00 AM 4.11 39.398 0.101 7.25 2.45 12.04
12/14/2020 6:30:00 AM 4.09 39.362 0.101 7.25 2.55 12.06
12/14/2020 6:45:00 AM 4.08 39.344 0.101 7.25 2.55 12.06
12/14/2020 7:00:00 AM 4.05 39.29 0.101 7.25 2.54 12.06
12/14/2020 7:15:00 AM 4.03 39.254 0.101 7.25 2.6 12.08
12/14/2020 7:30:00 AM 4.02 39.236 0.101 7.25 2.48 12.08
12/14/2020 7:45:00 AM 3.99 39.182 0.101 7.18 3.53 12.08
12/14/2020 8:00:00 AM 3.95 39.11 0.101 7.26 2.48 12.11
12/14/2020 8:15:00 AM 3.92 39.056 0.101 7.26 2.55 12.14
12/14/2020 8:30:00 AM 3.91 39.038 0.101 7.27 2.5 12.2
12/14/2020 8:45:00 AM 3.91 39.038 0.101 7.28 2.46 12.27
12/14/2020 9:00:00 AM 3.91 39.038 0.101 7.3 2.56 12.35
12/14/2020 9:15:00 AM 3.92 39.056 0.1 7.32 2.47 12.43
12/14/2020 9:30:00 AM 3.94 39.092 0.1 7.35 2.67 12.56
12/14/2020 9:45:00 AM 3.98 39.164 0.1 7.39 2.47 12.71
12/14/2020 10:00:00 AM 4.01 39.218 0.1 7.43 2.81 12.82
12/14/2020 10:15:00 AM 4.03 39.254 0.1 7.46 2.5 12.89
12/14/2020 10:30:00 AM 4.06 39.308 0.1 7.48 2.55 12.97
12/14/2020 10:45:00 AM 4.09 39.362 0.1 7.52 2.44 13.02
12/14/2020 11:00:00 AM 4.12 39.416 0.1 7.54 2.61 13.06
12/14/2020 11:15:00 AM 4.15 39.47 0.1 7.56 2.44 13.07
12/14/2020 11:30:00 AM 4.18 39.524 0.099 7.58 2.54 13.1
12/14/2020 11:45:00 AM 4.23 39.614 0.099 7.61 2.45 13.14
12/14/2020 12:00:00 PM 4.25 39.65 0.099 7.62 2.51 13.13
12/14/2020 12:15:00 PM 4.3 39.74 0.099 7.65 2.35 13.15
12/14/2020 12:30:00 PM 4.33 39.794 0.099 7.66 2.61 13.13
12/14/2020 12:45:00 PM 4.37 39.866 0.099 7.69 2.48 13.19
12/14/2020 1:00:00 PM 4.42 39.956 0.099 7.72 2.54 13.23
12/14/2020 1:15:00 PM 4.48 40.064 0.098 7.76 2.45 13.25
12/14/2020 1:30:00 PM 4.51 40.118 0.098 7.75 2.7 13.18
12/14/2020 1:45:00 PM 4.52 40.136 0.099 7.73 2.42 13.11
12/14/2020 2:00:00 PM 4.54 40.172 0.098 7.71 2.46 13.05
12/14/2020 2:15:00 PM 4.56 40.208 0.098 7.69 2.43 13.01
12/14/2020 2:30:00 PM 4.56 40.208 0.098 7.68 2.54 12.96
12/14/2020 2:45:00 PM 4.56 40.208 0.098 7.65 2.59 12.9
12/14/2020 3:00:00 PM 4.56 40.208 0.098 7.65 2.49 12.91
12/14/2020 3:15:00 PM 4.56 40.208 0.098 7.66 2.5 12.92
12/14/2020 3:30:00 PM 4.56 40.208 0.098 7.62 2.44 12.8
12/14/2020 3:45:00 PM 4.54 40.172 0.098 7.57 2.75 12.65
12/14/2020 4:00:00 PM 4.52 40.136 0.098 7.53 2.56 12.57
12/14/2020 4:15:00 PM 4.49 40.082 0.098 7.5 2.58 12.52
12/14/2020 4:30:00 PM 4.47 40.046 0.098 7.47 2.65 12.44
12/14/2020 4:45:00 PM 4.43 39.974 0.099 7.43 2.63 12.35
12/14/2020 5:00:00 PM 4.4 39.92 0.099 7.4 2.65 12.29
12/14/2020 5:15:00 PM 4.36 39.848 0.099 7.38 2.72 12.25
12/14/2020 5:30:00 PM 4.33 39.794 0.099 7.37 2.67 12.22
12/14/2020 5:45:00 PM 4.29 39.722 0.099 7.35 2.65 12.19
12/14/2020 6:00:00 PM 4.24 39.632 0.099 7.34 2.55 12.17
12/14/2020 6:15:00 PM 4.18 39.524 0.1 7.32 2.61 12.16
12/14/2020 6:30:00 PM 4.12 39.416 0.099 7.32 2.62 12.16
12/14/2020 6:45:00 PM 4.08 39.344 0.1 7.31 2.58 12.16
12/14/2020 7:00:00 PM 4.05 39.29 0.1 7.3 2.52 12.17
12/14/2020 7:15:00 PM 4 39.2 0.1 7.3 2.6 12.17
12/14/2020 7:30:00 PM 3.97 39.146 0.1 7.29 2.53 12.18
12/14/2020 7:45:00 PM 3.94 39.092 0.1 7.29 2.86 12.19
12/14/2020 8:00:00 PM 3.91 39.038 0.1 7.29 2.73 12.19
12/14/2020 8:15:00 PM 3.88 38.984 0.1 7.28 2.59 12.21
12/14/2020 8:30:00 PM 3.85 38.93 0.1 7.28 2.71 12.22
12/14/2020 8:45:00 PM 3.81 38.858 0.1 7.27 2.46 12.23
12/14/2020 9:00:00 PM 3.77 38.786 0.1 7.27 2.47 12.24
12/14/2020 9:15:00 PM 3.74 38.732 0.101 7.27 2.4 12.25
12/14/2020 9:30:00 PM 3.7 38.66 0.1 7.27 2.52 12.26
12/14/2020 9:45:00 PM 3.67 38.606 0.1 7.27 2.58 12.28
12/14/2020 10:00:00 PM 3.64 38.552 0.1 7.27 2.53 12.29
12/14/2020 10:15:00 PM 3.61 38.498 0.101 7.27 2.4 12.3
12/14/2020 10:30:00 PM 3.58 38.444 0.101 7.26 2.67 12.31
12/14/2020 10:45:00 PM 3.56 38.408 0.101 7.26 2.56 12.32
12/14/2020 11:00:00 PM 3.53 38.354 0.101 7.27 2.36 12.33
12/14/2020 11:15:00 PM 3.5 38.3 0.101 7.26 2.63 12.34
12/14/2020 11:30:00 PM 3.47 38.246 0.101 7.26 2.49 12.35
12/14/2020 11:45:00 PM 3.44 38.192 0.101 7.26 2.39 12.36
12/15/2020 12:00:00 AM 3.4 38.12 0.101 7.26 2.69 12.37
12/15/2020 12:15:00 AM 3.37 38.066 0.101 7.26 2.63 12.38
12/15/2020 12:30:00 AM 3.35 38.03 0.101 7.26 2.57 12.4
12/15/2020 12:45:00 AM 3.3 37.94 0.101 7.26 2.56 12.41
12/15/2020 1:00:00 AM 3.27 37.886 0.101 7.26 2.53 12.42
12/15/2020 1:15:00 AM 3.23 37.814 0.101 7.26 2.46 12.43
12/15/2020 1:30:00 AM 3.22 37.796 0.101 7.26 2.56 12.44
12/15/2020 1:45:00 AM 3.19 37.742 0.101 7.26 2.42 12.45
12/15/2020 2:00:00 AM 3.15 37.67 0.101 7.26 2.54 12.47
12/15/2020 2:15:00 AM 3.13 37.634 0.101 7.26 2.6 12.48
12/15/2020 2:30:00 AM 3.12 37.616 0.101 7.26 2.45 12.49
12/15/2020 2:45:00 AM 3.11 37.598 0.101 7.27 2.39 12.5
12/15/2020 3:00:00 AM 3.1 37.58 0.101 7.26 2.43 12.5
12/15/2020 3:15:00 AM 3.07 37.526 0.101 7.26 2.51 12.51
12/15/2020 3:30:00 AM 3.05 37.49 0.101 7.26 2.77 12.53
12/15/2020 3:45:00 AM 3.03 37.454 0.101 7.26 2.45 12.53
12/15/2020 4:00:00 AM 3.02 37.436 0.101 7.26 2.59 12.54
12/15/2020 4:15:00 AM 2.99 37.382 0.101 7.27 2.61 12.55
12/15/2020 4:30:00 AM 2.96 37.328 0.101 7.26 2.66 12.56
12/15/2020 4:45:00 AM 2.94 37.292 0.101 7.26 2.47 12.56
12/15/2020 5:00:00 AM 2.94 37.292 0.101 7.26 2.6 12.57
12/15/2020 5:15:00 AM 2.92 37.256 0.101 7.26 2.73 12.58
12/15/2020 5:30:00 AM 2.9 37.22 0.101 7.26 2.51 12.59
12/15/2020 5:45:00 AM 2.88 37.184 0.101 7.26 2.64 12.6
12/15/2020 6:00:00 AM 2.86 37.148 0.101 7.26 2.55 12.61
12/15/2020 6:15:00 AM 2.86 37.148 0.101 7.26 2.39 12.61
12/15/2020 6:30:00 AM 2.85 37.13 0.101 7.26 2.46 12.62
12/15/2020 6:45:00 AM 2.84 37.112 0.101 7.26 2.58 12.62
12/15/2020 7:00:00 AM 2.83 37.094 0.101 7.26 2.47 12.63
12/15/2020 7:15:00 AM 2.82 37.076 0.101 7.26 2.6 12.63
12/15/2020 7:30:00 AM 2.81 37.058 0.101 7.26 2.51 12.64
12/15/2020 7:45:00 AM 2.8 37.04 0.101 7.26 2.55 12.66
12/15/2020 8:00:00 AM 2.8 37.04 0.101 7.27 2.39 12.71
12/15/2020 8:15:00 AM 2.78 37.004 0.101 7.28 2.6 12.78
12/15/2020 8:30:00 AM 2.78 37.004 0.101 7.3 2.41 12.91
12/15/2020 8:45:00 AM 2.78 37.004 0.101 7.34 2.52 13.05
12/15/2020 9:00:00 AM 2.79 37.022 0.101 7.38 2.45 13.18
12/15/2020 9:15:00 AM 2.79 37.022 0.101 7.4 2.55 13.3
12/15/2020 9:30:00 AM 2.8 37.04 0.101 7.44 2.39 13.43
12/15/2020 9:45:00 AM 2.82 37.076 0.101 7.48 2.49 13.55
12/15/2020 10:00:00 AM 2.86 37.148 0.1 7.53 2.38 13.64
12/15/2020 10:15:00 AM 2.88 37.184 0.1 7.56 2.66 13.7
12/15/2020 10:30:00 AM 2.92 37.256 0.1 7.59 2.51 13.76
12/15/2020 10:45:00 AM 2.96 37.328 0.1 7.62 2.34 13.8
12/15/2020 11:00:00 AM 2.95 37.31 0.1 7.63 2.57 13.82
12/15/2020 11:15:00 AM 2.97 37.346 0.1 7.66 2.43 13.83
12/15/2020 11:30:00 AM 3.03 37.454 0.099 7.68 2.51 13.85
12/15/2020 11:45:00 AM 3.11 37.598 0.099 7.72 2.64 13.88
12/15/2020 12:00:00 PM 3.18 37.724 0.099 7.74 2.34 13.89
12/15/2020 12:15:00 PM 3.24 37.832 0.099 7.76 2.44 13.88
12/15/2020 12:30:00 PM 3.29 37.922 0.099 7.77 2.39 13.85
12/15/2020 12:45:00 PM 3.33 37.994 0.099 7.78 2.4 13.83
12/15/2020 1:00:00 PM 3.38 38.084 0.099 7.77 2.66 13.79
12/15/2020 1:15:00 PM 3.42 38.156 0.099 7.79 2.54 13.76
12/15/2020 1:30:00 PM 3.47 38.246 0.098 7.81 2.27 13.77
12/15/2020 1:45:00 PM 3.52 38.336 0.098 7.81 2.4 13.76
12/15/2020 2:00:00 PM 3.56 38.408 0.098 7.83 2.33 13.74
12/15/2020 2:15:00 PM 3.58 38.444 0.098 7.82 2.72 13.72
12/15/2020 2:30:00 PM 3.59 38.462 0.098 7.81 2.59 13.67
12/15/2020 2:45:00 PM 3.6 38.48 0.098 7.79 2.48 13.63
12/15/2020 3:00:00 PM 3.6 38.48 0.098 7.77 2.4 13.56
12/15/2020 3:15:00 PM 3.57 38.426 0.098 7.74 2.42 13.5
12/15/2020 3:30:00 PM 3.52 38.336 0.098 7.7 2.37 13.45
12/15/2020 3:45:00 PM 3.48 38.264 0.098 7.68 2.7 13.4
12/15/2020 4:00:00 PM 3.42 38.156 0.098 7.63 2.5 13.33
12/15/2020 4:15:00 PM 3.37 38.066 0.098 7.59 2.39 13.27
12/15/2020 4:30:00 PM 3.32 37.976 0.099 7.55 2.48 13.19
12/15/2020 4:45:00 PM 3.27 37.886 0.098 7.51 2.42 13.09
12/15/2020 5:00:00 PM 3.21 37.778 0.099 7.46 2.55 13.01
12/15/2020 5:15:00 PM 3.15 37.67 0.099 7.43 2.5 12.94
12/15/2020 5:30:00 PM 3.09 37.562 0.099 7.4 2.43 12.88
12/15/2020 5:45:00 PM 3.04 37.472 0.099 7.38 2.4 12.84
12/15/2020 6:00:00 PM 2.99 37.382 0.099 7.35 2.52 12.81
12/15/2020 6:15:00 PM 2.94 37.292 0.099 7.34 2.34 12.78
12/15/2020 6:30:00 PM 2.89 37.202 0.099 7.32 2.29 12.77
12/15/2020 6:45:00 PM 2.84 37.112 0.1 7.32 2.43 12.76
12/15/2020 7:00:00 PM 2.8 37.04 0.1 7.31 2.52 12.76
12/15/2020 7:15:00 PM 2.76 36.968 0.1 7.3 2.33 12.75
12/15/2020 7:30:00 PM 2.71 36.878 0.1 7.29 2.52 12.76
12/15/2020 7:45:00 PM 2.67 36.806 0.1 7.28 2.58 12.76
12/15/2020 8:00:00 PM 2.63 36.734 0.1 7.28 2.32 12.77
12/15/2020 8:15:00 PM 2.59 36.662 0.1 7.27 2.44 12.78
12/15/2020 8:30:00 PM 2.54 36.572 0.1 7.27 2.55 12.78
12/15/2020 8:45:00 PM 2.5 36.5 0.1 7.27 2.59 12.79
12/15/2020 9:00:00 PM 2.46 36.428 0.1 7.27 2.42 12.8
12/15/2020 9:15:00 PM 2.43 36.374 0.1 7.27 2.7 12.81
12/15/2020 9:30:00 PM 2.4 36.32 0.1 7.26 2.49 12.82
12/15/2020 9:45:00 PM 2.38 36.284 0.101 7.27 2.62 12.83
12/15/2020 10:00:00 PM 2.37 36.266 0.1 7.27 2.44 12.84
12/15/2020 10:15:00 PM 2.35 36.23 0.101 7.27 2.41 12.84
12/15/2020 10:30:00 PM 2.34 36.212 0.1 7.27 2.54 12.85
12/15/2020 10:45:00 PM 2.3 36.14 0.101 7.27 2.57 12.85
12/15/2020 11:00:00 PM 2.3 36.14 0.1 7.26 2.41 12.85
12/15/2020 11:15:00 PM 2.28 36.104 0.101 7.26 2.41 12.86
12/15/2020 11:30:00 PM 2.25 36.05 0.101 7.27 2.66 12.87
12/15/2020 11:45:00 PM 2.23 36.014 0.101 7.26 2.41 12.88
12/16/2020 12:00:00 AM 2.19 35.942 0.101 7.26 2.65 12.88
12/16/2020 12:15:00 AM 2.16 35.888 0.101 7.26 2.46 12.9
12/16/2020 12:30:00 AM 2.13 35.834 0.101 7.26 2.66 12.91
12/16/2020 12:45:00 AM 2.1 35.78 0.101 7.26 2.53 12.92
12/16/2020 1:00:00 AM 2.07 35.726 0.101 7.26 2.52 12.93
12/16/2020 1:15:00 AM 2.03 35.654 0.101 7.26 2.68 12.94
12/16/2020 1:30:00 AM 2 35.6 0.101 7.26 2.66 12.95
12/16/2020 1:45:00 AM 1.96 35.528 0.101 7.25 2.53 12.96
12/16/2020 2:00:00 AM 1.94 35.492 0.101 7.25 2.53 12.97
12/16/2020 2:15:00 AM 1.91 35.438 0.101 7.25 2.53 12.98
12/16/2020 2:30:00 AM 1.87 35.366 0.101 7.25 2.59 13
12/16/2020 2:45:00 AM 1.86 35.348 0.101 7.26 2.51 13.01
12/16/2020 3:00:00 AM 1.84 35.312 0.101 7.25 2.56 13.02
12/16/2020 3:15:00 AM 1.83 35.294 0.101 7.25 2.5 13.03
12/16/2020 3:30:00 AM 1.8 35.24 0.101 7.25 2.49 13.03
12/16/2020 3:45:00 AM 1.78 35.204 0.102 7.26 2.41 13.04
12/16/2020 4:00:00 AM 1.75 35.15 0.101 7.26 2.49 13.05
12/16/2020 4:15:00 AM 1.72 35.096 0.102 7.25 2.51 13.06
12/16/2020 4:30:00 AM 1.68 35.024 0.102 7.25 2.47 13.07
12/16/2020 4:45:00 AM 1.65 34.97 0.101 7.25 2.49 13.08
12/16/2020 5:00:00 AM 1.63 34.934 0.101 7.24 2.46 13.09
12/16/2020 5:15:00 AM 1.62 34.916 0.101 7.25 2.6 13.09
12/16/2020 5:30:00 AM 1.6 34.88 0.102 7.26 2.44 13.1
12/16/2020 5:45:00 AM 1.59 34.862 0.101 7.25 2.54 13.1
12/16/2020 6:00:00 AM 1.58 34.844 0.101 7.25 2.51 13.11
12/16/2020 6:15:00 AM 1.58 34.844 0.102 7.25 2.4 13.11
12/16/2020 6:30:00 AM 1.56 34.808 0.101 7.25 2.46 13.11
12/16/2020 6:45:00 AM 1.55 34.79 0.102 7.25 2.47 13.12
12/16/2020 7:00:00 AM 1.54 34.772 0.102 7.25 2.51 13.12
12/16/2020 7:15:00 AM 1.52 34.736 0.102 7.25 2.5 13.13
12/16/2020 7:30:00 AM 1.51 34.718 0.102 7.25 2.68 13.14
12/16/2020 7:45:00 AM 1.5 34.7 0.102 7.25 2.53 13.15
12/16/2020 8:00:00 AM 1.49 34.682 0.102 7.26 2.47 13.17
12/16/2020 8:15:00 AM 1.49 34.682 0.102 7.27 2.6 13.22
12/16/2020 8:30:00 AM 1.48 34.664 0.102 7.28 2.47 13.3
12/16/2020 8:45:00 AM 1.48 34.664 0.101 7.3 2.4 13.37
12/16/2020 9:00:00 AM 1.5 34.7 0.101 7.32 2.43 13.51
12/16/2020 9:15:00 AM 1.51 34.718 0.101 7.35 2.54 13.62
12/16/2020 9:30:00 AM 1.54 34.772 0.101 7.39 2.37 13.74
12/16/2020 9:45:00 AM 1.55 34.79 0.101 7.41 2.35 13.82
12/16/2020 10:00:00 AM 1.57 34.826 0.101 7.44 2.33 13.89
12/16/2020 10:15:00 AM 1.59 34.862 0.101 7.47 2.49 13.95
12/16/2020 10:30:00 AM 1.63 34.934 0.101 7.49 2.37 14.02
12/16/2020 10:45:00 AM 1.66 34.988 0.1 7.51 2.45 14.04
12/16/2020 11:00:00 AM 1.67 35.006 0.101 7.52 2.6 14.03
12/16/2020 11:15:00 AM 1.69 35.042 0.1 7.51 2.63 14
12/16/2020 11:30:00 AM 1.69 35.042 0.101 7.51 2.6 13.95
12/16/2020 11:45:00 AM 1.68 35.024 0.1 7.5 2.58 13.91
12/16/2020 12:00:00 PM 1.65 34.97 0.1 7.49 2.42 13.87
12/16/2020 12:15:00 PM 1.59 34.862 0.1 7.48 2.55 13.84
12/16/2020 12:30:00 PM 1.51 34.718 0.1 7.48 2.57 13.84
12/16/2020 12:45:00 PM 1.46 34.628 0.1 7.48 2.56 13.84
12/16/2020 1:00:00 PM 1.4 34.52 0.1 7.47 2.56 13.85
12/16/2020 1:15:00 PM 1.36 34.448 0.1 7.47 2.73 13.86
12/16/2020 1:30:00 PM 1.33 34.394 0.1 7.47 2.6 13.87
12/16/2020 1:45:00 PM 1.28 34.304 0.099 7.47 32.94 13.87
12/16/2020 2:00:00 PM 1.24 34.232 0.099 7.47 2.56 13.85
12/16/2020 2:15:00 PM 1.17 34.106 0.099 7.44 2.47 13.82
12/16/2020 2:30:00 PM 1.12 34.016 0.099 7.44 2.58 13.8
12/16/2020 2:45:00 PM 1.05 33.89 0.099 7.43 2.4 13.79
12/16/2020 3:00:00 PM 1 33.8 0.099 7.42 2.64 13.77
12/16/2020 3:15:00 PM 0.93 33.674 0.099 7.4 2.61 13.75
12/16/2020 3:30:00 PM 0.87 33.566 0.099 7.39 4.11 13.72
12/16/2020 3:45:00 PM 0.77 33.386 0.099 7.38 2.62 13.71
12/16/2020 4:00:00 PM 0.7 33.26 0.099 7.36 2.54 13.69
12/16/2020 4:15:00 PM 0.63 33.134 0.099 7.35 2.59 13.67
12/16/2020 4:30:00 PM 0.56 33.008 0.099 7.34 2.52 13.65
12/16/2020 4:45:00 PM 0.51 32.918 0.099 7.32 2.59 13.62
12/16/2020 5:00:00 PM 0.44 32.792 0.099 7.31 2.55 13.61
12/16/2020 5:15:00 PM 0.4 32.72 0.099 7.3 2.41 13.59
12/16/2020 5:30:00 PM 0.31 32.558 0.099 7.29 2.71 13.58
12/16/2020 5:45:00 PM 0.26 32.468 0.099 7.28 2.48 13.58
12/16/2020 6:00:00 PM 0.2 32.36 0.099 7.28 2.47 13.59
12/16/2020 6:15:00 PM 0.17 32.306 0.098 7.27 2.67 13.59
12/16/2020 6:30:00 PM 0.14 32.252 0.099 7.27 2.63 13.59
12/16/2020 6:45:00 PM 0.12 32.216 0.099 7.27 2.6 13.59
12/16/2020 7:00:00 PM 0.12 32.216 0.098 7.27 2.53 13.6
12/16/2020 7:15:00 PM 0.02 32.036 0.098 7.26 2.46 13.6
12/16/2020 7:30:00 PM -0.05 31.91 0.098 7.25 2.46 13.6
12/16/2020 7:45:00 PM -0.06 31.892 0.098 7.25 3.1 13.62
12/16/2020 8:00:00 PM -0.06 31.892 0.098 7.24 2.86 13.61
12/16/2020 8:15:00 PM -0.06 31.892 0.098 7.25 2.84 13.6
12/16/2020 8:30:00 PM -0.06 31.892 0.098 7.25 3.08 13.61
12/16/2020 8:45:00 PM -0.06 31.892 0.098 7.24 2.76 13.6
12/16/2020 9:00:00 PM -0.06 31.892 0.099 7.23 3.04 13.57
12/16/2020 9:15:00 PM -0.06 31.892 0.099 7.23 2.86 13.55
12/16/2020 9:30:00 PM -0.06 31.892 0.099 7.21 2.78 13.52
12/16/2020 9:45:00 PM -0.06 31.892 0.099 7.21 2.93 13.5
12/16/2020 10:00:00 PM -0.06 31.892 0.099 7.2 2.84 13.48
12/16/2020 10:15:00 PM -0.06 31.892 0.099 7.2 2.97 13.46
12/16/2020 10:30:00 PM -0.06 31.892 0.099 7.19 2.68 13.45
12/16/2020 10:45:00 PM -0.05 31.91 0.099 7.19 2.83 13.43
12/16/2020 11:00:00 PM -0.06 31.892 0.099 7.18 2.71 13.41
12/16/2020 11:15:00 PM -0.05 31.91 0.099 7.18 2.81 13.39
12/16/2020 11:30:00 PM -0.06 31.892 0.099 7.18 2.8 13.39
12/16/2020 11:45:00 PM -0.06 31.892 0.099 7.18 2.71 13.37
12/17/2020 12:00:00 AM -0.05 31.91 0.099 7.17 2.64 13.36
12/17/2020 12:15:00 AM -0.05 31.91 0.099 7.16 2.78 13.34
12/17/2020 12:30:00 AM -0.05 31.91 0.099 7.16 2.63 13.34
12/17/2020 12:45:00 AM -0.05 31.91 0.099 7.17 2.7 13.34
12/17/2020 1:00:00 AM -0.05 31.91 0.099 7.17 2.77 13.34
12/17/2020 1:15:00 AM -0.05 31.91 0.099 7.16 2.73 13.34
12/17/2020 1:30:00 AM -0.05 31.91 0.099 7.16 2.64 13.34
12/17/2020 1:45:00 AM -0.06 31.892 0.099 7.16 2.63 13.33
12/17/2020 2:00:00 AM -0.06 31.892 0.098 7.14 2.76 13.34
12/17/2020 2:15:00 AM -0.06 31.892 0.099 7.13 2.58 13.34
12/17/2020 2:30:00 AM -0.06 31.892 0.098 7.13 2.66 13.34
12/17/2020 2:45:00 AM -0.06 31.892 0.098 7.12 2.89 13.34
12/17/2020 3:00:00 AM -0.06 31.892 0.098 7.11 3 13.35
12/17/2020 3:15:00 AM -0.06 31.892 0.098 7.12 2.92 13.33
12/17/2020 3:30:00 AM -0.06 31.892 0.098 7.13 2.87 13.31
12/17/2020 3:45:00 AM -0.06 31.892 0.098 7.13 2.96 13.3
12/17/2020 4:00:00 AM -0.06 31.892 0.098 7.13 2.73 13.29
12/17/2020 4:15:00 AM -0.06 31.892 0.098 7.13 2.65 13.28
12/17/2020 4:30:00 AM -0.06 31.892 0.098 7.13 2.67 13.25
12/17/2020 4:45:00 AM -0.06 31.892 0.098 7.13 2.74 13.24
12/17/2020 5:00:00 AM -0.05 31.91 0.098 7.12 3.19 13.22
12/17/2020 5:15:00 AM -0.05 31.91 0.098 7.11 2.57 13.22
12/17/2020 5:30:00 AM -0.05 31.91 0.098 7.11 2.7 13.22
12/17/2020 5:45:00 AM -0.05 31.91 0.098 7.1 2.79 13.22
12/17/2020 6:00:00 AM -0.05 31.91 0.098 7.1 2.63 13.22
12/17/2020 6:15:00 AM -0.05 31.91 0.098 7.1 2.88 13.22
12/17/2020 6:30:00 AM -0.04 31.928 0.098 7.1 2.64 13.22
12/17/2020 6:45:00 AM -0.04 31.928 0.098 7.1 2.61 13.23
12/17/2020 7:00:00 AM -0.04 31.928 0.098 7.1 2.69 13.24
12/17/2020 7:15:00 AM -0.05 31.91 0.098 7.1 2.9 13.27
12/17/2020 7:30:00 AM -0.05 31.91 0.098 7.1 2.68 13.27
12/17/2020 7:45:00 AM -0.04 31.928 0.098 7.1 2.72 13.31
12/17/2020 8:00:00 AM -0.05 31.91 0.098 7.11 2.73 13.37
12/17/2020 8:15:00 AM -0.04 31.928 0.098 7.12 2.75 13.46
12/17/2020 8:30:00 AM -0.05 31.91 0.097 7.14 2.83 13.56
12/17/2020 8:45:00 AM -0.04 31.928 0.097 7.16 2.92 13.68
12/17/2020 9:00:00 AM -0.05 31.91 0.097 7.19 2.62 13.78
12/17/2020 9:15:00 AM -0.04 31.928 0.097 7.21 2.71 13.88
12/17/2020 9:30:00 AM -0.04 31.928 0.097 7.24 2.62 13.98
12/17/2020 9:45:00 AM -0.04 31.928 0.096 7.25 2.71 14.07
12/17/2020 10:00:00 AM -0.04 31.928 0.096 7.27 2.84 14.14
12/17/2020 10:15:00 AM -0.03 31.946 0.096 7.3 2.79 14.2
12/17/2020 10:30:00 AM -0.03 31.946 0.096 7.32 2.93 14.26
12/17/2020 10:45:00 AM -0.04 31.928 0.096 7.33 2.63 14.3
12/17/2020 11:00:00 AM -0.04 31.928 0.095 7.31 2.64 14.34
12/17/2020 11:15:00 AM -0.02 31.964 0.095 7.32 2.72 14.38
12/17/2020 11:30:00 AM -0.02 31.964 0.095 7.33 2.76 14.4
12/17/2020 11:45:00 AM -0.02 31.964 0.095 7.32 2.7 14.41
12/17/2020 12:00:00 PM -0.02 31.964 0.094 7.33 2.96 14.42
12/17/2020 12:15:00 PM -0.01 31.982 0.094 7.36 2.74 14.42
12/17/2020 12:30:00 PM -0.01 31.982 0.094 7.36 2.72 14.43
12/17/2020 12:45:00 PM 0.01 32.018 0.094 7.38 2.62 14.42
12/17/2020 1:00:00 PM 0.02 32.036 0.094 7.41 2.95 14.41
12/17/2020 1:15:00 PM 0.03 32.054 0.094 7.42 2.94 14.41
12/17/2020 1:30:00 PM 0.04 32.072 0.094 7.42 2.57 14.4
12/17/2020 1:45:00 PM 0.05 32.09 0.094 7.43 2.58 14.39
12/17/2020 2:00:00 PM 0.07 32.126 0.094 7.43 2.49 14.39
12/17/2020 2:15:00 PM 0.07 32.126 0.094 7.44 2.66 14.38
12/17/2020 2:30:00 PM 0.1 32.18 0.094 7.44 2.56 14.36
12/17/2020 2:45:00 PM 0.13 32.234 0.095 7.45 2.64 14.35
12/17/2020 3:00:00 PM 0.15 32.27 0.095 7.47 2.62 14.34
12/17/2020 3:15:00 PM 0.17 32.306 0.095 7.48 2.8 14.32
12/17/2020 3:30:00 PM 0.19 32.342 0.095 7.48 2.65 14.29
12/17/2020 3:45:00 PM 0.21 32.378 0.095 7.49 2.67 14.25
12/17/2020 4:00:00 PM 0.23 32.414 0.096 7.49 2.67 14.19
12/17/2020 4:15:00 PM 0.25 32.45 0.096 7.47 2.59 14.12
12/17/2020 4:30:00 PM 0.26 32.468 0.096 7.45 2.59 14.04
12/17/2020 4:45:00 PM 0.27 32.486 0.097 7.43 2.72 13.96
12/17/2020 5:00:00 PM 0.28 32.504 0.097 7.4 2.69 13.88
12/17/2020 5:15:00 PM 0.28 32.504 0.097 7.37 3.05 13.82
12/17/2020 5:30:00 PM 0.3 32.54 0.097 7.35 2.8 13.76
12/17/2020 5:45:00 PM 0.31 32.558 0.098 7.34 2.8 13.72
12/17/2020 6:00:00 PM 0.32 32.576 0.097 7.32 2.83 13.69
12/17/2020 6:15:00 PM 0.33 32.594 0.097 7.31 2.69 13.67
12/17/2020 6:30:00 PM 0.34 32.612 0.098 7.3 2.59 13.65
12/17/2020 6:45:00 PM 0.35 32.63 0.097 7.29 2.66 13.63
12/17/2020 7:00:00 PM 0.35 32.63 0.098 7.28 2.76 13.61
12/17/2020 7:15:00 PM 0.36 32.648 0.098 7.28 2.79 13.6
12/17/2020 7:30:00 PM 0.37 32.666 0.098 7.28 2.65 13.59
12/17/2020 7:45:00 PM 0.38 32.684 0.098 7.28 2.71 13.59
12/17/2020 8:00:00 PM 0.38 32.684 0.098 7.26 2.69 13.59
12/17/2020 8:15:00 PM 0.39 32.702 0.098 7.27 3.07 13.58
12/17/2020 8:30:00 PM 0.4 32.72 0.098 7.27 2.79 13.57
12/17/2020 8:45:00 PM 0.41 32.738 0.098 7.27 2.61 13.57
12/17/2020 9:00:00 PM 0.42 32.756 0.098 7.26 2.46 13.57
12/17/2020 9:15:00 PM 0.43 32.774 0.098 7.26 2.88 13.56
12/17/2020 9:30:00 PM 0.45 32.81 0.098 7.26 2.55 13.56
12/17/2020 9:45:00 PM 0.46 32.828 0.098 7.26 2.74 13.55
12/17/2020 10:00:00 PM 0.47 32.846 0.098 7.26 2.64 13.55
12/17/2020 10:15:00 PM 0.48 32.864 0.098 7.26 2.69 13.54
12/17/2020 10:30:00 PM 0.49 32.882 0.097 7.26 2.68 13.53
12/17/2020 10:45:00 PM 0.51 32.918 0.098 7.25 2.64 13.53
12/17/2020 11:00:00 PM 0.52 32.936 0.097 7.25 2.7 13.53
12/17/2020 11:15:00 PM 0.53 32.954 0.097 7.25 2.59 13.53
12/17/2020 11:30:00 PM 0.54 32.972 0.097 7.25 2.58 13.52
12/17/2020 11:45:00 PM 0.55 32.99 0.097 7.25 2.61 13.52
12/18/2020 12:00:00 AM 0.55 32.99 0.098 7.24 2.58 13.52
12/18/2020 12:15:00 AM 0.56 33.008 0.097 7.24 2.61 13.51
12/18/2020 12:30:00 AM 0.57 33.026 0.097 7.25 2.6 13.51
12/18/2020 12:45:00 AM 0.58 33.044 0.097 7.24 2.83 13.51
12/18/2020 1:00:00 AM 0.58 33.044 0.098 7.24 4.03 13.51
12/18/2020 1:15:00 AM 0.59 33.062 0.098 7.25 2.66 13.51
12/18/2020 1:30:00 AM 0.6 33.08 0.098 7.25 2.79 13.51
12/18/2020 1:45:00 AM 0.61 33.098 0.098 7.24 2.79 13.5
12/18/2020 2:00:00 AM 0.62 33.116 0.098 7.25 2.82 13.5
12/18/2020 2:15:00 AM 0.62 33.116 0.098 7.24 2.66 13.5
12/18/2020 2:30:00 AM 0.63 33.134 0.098 7.24 2.74 13.5
12/18/2020 2:45:00 AM 0.64 33.152 0.098 7.24 2.54 13.5
12/18/2020 3:00:00 AM 0.64 33.152 0.098 7.24 2.5 13.5
12/18/2020 3:15:00 AM 0.65 33.17 0.098 7.24 2.7 13.49
12/18/2020 3:30:00 AM 0.66 33.188 0.098 7.24 2.6 13.49
12/18/2020 3:45:00 AM 0.66 33.188 0.098 7.24 2.58 13.49
12/18/2020 4:00:00 AM 0.67 33.206 0.098 7.24 2.54 13.49
12/18/2020 4:15:00 AM 0.67 33.206 0.098 7.24 2.51 13.49
12/18/2020 4:30:00 AM 0.68 33.224 0.098 7.25 2.51 13.49
12/18/2020 4:45:00 AM 0.68 33.224 0.098 7.24 2.61 13.49
12/18/2020 5:00:00 AM 0.69 33.242 0.098 7.25 2.62 13.49
12/18/2020 5:15:00 AM 0.69 33.242 0.098 7.25 2.53 13.49
12/18/2020 5:30:00 AM 0.7 33.26 0.099 7.24 2.61 13.49
12/18/2020 5:45:00 AM 0.7 33.26 0.099 7.25 2.45 13.49
12/18/2020 6:00:00 AM 0.7 33.26 0.099 7.25 2.61 13.49
12/18/2020 6:15:00 AM 0.7 33.26 0.099 7.25 2.43 13.49
12/18/2020 6:30:00 AM 0.7 33.26 0.099 7.25 2.65 13.49
12/18/2020 6:45:00 AM 0.7 33.26 0.099 7.25 2.5 13.49
12/18/2020 7:00:00 AM 0.7 33.26 0.099 7.25 2.58 13.5
12/18/2020 7:15:00 AM 0.7 33.26 0.099 7.24 2.51 13.5
12/18/2020 7:30:00 AM 0.71 33.278 0.099 7.24 2.44 13.5
12/18/2020 7:45:00 AM 0.71 33.278 0.099 7.25 2.44 13.51
12/18/2020 8:00:00 AM 0.72 33.296 0.099 7.26 275.71 13.52
12/18/2020 8:15:00 AM 0.72 33.296 0.099 7.25 4.79 13.55
12/18/2020 8:30:00 AM 0.72 33.296 0.099 7.26 3.36 13.59
12/18/2020 8:45:00 AM 0.72 33.296 0.099 7.27 2.69 13.63
12/18/2020 9:00:00 AM 0.73 33.314 0.099 7.28 2.75 13.68
12/18/2020 9:15:00 AM 0.73 33.314 0.099 7.29 2.57 13.73
12/18/2020 9:30:00 AM 0.73 33.314 0.099 7.31 2.52 13.8
12/18/2020 9:45:00 AM 0.75 33.35 0.099 7.32 2.54 13.88
12/18/2020 10:00:00 AM 0.78 33.404 0.099 7.34 2.62 13.99
12/18/2020 10:15:00 AM 0.82 33.476 0.099 7.38 2.44 14.08
12/18/2020 10:30:00 AM 0.87 33.566 0.099 7.4 3.23 14.15
12/18/2020 10:45:00 AM 0.9 33.62 0.098 7.42 2.48 14.21
12/18/2020 11:00:00 AM 0.94 33.692 0.098 7.44 2.85 14.26
12/18/2020 11:15:00 AM 0.98 33.764 0.098 7.47 2.91 14.3
12/18/2020 11:30:00 AM 1.04 33.872 0.098 7.49 2.45 14.33
12/18/2020 11:45:00 AM 1.09 33.962 0.098 7.51 2.6 14.34
12/18/2020 12:00:00 PM 1.13 34.034 0.098 7.52 2.4 14.34
12/18/2020 12:15:00 PM 1.19 34.142 0.098 7.53 2.5 14.35
12/18/2020 12:30:00 PM 1.22 34.196 0.098 7.55 2.5 14.35
12/18/2020 12:45:00 PM 1.26 34.268 0.098 7.56 2.5 14.34
12/18/2020 1:00:00 PM 1.28 34.304 0.098 7.56 2.64 14.32
12/18/2020 1:15:00 PM 1.3 34.34 0.098 7.55 2.41 14.3
12/18/2020 1:30:00 PM 1.32 34.376 0.098 7.56 2.54 14.29
12/18/2020 1:45:00 PM 1.35 34.43 0.098 7.56 2.58 14.26
12/18/2020 2:00:00 PM 1.36 34.448 0.098 7.56 2.56 14.24
12/18/2020 2:15:00 PM 1.37 34.466 0.098 7.56 2.5 14.23
12/18/2020 2:30:00 PM 1.38 34.484 0.098 7.56 2.56 14.21
12/18/2020 2:45:00 PM 1.39 34.502 0.097 7.56 2.54 14.19
12/18/2020 3:00:00 PM 1.39 34.502 0.098 7.55 2.65 14.16
12/18/2020 3:15:00 PM 1.38 34.484 0.098 7.55 2.62 14.13
12/18/2020 3:30:00 PM 1.38 34.484 0.098 7.53 2.49 14.1
12/18/2020 3:45:00 PM 1.37 34.466 0.098 7.53 2.55 14.07
12/18/2020 4:00:00 PM 1.35 34.43 0.098 7.51 2.66 14.02
12/18/2020 4:15:00 PM 1.33 34.394 0.098 7.49 2.54 13.97
12/18/2020 4:30:00 PM 1.3 34.34 0.098 7.47 2.41 13.9
12/18/2020 4:45:00 PM 1.26 34.268 0.098 7.44 2.52 13.83
12/18/2020 5:00:00 PM 1.22 34.196 0.098 7.42 2.37 13.76
12/18/2020 5:15:00 PM 1.18 34.124 0.098 7.39 2.58 13.69
12/18/2020 5:30:00 PM 1.14 34.052 0.099 7.37 2.51 13.65
12/18/2020 5:45:00 PM 1.11 33.998 0.099 7.35 2.81 13.61
12/18/2020 6:00:00 PM 1.07 33.926 0.099 7.33 2.62 13.58
12/18/2020 6:15:00 PM 1.02 33.836 0.099 7.32 2.52 13.56
12/18/2020 6:30:00 PM 0.97 33.746 0.099 7.31 2.43 13.55
12/18/2020 6:45:00 PM 0.92 33.656 0.099 7.29 2.48 13.55
12/18/2020 7:00:00 PM 0.87 33.566 0.099 7.29 2.34 13.55
12/18/2020 7:15:00 PM 0.81 33.458 0.1 7.28 2.52 13.55
12/18/2020 7:30:00 PM 0.76 33.368 0.099 7.27 2.49 13.56
12/18/2020 7:45:00 PM 0.7 33.26 0.1 7.26 2.49 13.57
12/18/2020 8:00:00 PM 0.65 33.17 0.1 7.26 2.57 13.58
12/18/2020 8:15:00 PM 0.6 33.08 0.1 7.25 2.51 13.59
12/18/2020 8:30:00 PM 0.55 32.99 0.1 7.26 2.54 13.61
12/18/2020 8:45:00 PM 0.5 32.9 0.1 7.25 2.53 13.62
12/18/2020 9:00:00 PM 0.44 32.792 0.1 7.25 2.46 13.64
12/18/2020 9:15:00 PM 0.39 32.702 0.1 7.24 2.4 13.65
12/18/2020 9:30:00 PM 0.34 32.612 0.1 7.24 2.51 13.68
12/18/2020 9:45:00 PM 0.29 32.522 0.1 7.24 2.6 13.7
12/18/2020 10:00:00 PM 0.24 32.432 0.101 7.24 2.43 13.71
12/18/2020 10:15:00 PM 0.2 32.36 0.101 7.24 2.51 13.73
12/18/2020 10:30:00 PM 0.15 32.27 0.101 7.24 2.51 13.75
12/18/2020 10:45:00 PM 0.12 32.216 0.101 7.24 2.64 13.76
12/18/2020 11:00:00 PM 0.08 32.144 0.101 7.24 2.44 13.78
12/18/2020 11:15:00 PM 0.05 32.09 0.101 7.24 2.5 13.79
12/18/2020 11:30:00 PM 0.02 32.036 0.101 7.24 2.44 13.81
12/18/2020 11:45:00 PM -0.01 31.982 0.102 7.24 2.75 13.82
12/19/2020 12:00:00 AM -0.04 31.928 0.101 7.23 2.51 13.84
12/19/2020 12:15:00 AM -0.07 31.874 0.102 7.23 2.72 13.85
12/19/2020 12:30:00 AM -0.09 31.838 0.101 7.23 2.7 13.86
12/19/2020 12:45:00 AM -0.1 31.82 0.102 7.23 2.44 13.87
12/19/2020 1:00:00 AM -0.1 31.82 0.102 7.23 2.6 13.88
12/19/2020 1:15:00 AM -0.09 31.838 0.102 7.23 2.5 13.89
12/19/2020 1:30:00 AM -0.08 31.856 0.102 7.23 2.57 13.88
12/19/2020 1:45:00 AM -0.08 31.856 0.102 7.22 2.71 13.88
12/19/2020 2:00:00 AM -0.08 31.856 0.102 7.22 2.63 13.88
12/19/2020 2:15:00 AM -0.08 31.856 0.103 7.22 2.69 13.88
12/19/2020 2:30:00 AM -0.08 31.856 0.103 7.22 2.51 13.87
12/19/2020 2:45:00 AM -0.08 31.856 0.103 7.22 2.51 13.86
12/19/2020 3:00:00 AM -0.07 31.874 0.103 7.21 2.65 13.86
12/19/2020 3:15:00 AM -0.08 31.856 0.103 7.21 2.5 13.85
12/19/2020 3:30:00 AM -0.07 31.874 0.103 7.21 2.54 13.84
12/19/2020 3:45:00 AM -0.07 31.874 0.103 7.2 2.51 13.83
12/19/2020 4:00:00 AM -0.07 31.874 0.103 7.2 2.65 13.82
12/19/2020 4:15:00 AM -0.07 31.874 0.104 7.2 2.59 13.81
12/19/2020 4:30:00 AM -0.07 31.874 0.103 7.2 2.54 13.81
12/19/2020 4:45:00 AM -0.07 31.874 0.103 7.19 2.69 13.81
12/19/2020 5:00:00 AM -0.07 31.874 0.104 7.19 2.65 13.8
12/19/2020 5:15:00 AM -0.07 31.874 0.104 7.19 2.46 13.79
12/19/2020 5:30:00 AM -0.06 31.892 0.104 7.19 2.51 13.79
12/19/2020 5:45:00 AM -0.07 31.874 0.104 7.19 2.52 13.79
12/19/2020 6:00:00 AM -0.07 31.874 0.104 7.19 2.62 13.78
12/19/2020 6:15:00 AM -0.06 31.892 0.104 7.19 2.65 13.78
12/19/2020 6:30:00 AM -0.07 31.874 0.104 7.19 2.61 13.77
12/19/2020 6:45:00 AM -0.07 31.874 0.104 7.19 2.56 13.78
12/19/2020 7:00:00 AM -0.07 31.874 0.104 7.18 2.59 13.77
12/19/2020 7:15:00 AM -0.07 31.874 0.104 7.18 2.43 13.77
12/19/2020 7:30:00 AM -0.07 31.874 0.104 7.18 2.53 13.77
12/19/2020 7:45:00 AM -0.06 31.892 0.104 7.18 2.48 13.77
12/19/2020 8:00:00 AM -0.06 31.892 0.104 7.19 2.6 13.81
12/19/2020 8:15:00 AM -0.06 31.892 0.104 7.2 2.79 13.87
12/19/2020 8:30:00 AM -0.05 31.91 0.104 7.22 2.98 13.97
12/19/2020 8:45:00 AM -0.05 31.91 0.103 7.24 3.16 14.09
12/19/2020 9:00:00 AM -0.04 31.928 0.103 7.25 2.9 14.18
12/19/2020 9:15:00 AM -0.04 31.928 0.103 7.28 2.71 14.29
12/19/2020 9:30:00 AM -0.03 31.946 0.103 7.3 2.62 14.38
12/19/2020 9:45:00 AM -0.03 31.946 0.102 7.32 2.67 14.47
12/19/2020 10:00:00 AM -0.02 31.964 0.102 7.35 2.71 14.53
12/19/2020 10:15:00 AM -0.01 31.982 0.102 7.37 3.04 14.6
12/19/2020 10:30:00 AM 0 32 0.102 7.4 2.51 14.65
12/19/2020 10:45:00 AM 0.01 32.018 0.102 7.42 2.91 14.67
12/19/2020 11:00:00 AM 0.03 32.054 0.102 7.44 2.5 14.68
12/19/2020 11:15:00 AM 0.06 32.108 0.102 7.45 2.64 14.69
12/19/2020 11:30:00 AM 0.07 32.126 0.101 7.46 2.63 14.7
12/19/2020 11:45:00 AM 0.09 32.162 0.101 7.47 2.57 14.71
12/19/2020 12:00:00 PM 0.12 32.216 0.101 7.49 2.56 14.71
12/19/2020 12:15:00 PM 0.15 32.27 0.101 7.5 2.76 14.72
12/19/2020 12:30:00 PM 0.18 32.324 0.101 7.51 2.63 14.72
12/19/2020 12:45:00 PM 0.2 32.36 0.101 7.52 2.65 14.72
12/19/2020 1:00:00 PM 0.23 32.414 0.101 7.54 2.58 14.73
12/19/2020 1:15:00 PM 0.26 32.468 0.1 7.54 2.67 14.71
12/19/2020 1:30:00 PM 0.28 32.504 0.1 7.55 2.73 14.68
12/19/2020 1:45:00 PM 0.31 32.558 0.1 7.55 2.68 14.66
12/19/2020 2:00:00 PM 0.33 32.594 0.1 7.55 2.69 14.64
12/19/2020 2:15:00 PM 0.36 32.648 0.1 7.55 2.51 14.61
12/19/2020 2:30:00 PM 0.39 32.702 0.1 7.55 2.53 14.6
12/19/2020 2:45:00 PM 0.41 32.738 0.1 7.56 2.57 14.58
12/19/2020 3:00:00 PM 0.43 32.774 0.1 7.56 2.68 14.55
12/19/2020 3:15:00 PM 0.44 32.792 0.1 7.55 2.6 14.51
12/19/2020 3:30:00 PM 0.45 32.81 0.1 7.54 2.69 14.47
12/19/2020 3:45:00 PM 0.46 32.828 0.1 7.53 2.57 14.42
12/19/2020 4:00:00 PM 0.46 32.828 0.1 7.51 2.69 14.36
12/19/2020 4:15:00 PM 0.46 32.828 0.1 7.49 2.67 14.28
12/19/2020 4:30:00 PM 0.47 32.846 0.1 7.46 2.48 14.19
12/19/2020 4:45:00 PM 0.46 32.828 0.101 7.43 2.54 14.1
12/19/2020 5:00:00 PM 0.46 32.828 0.101 7.4 2.55 14.01
12/19/2020 5:15:00 PM 0.45 32.81 0.101 7.38 2.51 13.94
12/19/2020 5:30:00 PM 0.45 32.81 0.101 7.36 2.55 13.87
12/19/2020 5:45:00 PM 0.45 32.81 0.101 7.34 2.62 13.82
12/19/2020 6:00:00 PM 0.45 32.81 0.101 7.33 2.6 13.78
12/19/2020 6:15:00 PM 0.46 32.828 0.101 7.32 2.56 13.74
12/19/2020 6:30:00 PM 0.46 32.828 0.101 7.31 2.54 13.71
12/19/2020 6:45:00 PM 0.46 32.828 0.101 7.31 2.53 13.69
12/19/2020 7:00:00 PM 0.47 32.846 0.101 7.3 2.56 13.67
12/19/2020 7:15:00 PM 0.47 32.846 0.102 7.29 2.57 13.65
12/19/2020 7:30:00 PM 0.48 32.864 0.102 7.29 2.6 13.63
12/19/2020 7:45:00 PM 0.49 32.882 0.102 7.28 2.53 13.62
12/19/2020 8:00:00 PM 0.49 32.882 0.102 7.27 2.63 13.6
12/19/2020 8:15:00 PM 0.5 32.9 0.102 7.27 2.55 13.59
12/19/2020 8:30:00 PM 0.5 32.9 0.102 7.27 2.49 13.58
12/19/2020 8:45:00 PM 0.5 32.9 0.102 7.26 2.59 13.58
12/19/2020 9:00:00 PM 0.5 32.9 0.102 7.26 2.56 13.57
12/19/2020 9:15:00 PM 0.51 32.918 0.102 7.26 2.48 13.56
12/19/2020 9:30:00 PM 0.51 32.918 0.102 7.26 2.62 13.56
12/19/2020 9:45:00 PM 0.51 32.918 0.102 7.25 2.58 13.55
12/19/2020 10:00:00 PM 0.51 32.918 0.102 7.25 2.53 13.55
12/19/2020 10:15:00 PM 0.52 32.936 0.102 7.25 2.6 13.54
12/19/2020 10:30:00 PM 0.53 32.954 0.102 7.24 2.53 13.54
12/19/2020 10:45:00 PM 0.54 32.972 0.102 7.25 2.62 13.53
12/19/2020 11:00:00 PM 0.54 32.972 0.102 7.25 2.56 13.53
12/19/2020 11:15:00 PM 0.54 32.972 0.102 7.25 2.57 13.53
12/19/2020 11:30:00 PM 0.53 32.954 0.102 7.25 2.53 13.53
12/19/2020 11:45:00 PM 0.53 32.954 0.102 7.24 2.47 13.52
12/20/2020 12:00:00 AM 0.51 32.918 0.102 7.24 2.53 13.53
12/20/2020 12:15:00 AM 0.51 32.918 0.102 7.24 2.41 13.53
12/20/2020 12:30:00 AM 0.52 32.936 0.102 7.24 2.41 13.52
12/20/2020 12:45:00 AM 0.51 32.918 0.102 7.24 2.53 13.53
12/20/2020 1:00:00 AM 0.49 32.882 0.102 7.24 2.55 13.53
12/20/2020 1:15:00 AM 0.48 32.864 0.101 7.24 2.52 13.53
12/20/2020 1:30:00 AM 0.48 32.864 0.101 7.24 2.47 13.53
12/20/2020 1:45:00 AM 0.47 32.846 0.102 7.24 2.4 13.53
12/20/2020 2:00:00 AM 0.45 32.81 0.102 7.24 2.5 13.53
12/20/2020 2:15:00 AM 0.45 32.81 0.102 7.24 2.38 13.54
12/20/2020 2:30:00 AM 0.45 32.81 0.102 7.24 2.55 13.54
12/20/2020 2:45:00 AM 0.46 32.828 0.102 7.24 2.54 13.54
12/20/2020 3:00:00 AM 0.47 32.846 0.102 7.24 2.45 13.54
12/20/2020 3:15:00 AM 0.48 32.864 0.101 7.24 2.49 13.53
12/20/2020 3:30:00 AM 0.5 32.9 0.101 7.24 2.44 13.53
12/20/2020 3:45:00 AM 0.52 32.936 0.102 7.24 2.69 13.52
12/20/2020 4:00:00 AM 0.53 32.954 0.101 7.24 2.55 13.51
12/20/2020 4:15:00 AM 0.55 32.99 0.102 7.24 2.63 13.5
12/20/2020 4:30:00 AM 0.52 32.936 0.101 7.24 2.52 13.5
12/20/2020 4:45:00 AM 0.38 32.684 0.101 7.24 2.67 13.5
12/20/2020 5:00:00 AM 0.32 32.576 0.101 7.23 2.52 13.51
12/20/2020 5:15:00 AM 0.34 32.612 0.101 7.23 2.6 13.52
12/20/2020 5:30:00 AM 0.4 32.72 0.101 7.23 2.59 13.52
12/20/2020 5:45:00 AM 0.42 32.756 0.101 7.24 2.62 13.52
12/20/2020 6:00:00 AM 0.41 32.738 0.101 7.24 2.43 13.53
12/20/2020 6:15:00 AM 0.42 32.756 0.101 7.24 2.41 13.53
12/20/2020 6:30:00 AM 0.45 32.81 0.101 7.24 2.55 13.52
12/20/2020 6:45:00 AM 0.49 32.882 0.101 7.24 2.47 13.51
12/20/2020 7:00:00 AM 0.51 32.918 0.101 7.25 2.51 13.5
12/20/2020 7:15:00 AM 0.52 32.936 0.101 7.24 2.58 13.5
12/20/2020 7:30:00 AM 0.53 32.954 0.101 7.24 2.48 13.5
12/20/2020 7:45:00 AM 0.54 32.972 0.101 7.24 2.61 13.5
12/20/2020 8:00:00 AM 0.54 32.972 0.101 7.25 2.42 13.5
12/20/2020 8:15:00 AM 0.55 32.99 0.101 7.25 2.54 13.52
12/20/2020 8:30:00 AM 0.54 32.972 0.101 7.25 2.5 13.55
12/20/2020 8:45:00 AM 0.55 32.99 0.101 7.27 2.5 13.61
12/20/2020 9:00:00 AM 0.57 33.026 0.101 7.28 2.53 13.66
12/20/2020 9:15:00 AM 0.58 33.044 0.101 7.29 2.52 13.71
12/20/2020 9:30:00 AM 0.59 33.062 0.101 7.31 2.52 13.76
12/20/2020 9:45:00 AM 0.59 33.062 0.101 7.31 2.47 13.81
12/20/2020 10:00:00 AM 0.62 33.116 0.1 7.34 2.57 13.89
12/20/2020 10:15:00 AM 0.66 33.188 0.1 7.36 2.57 13.96
12/20/2020 10:30:00 AM 0.7 33.26 0.1 7.38 2.49 14.04
12/20/2020 10:45:00 AM 0.76 33.368 0.1 7.41 2.51 14.11
12/20/2020 11:00:00 AM 0.82 33.476 0.1 7.43 2.41 14.16
12/20/2020 11:15:00 AM 0.88 33.584 0.099 7.45 2.44 14.2
12/20/2020 11:30:00 AM 0.91 33.638 0.099 7.47 2.58 14.19
12/20/2020 11:45:00 AM 0.95 33.71 0.099 7.47 2.62 14.18
12/20/2020 12:00:00 PM 0.99 33.782 0.099 7.47 2.56 14.17
12/20/2020 12:15:00 PM 1.02 33.836 0.099 7.49 2.56 14.14
12/20/2020 12:30:00 PM 1.05 33.89 0.099 7.49 2.5 14.13
12/20/2020 12:45:00 PM 1.08 33.944 0.099 7.49 2.42 14.12
12/20/2020 1:00:00 PM 1.11 33.998 0.099 7.5 2.56 14.1
12/20/2020 1:15:00 PM 1.14 34.052 0.099 7.5 2.55 14.06
12/20/2020 1:30:00 PM 1.16 34.088 0.099 7.49 2.45 14.02
12/20/2020 1:45:00 PM 1.19 34.142 0.099 7.49 2.61 13.98
12/20/2020 2:00:00 PM 1.22 34.196 0.099 7.48 2.75 13.96
12/20/2020 2:15:00 PM 1.25 34.25 0.099 7.48 2.64 13.93
12/20/2020 2:30:00 PM 1.27 34.286 0.099 7.48 2.37 13.91
12/20/2020 2:45:00 PM 1.29 34.322 0.099 7.47 2.48 13.87
12/20/2020 3:00:00 PM 1.3 34.34 0.099 7.46 2.58 13.82
12/20/2020 3:15:00 PM 1.32 34.376 0.099 7.45 2.43 13.79
12/20/2020 3:30:00 PM 1.34 34.412 0.099 7.44 2.41 13.75
12/20/2020 3:45:00 PM 1.35 34.43 0.099 7.43 2.58 13.71
12/20/2020 4:00:00 PM 1.37 34.466 0.099 7.42 2.5 13.65
12/20/2020 4:15:00 PM 1.38 34.484 0.099 7.41 2.48 13.58
12/20/2020 4:30:00 PM 1.39 34.502 0.099 7.39 2.55 13.51
12/20/2020 4:45:00 PM 1.4 34.52 0.099 7.37 2.7 13.44
12/20/2020 5:00:00 PM 1.41 34.538 0.099 7.35 2.47 13.38
12/20/2020 5:15:00 PM 1.41 34.538 0.099 7.34 2.55 13.33
12/20/2020 5:30:00 PM 1.43 34.574 0.099 7.32 2.39 13.28
12/20/2020 5:45:00 PM 1.43 34.574 0.099 7.32 2.37 13.24
12/20/2020 6:00:00 PM 1.44 34.592 0.099 7.31 2.52 13.21
12/20/2020 6:15:00 PM 1.45 34.61 0.099 7.3 2.48 13.18
12/20/2020 6:30:00 PM 1.46 34.628 0.099 7.29 2.49 13.16
12/20/2020 6:45:00 PM 1.47 34.646 0.1 7.3 2.62 13.15
12/20/2020 7:00:00 PM 1.48 34.664 0.099 7.28 2.56 13.13
12/20/2020 7:15:00 PM 1.48 34.664 0.1 7.28 2.72 13.12
12/20/2020 7:30:00 PM 1.49 34.682 0.1 7.27 2.56 13.1
12/20/2020 7:45:00 PM 1.5 34.7 0.1 7.28 2.62 13.1
12/20/2020 8:00:00 PM 1.51 34.718 0.1 7.27 2.48 13.08
12/20/2020 8:15:00 PM 1.52 34.736 0.1 7.27 2.46 13.08
12/20/2020 8:30:00 PM 1.53 34.754 0.1 7.27 2.56 13.06
12/20/2020 8:45:00 PM 1.54 34.772 0.1 7.27 2.55 13.06
12/20/2020 9:00:00 PM 1.55 34.79 0.1 7.26 2.49 13.06
12/20/2020 9:15:00 PM 1.55 34.79 0.1 7.26 2.46 13.05
12/20/2020 9:30:00 PM 1.56 34.808 0.1 7.25 2.65 13.04
12/20/2020 9:45:00 PM 1.57 34.826 0.1 7.25 2.54 13.04
12/20/2020 10:00:00 PM 1.58 34.844 0.1 7.26 2.5 13.03
12/20/2020 10:15:00 PM 1.59 34.862 0.1 7.26 2.44 13.03
12/20/2020 10:30:00 PM 1.6 34.88 0.1 7.26 2.52 13.02
12/20/2020 10:45:00 PM 1.61 34.898 0.1 7.25 2.49 13.02
12/20/2020 11:00:00 PM 1.62 34.916 0.1 7.25 2.57 13.01
12/20/2020 11:15:00 PM 1.63 34.934 0.1 7.26 2.59 13
12/20/2020 11:30:00 PM 1.63 34.934 0.1 7.25 2.44 13
12/20/2020 11:45:00 PM 1.64 34.952 0.1 7.25 2.47 13
12/21/2020 12:00:00 AM 1.65 34.97 0.1 7.25 2.54 12.99
12/21/2020 12:15:00 AM 1.65 34.97 0.1 7.25 2.47 12.99
12/21/2020 12:30:00 AM 1.66 34.988 0.1 7.25 2.45 12.98
12/21/2020 12:45:00 AM 1.67 35.006 0.1 7.24 2.6 12.98
12/21/2020 1:00:00 AM 1.67 35.006 0.1 7.25 2.48 12.98
12/21/2020 1:15:00 AM 1.68 35.024 0.1 7.24 2.59 12.97
12/21/2020 1:30:00 AM 1.68 35.024 0.1 7.24 2.5 12.97
12/21/2020 1:45:00 AM 1.69 35.042 0.1 7.24 2.48 12.96
12/21/2020 2:00:00 AM 1.69 35.042 0.1 7.24 2.45 12.96
12/21/2020 2:15:00 AM 1.7 35.06 0.1 7.24 2.39 12.96
12/21/2020 2:30:00 AM 1.7 35.06 0.1 7.24 2.46 12.96
12/21/2020 2:45:00 AM 1.7 35.06 0.1 7.24 2.49 12.96
12/21/2020 3:00:00 AM 1.7 35.06 0.1 7.24 2.56 12.95
12/21/2020 3:15:00 AM 1.7 35.06 0.1 7.24 2.47 12.95
12/21/2020 3:30:00 AM 1.7 35.06 0.1 7.24 2.51 12.95
12/21/2020 3:45:00 AM 1.69 35.042 0.1 7.24 2.71 12.95
12/21/2020 4:00:00 AM 1.65 34.97 0.1 7.23 2.52 12.95
12/21/2020 4:15:00 AM 1.63 34.934 0.1 7.24 2.51 12.96
12/21/2020 4:30:00 AM 1.64 34.952 0.1 7.24 2.55 12.96
12/21/2020 4:45:00 AM 1.65 34.97 0.1 7.23 2.55 12.96
12/21/2020 5:00:00 AM 1.64 34.952 0.1 7.23 2.59 12.95
12/21/2020 5:15:00 AM 1.61 34.898 0.1 7.23 2.52 12.96
12/21/2020 5:30:00 AM 1.6 34.88 0.1 7.23 2.56 12.97
12/21/2020 5:45:00 AM 1.61 34.898 0.1 7.23 2.61 12.97
12/21/2020 6:00:00 AM 1.62 34.916 0.1 7.23 2.65 12.96
12/21/2020 6:15:00 AM 1.62 34.916 0.101 7.23 2.59 12.97
12/21/2020 6:30:00 AM 1.63 34.934 0.101 7.23 2.56 12.97
12/21/2020 6:45:00 AM 1.63 34.934 0.101 7.23 2.46 12.96
12/21/2020 7:00:00 AM 1.64 34.952 0.101 7.23 2.58 12.97
12/21/2020 7:15:00 AM 1.65 34.97 0.101 7.24 2.47 12.96
12/21/2020 7:30:00 AM 1.65 34.97 0.101 7.23 2.43 12.96
12/21/2020 7:45:00 AM 1.65 34.97 0.101 7.23 2.43 12.98
12/21/2020 8:00:00 AM 1.65 34.97 0.1 7.24 2.61 13.01
12/21/2020 8:15:00 AM 1.66 34.988 0.1 7.26 2.48 13.09
12/21/2020 8:30:00 AM 1.67 35.006 0.1 7.27 2.54 13.19
12/21/2020 8:45:00 AM 1.68 35.024 0.1 7.29 2.46 13.3
12/21/2020 9:00:00 AM 1.71 35.078 0.1 7.32 2.53 13.4
12/21/2020 9:15:00 AM 1.74 35.132 0.1 7.34 2.58 13.49
12/21/2020 9:30:00 AM 1.78 35.204 0.1 7.37 2.61 13.58
12/21/2020 9:45:00 AM 1.81 35.258 0.1 7.4 2.52 13.63
12/21/2020 10:00:00 AM 1.84 35.312 0.1 7.42 2.62 13.67
12/21/2020 10:15:00 AM 1.88 35.384 0.1 7.43 2.67 13.71
12/21/2020 10:30:00 AM 1.91 35.438 0.1 7.45 2.5 13.71
12/21/2020 10:45:00 AM 1.94 35.492 0.1 7.46 2.51 13.71
12/21/2020 11:00:00 AM 1.97 35.546 0.099 7.47 2.6 13.71
12/21/2020 11:15:00 AM 2.01 35.618 0.099 7.49 2.41 13.75
12/21/2020 11:30:00 AM 2.04 35.672 0.099 7.51 2.45 13.77
12/21/2020 11:45:00 AM 2.09 35.762 0.099 7.53 2.55 13.78
12/21/2020 12:00:00 PM 2.14 35.852 0.099 7.55 2.55 13.79
12/21/2020 12:15:00 PM 2.19 35.942 0.099 7.57 2.56 13.79
12/21/2020 12:30:00 PM 2.22 35.996 0.099 7.58 2.43 13.78
12/21/2020 12:45:00 PM 2.25 36.05 0.099 7.58 2.44 13.75
12/21/2020 1:00:00 PM 2.28 36.104 0.098 7.59 2.61 13.74
12/21/2020 1:15:00 PM 2.32 36.176 0.098 7.6 2.6 13.73
12/21/2020 1:30:00 PM 2.36 36.248 0.098 7.61 2.56 13.73
12/21/2020 1:45:00 PM 2.4 36.32 0.098 7.61 2.64 13.73
12/21/2020 2:00:00 PM 2.44 36.392 0.098 7.63 2.38 13.73
12/21/2020 2:15:00 PM 2.48 36.464 0.098 7.64 2.56 13.74
12/21/2020 2:30:00 PM 2.51 36.518 0.098 7.65 2.57 13.73
12/21/2020 2:45:00 PM 2.54 36.572 0.098 7.65 2.48 13.69
12/21/2020 3:00:00 PM 2.55 36.59 0.098 7.65 2.67 13.65
12/21/2020 3:15:00 PM 2.57 36.626 0.098 7.64 2.56 13.62
12/21/2020 3:30:00 PM 2.58 36.644 0.098 7.61 2.43 13.53
12/21/2020 3:45:00 PM 2.59 36.662 0.098 7.58 2.43 13.45
12/21/2020 4:00:00 PM 2.57 36.626 0.098 7.54 2.66 13.35
12/21/2020 4:15:00 PM 2.55 36.59 0.098 7.51 2.46 13.26
12/21/2020 4:30:00 PM 2.55 36.59 0.098 7.48 2.48 13.15
12/21/2020 4:45:00 PM 2.54 36.572 0.098 7.44 2.55 13.06
12/21/2020 5:00:00 PM 2.53 36.554 0.098 7.42 2.6 12.97
12/21/2020 5:15:00 PM 2.52 36.536 0.099 7.4 2.47 12.9
12/21/2020 5:30:00 PM 2.51 36.518 0.099 7.38 2.61 12.85
12/21/2020 5:45:00 PM 2.5 36.5 0.099 7.35 2.64 12.81
12/21/2020 6:00:00 PM 2.49 36.482 0.099 7.33 2.52 12.77
12/21/2020 6:15:00 PM 2.47 36.446 0.099 7.33 2.5 12.74
12/21/2020 6:30:00 PM 2.46 36.428 0.099 7.31 2.44 12.72
12/21/2020 6:45:00 PM 2.46 36.428 0.099 7.31 2.36 12.7
12/21/2020 7:00:00 PM 2.45 36.41 0.099 7.3 2.49 12.69
12/21/2020 7:15:00 PM 2.44 36.392 0.099 7.3 2.67 12.68
12/21/2020 7:30:00 PM 2.44 36.392 0.099 7.29 2.6 12.67
12/21/2020 7:45:00 PM 2.43 36.374 0.099 7.29 2.64 12.66
12/21/2020 8:00:00 PM 2.43 36.374 0.099 7.28 2.67 12.66
12/21/2020 8:15:00 PM 2.42 36.356 0.099 7.27 2.47 12.65
12/21/2020 8:30:00 PM 2.41 36.338 0.099 7.28 2.62 12.65
12/21/2020 8:45:00 PM 2.4 36.32 0.099 7.27 2.52 12.65
12/21/2020 9:00:00 PM 2.4 36.32 0.099 7.27 2.45 12.64
12/21/2020 9:15:00 PM 2.39 36.302 0.1 7.26 2.57 12.64
12/21/2020 9:30:00 PM 2.38 36.284 0.1 7.26 2.44 12.64
12/21/2020 9:45:00 PM 2.38 36.284 0.1 7.26 2.62 12.64
12/21/2020 10:00:00 PM 2.38 36.284 0.1 7.26 2.56 12.64
12/21/2020 10:15:00 PM 2.37 36.266 0.1 7.26 2.43 12.64
12/21/2020 10:30:00 PM 2.36 36.248 0.1 7.26 2.53 12.64
12/21/2020 10:45:00 PM 2.36 36.248 0.1 7.26 2.59 12.63
12/21/2020 11:00:00 PM 2.35 36.23 0.1 7.25 2.64 12.64
12/21/2020 11:15:00 PM 2.35 36.23 0.1 7.25 2.56 12.64
12/21/2020 11:30:00 PM 2.34 36.212 0.1 7.25 2.44 12.64
12/21/2020 11:45:00 PM 2.34 36.212 0.1 7.26 2.68 12.64
12/22/2020 12:00:00 AM 2.33 36.194 0.1 7.26 2.45 12.64
12/22/2020 12:15:00 AM 2.33 36.194 0.1 7.25 2.48 12.64
12/22/2020 12:30:00 AM 2.32 36.176 0.1 7.25 2.43 12.64
12/22/2020 12:45:00 AM 2.31 36.158 0.1 7.25 2.59 12.64
12/22/2020 1:00:00 AM 2.3 36.14 0.1 7.25 2.57 12.64
12/22/2020 1:15:00 AM 2.29 36.122 0.1 7.25 2.6 12.64
12/22/2020 1:30:00 AM 2.28 36.104 0.1 7.25 2.58 12.64
12/22/2020 1:45:00 AM 2.28 36.104 0.1 7.25 2.6 12.65
12/22/2020 2:00:00 AM 2.28 36.104 0.1 7.25 2.54 12.65
12/22/2020 2:15:00 AM 2.27 36.086 0.1 7.24 2.62 12.65
12/22/2020 2:30:00 AM 2.27 36.086 0.1 7.24 2.56 12.65
12/22/2020 2:45:00 AM 2.27 36.086 0.1 7.25 2.46 12.65
12/22/2020 3:00:00 AM 2.25 36.05 0.1 7.25 2.43 12.65
12/22/2020 3:15:00 AM 2.23 36.014 0.1 7.25 2.38 12.66
12/22/2020 3:30:00 AM 2.22 35.996 0.1 7.25 2.59 12.66
12/22/2020 3:45:00 AM 2.2 35.96 0.101 7.25 2.45 12.67
12/22/2020 4:00:00 AM 2.19 35.942 0.101 7.24 2.4 12.67
12/22/2020 4:15:00 AM 2.18 35.924 0.101 7.24 2.39 12.67
12/22/2020 4:30:00 AM 2.17 35.906 0.1 7.24 2.63 12.68
12/22/2020 4:45:00 AM 2.16 35.888 0.101 7.24 2.41 12.68
12/22/2020 5:00:00 AM 2.15 35.87 0.101 7.24 2.62 12.68
12/22/2020 5:15:00 AM 2.14 35.852 0.101 7.24 2.51 12.69
12/22/2020 5:30:00 AM 2.13 35.834 0.101 7.24 2.45 12.7
12/22/2020 5:45:00 AM 2.13 35.834 0.101 7.24 3 12.7
12/22/2020 6:00:00 AM 2.13 35.834 0.101 7.24 2.48 12.71
12/22/2020 6:15:00 AM 2.12 35.816 0.101 7.24 2.56 12.72
12/22/2020 6:30:00 AM 2.11 35.798 0.101 7.24 2.58 12.73
12/22/2020 6:45:00 AM 2.12 35.816 0.101 7.23 2.59 12.72
12/22/2020 7:00:00 AM 2.13 35.834 0.101 7.24 2.72 12.73
12/22/2020 7:15:00 AM 2.13 35.834 0.101 7.24 2.44 12.73
12/22/2020 7:30:00 AM 2.14 35.852 0.101 7.24 2.49 12.74
12/22/2020 7:45:00 AM 2.14 35.852 0.101 7.24 2.56 12.74
12/22/2020 8:00:00 AM 2.15 35.87 0.101 7.25 2.56 12.78
12/22/2020 8:15:00 AM 2.16 35.888 0.101 7.26 2.95 12.81
12/22/2020 8:30:00 AM 2.17 35.906 0.101 7.25 2.61 12.87
12/22/2020 8:45:00 AM 2.19 35.942 0.101 7.28 2.59 12.95
12/22/2020 9:00:00 AM 2.21 35.978 0.101 7.3 2.71 13.04
12/22/2020 9:15:00 AM 2.23 36.014 0.1 7.31 2.47 13.12
12/22/2020 9:30:00 AM 2.25 36.05 0.1 7.33 2.54 13.19
12/22/2020 9:45:00 AM 2.3 36.14 0.1 7.37 2.65 13.35
12/22/2020 10:00:00 AM 2.34 36.212 0.1 7.4 2.44 13.43
12/22/2020 10:15:00 AM 2.39 36.302 0.1 7.44 2.57 13.53
12/22/2020 10:30:00 AM 2.44 36.392 0.1 7.47 2.53 13.6
12/22/2020 10:45:00 AM 2.5 36.5 0.099 7.51 2.65 13.65
12/22/2020 11:00:00 AM 2.57 36.626 0.099 7.54 2.57 13.69
12/22/2020 11:15:00 AM 2.62 36.716 0.099 7.56 2.45 13.71
12/22/2020 11:30:00 AM 2.66 36.788 0.099 7.58 2.51 13.72
12/22/2020 11:45:00 AM 2.73 36.914 0.099 7.6 2.44 13.7
12/22/2020 12:00:00 PM 2.76 36.968 0.099 7.59 2.66 13.68
12/22/2020 12:15:00 PM 2.81 37.058 0.099 7.61 2.45 13.68
12/22/2020 12:30:00 PM 2.84 37.112 0.099 7.62 2.38 13.67
12/22/2020 12:45:00 PM 2.9 37.22 0.099 7.64 2.5 13.69
12/22/2020 1:00:00 PM 2.96 37.328 0.098 7.66 2.46 13.7
12/22/2020 1:15:00 PM 3.05 37.49 0.098 7.69 2.47 13.71
12/22/2020 1:30:00 PM 3.09 37.562 0.098 7.68 2.71 13.65
12/22/2020 1:45:00 PM 3.16 37.688 0.098 7.69 2.43 13.65
12/22/2020 2:00:00 PM 3.2 37.76 0.098 7.7 2.63 13.64
12/22/2020 2:15:00 PM 3.25 37.85 0.098 7.72 2.45 13.63
12/22/2020 2:30:00 PM 3.25 37.85 0.098 7.71 2.4 13.56
12/22/2020 2:45:00 PM 3.27 37.886 0.098 7.68 2.48 13.51
12/22/2020 3:00:00 PM 3.26 37.868 0.098 7.65 2.34 13.42
12/22/2020 3:15:00 PM 3.24 37.832 0.098 7.62 2.58 13.35
12/22/2020 3:30:00 PM 3.22 37.796 0.098 7.59 2.35 13.27
12/22/2020 3:45:00 PM 3.2 37.76 0.098 7.56 2.42 13.19
12/22/2020 4:00:00 PM 3.18 37.724 0.098 7.53 2.34 13.15
12/22/2020 4:15:00 PM 3.15 37.67 0.098 7.51 2.56 13.09
12/22/2020 4:30:00 PM 3.11 37.598 0.098 7.48 2.45 13.03
12/22/2020 4:45:00 PM 3.08 37.544 0.099 7.45 2.49 12.97
12/22/2020 5:00:00 PM 3.03 37.454 0.098 7.43 2.49 12.9
12/22/2020 5:15:00 PM 2.93 37.274 0.099 7.41 2.55 12.85
12/22/2020 5:30:00 PM 2.9 37.22 0.099 7.39 2.64 12.81
12/22/2020 5:45:00 PM 2.88 37.184 0.099 7.36 2.57 12.78
12/22/2020 6:00:00 PM 2.86 37.148 0.099 7.35 2.57 12.75
12/22/2020 6:15:00 PM 2.83 37.094 0.099 7.34 2.66 12.74
12/22/2020 6:30:00 PM 2.8 37.04 0.099 7.32 2.55 12.73
12/22/2020 6:45:00 PM 2.79 37.022 0.099 7.31 2.58 12.72
12/22/2020 7:00:00 PM 2.77 36.986 0.099 7.31 2.47 12.72
12/22/2020 7:15:00 PM 2.75 36.95 0.099 7.31 2.53 12.72
12/22/2020 7:30:00 PM 2.73 36.914 0.1 7.29 2.55 12.72
12/22/2020 7:45:00 PM 2.7 36.86 0.1 7.28 2.69 12.73
12/22/2020 8:00:00 PM 2.69 36.842 0.1 7.29 2.61 12.73
12/22/2020 8:15:00 PM 2.67 36.806 0.1 7.29 2.59 12.73
12/22/2020 8:30:00 PM 2.66 36.788 0.1 7.27 2.58 12.73
12/22/2020 8:45:00 PM 2.65 36.77 0.1 7.28 2.65 12.73
12/22/2020 9:00:00 PM 2.63 36.734 0.1 7.27 2.61 12.74
12/22/2020 9:15:00 PM 2.62 36.716 0.1 7.27 2.48 12.75
12/22/2020 9:30:00 PM 2.61 36.698 0.1 7.27 2.68 12.75
12/22/2020 9:45:00 PM 2.6 36.68 0.103 7.26 4.02 12.76
12/22/2020 10:00:00 PM 2.58 36.644 0.099 7.26 2.68 12.76
12/22/2020 10:15:00 PM 2.57 36.626 0.1 7.27 2.55 12.77
12/22/2020 10:30:00 PM 2.56 36.608 0.1 7.26 2.58 12.77
12/22/2020 10:45:00 PM 2.55 36.59 0.1 7.26 2.59 12.77
12/22/2020 11:00:00 PM 2.53 36.554 0.101 7.26 2.53 12.78
12/22/2020 11:15:00 PM 2.52 36.536 0.101 7.26 2.45 12.78
12/22/2020 11:30:00 PM 2.5 36.5 0.101 7.26 2.46 12.79
12/22/2020 11:45:00 PM 2.46 36.428 0.101 7.26 2.67 12.8
12/23/2020 12:00:00 AM 2.43 36.374 0.101 7.26 2.39 12.8
12/23/2020 12:15:00 AM 2.4 36.32 0.101 7.25 2.43 12.81
12/23/2020 12:30:00 AM 2.39 36.302 0.101 7.25 2.69 12.82
12/23/2020 12:45:00 AM 2.37 36.266 0.101 7.26 2.64 12.83
12/23/2020 1:00:00 AM 2.35 36.23 0.101 7.25 2.56 12.84
12/23/2020 1:15:00 AM 2.34 36.212 0.101 7.25 2.72 12.84
12/23/2020 1:30:00 AM 2.33 36.194 0.102 7.24 3.72 12.85
12/23/2020 1:45:00 AM 2.33 36.194 0.101 7.25 4.92 12.85
12/23/2020 2:00:00 AM 2.32 36.176 0.102 7.25 3.81 12.85
12/23/2020 2:15:00 AM 2.32 36.176 0.101 7.24 2.96 12.86
12/23/2020 2:30:00 AM 2.31 36.158 0.102 7.25 2.85 12.86
12/23/2020 2:45:00 AM 2.31 36.158 0.102 7.25 3.11 12.86
12/23/2020 3:00:00 AM 2.3 36.14 0.102 7.25 3.2 12.87
12/23/2020 3:15:00 AM 2.29 36.122 0.102 7.25 2.61 12.88
12/23/2020 3:30:00 AM 2.29 36.122 0.102 7.25 2.47 12.88
12/23/2020 3:45:00 AM 2.29 36.122 0.102 7.25 2.59 12.88
12/23/2020 4:00:00 AM 2.28 36.104 0.102 7.24 2.48 12.88
12/23/2020 4:15:00 AM 2.25 36.05 0.102 7.25 2.48 12.89
12/23/2020 4:30:00 AM 2.22 35.996 0.102 7.24 2.5 12.89
12/23/2020 4:45:00 AM 2.18 35.924 0.102 7.24 2.61 12.9
12/23/2020 5:00:00 AM 2.16 35.888 0.102 7.24 2.49 12.91
12/23/2020 5:15:00 AM 2.12 35.816 0.102 7.24 2.71 12.92
12/23/2020 5:30:00 AM 2.08 35.744 0.102 7.24 2.61 12.94
12/23/2020 5:45:00 AM 2.03 35.654 0.102 7.24 2.7 12.96
12/23/2020 6:00:00 AM 2 35.6 0.102 7.24 2.59 12.97
12/23/2020 6:15:00 AM 1.98 35.564 0.102 7.24 2.61 12.98
12/23/2020 6:30:00 AM 1.95 35.51 0.102 7.24 2.61 12.99
12/23/2020 6:45:00 AM 1.92 35.456 0.102 7.23 2.73 13.01
12/23/2020 7:00:00 AM 1.89 35.402 0.102 7.24 2.66 13.03
12/23/2020 7:15:00 AM 1.87 35.366 0.103 7.24 2.52 13.03
12/23/2020 7:30:00 AM 1.85 35.33 0.102 7.23 2.45 13.05
12/23/2020 7:45:00 AM 1.82 35.276 0.103 7.23 2.32 13.08
12/23/2020 8:00:00 AM 1.79 35.222 0.103 7.24 2.53 13.14
12/23/2020 8:15:00 AM 1.77 35.186 0.102 7.26 2.68 13.22
12/23/2020 8:30:00 AM 1.75 35.15 0.102 7.28 2.59 13.35
12/23/2020 8:45:00 AM 1.75 35.15 0.102 7.31 2.72 13.48
12/23/2020 9:00:00 AM 1.76 35.168 0.102 7.33 2.64 13.59
12/23/2020 9:15:00 AM 1.76 35.168 0.102 7.37 2.65 13.68
12/23/2020 9:30:00 AM 1.77 35.186 0.102 7.39 2.78 13.77
12/23/2020 9:45:00 AM 1.82 35.276 0.102 7.43 2.57 13.87
12/23/2020 10:00:00 AM 1.87 35.366 0.101 7.46 2.7 13.94
12/23/2020 10:15:00 AM 1.91 35.438 0.101 7.48 2.53 13.98
12/23/2020 10:30:00 AM 1.96 35.528 0.101 7.51 2.57 14.02
12/23/2020 10:45:00 AM 2.04 35.672 0.101 7.53 2.53 14.04
12/23/2020 11:00:00 AM 2.11 35.798 0.101 7.55 2.41 14.06
12/23/2020 11:15:00 AM 2.19 35.942 0.101 7.58 2.73 14.07
12/23/2020 11:30:00 AM 2.28 36.104 0.101 7.59 2.73 14.06
12/23/2020 11:45:00 AM 2.37 36.266 0.1 7.62 2.49 14.06
12/23/2020 12:00:00 PM 2.46 36.428 0.101 7.64 2.63 14.05
12/23/2020 12:15:00 PM 2.56 36.608 0.1 7.66 2.56 14.04
12/23/2020 12:30:00 PM 2.69 36.842 0.1 7.68 2.39 14.03
12/23/2020 12:45:00 PM 2.79 37.022 0.1 7.68 2.34 13.99
12/23/2020 1:00:00 PM 2.87 37.166 0.1 7.7 2.41 13.95
12/23/2020 1:15:00 PM 2.95 37.31 0.1 7.71 2.5 13.92
12/23/2020 1:30:00 PM 3.04 37.472 0.1 7.72 2.51 13.89
12/23/2020 1:45:00 PM 3.11 37.598 0.1 7.73 2.53 13.85
12/23/2020 2:00:00 PM 3.17 37.706 0.1 7.73 2.52 13.82
12/23/2020 2:15:00 PM 3.21 37.778 0.1 7.73 2.62 13.79
12/23/2020 2:30:00 PM 3.24 37.832 0.099 7.73 2.62 13.75
12/23/2020 2:45:00 PM 3.25 37.85 0.099 7.71 2.56 13.7
12/23/2020 3:00:00 PM 3.26 37.868 0.099 7.72 2.4 13.68
12/23/2020 3:15:00 PM 3.26 37.868 0.099 7.71 2.48 13.64
12/23/2020 3:30:00 PM 3.24 37.832 0.099 7.69 2.41 13.58
12/23/2020 3:45:00 PM 3.2 37.76 0.1 7.66 2.45 13.51
12/23/2020 4:00:00 PM 3.16 37.688 0.099 7.62 2.72 13.43
12/23/2020 4:15:00 PM 3.12 37.616 0.1 7.58 2.58 13.36
12/23/2020 4:30:00 PM 3.07 37.526 0.1 7.55 2.44 13.27
12/23/2020 4:45:00 PM 3.02 37.436 0.1 7.51 2.6 13.18
12/23/2020 5:00:00 PM 2.97 37.346 0.1 7.47 2.47 13.09
12/23/2020 5:15:00 PM 2.92 37.256 0.1 7.44 2.48 13.01
12/23/2020 5:30:00 PM 2.88 37.184 0.1 7.41 2.49 12.95
12/23/2020 5:45:00 PM 2.84 37.112 0.1 7.39 2.45 12.9
12/23/2020 6:00:00 PM 2.8 37.04 0.1 7.36 2.6 12.86
12/23/2020 6:15:00 PM 2.76 36.968 0.101 7.35 2.75 12.83
12/23/2020 6:30:00 PM 2.73 36.914 0.101 7.34 2.56 12.81
12/23/2020 6:45:00 PM 2.71 36.878 0.101 7.33 2.51 12.79
12/23/2020 7:00:00 PM 2.68 36.824 0.101 7.32 2.71 12.78
12/23/2020 7:15:00 PM 2.65 36.77 0.101 7.31 2.6 12.77
12/23/2020 7:30:00 PM 2.62 36.716 0.101 7.3 2.77 12.77
12/23/2020 7:45:00 PM 2.59 36.662 0.101 7.29 2.59 12.77
12/23/2020 8:00:00 PM 2.56 36.608 0.101 7.29 2.7 12.77
12/23/2020 8:15:00 PM 2.53 36.554 0.101 7.28 2.69 12.77
12/23/2020 8:30:00 PM 2.5 36.5 0.102 7.28 2.65 12.78
12/23/2020 8:45:00 PM 2.47 36.446 0.102 7.28 2.55 12.78
12/23/2020 9:00:00 PM 2.44 36.392 0.101 7.27 2.56 12.78
12/23/2020 9:15:00 PM 2.41 36.338 0.102 7.27 2.65 12.79
12/23/2020 9:30:00 PM 2.39 36.302 0.102 7.28 2.68 12.8
12/23/2020 9:45:00 PM 2.36 36.248 0.102 7.26 2.78 12.8
12/23/2020 10:00:00 PM 2.33 36.194 0.102 7.26 2.68 12.81
12/23/2020 10:15:00 PM 2.31 36.158 0.102 7.26 2.67 12.81
12/23/2020 10:30:00 PM 2.29 36.122 0.102 7.27 2.63 12.82
12/23/2020 10:45:00 PM 2.27 36.086 0.102 7.26 2.62 12.83
12/23/2020 11:00:00 PM 2.25 36.05 0.102 7.26 2.56 12.83
12/23/2020 11:15:00 PM 2.23 36.014 0.102 7.26 2.59 12.84
12/23/2020 11:30:00 PM 2.21 35.978 0.102 7.26 2.54 12.84
12/23/2020 11:45:00 PM 2.2 35.96 0.102 7.25 2.59 12.84
12/24/2020 12:00:00 AM 2.18 35.924 0.102 7.26 2.62 12.85
12/24/2020 12:15:00 AM 2.17 35.906 0.102 7.27 2.59 12.85
12/24/2020 12:30:00 AM 2.14 35.852 0.102 7.26 2.62 12.86
12/24/2020 12:45:00 AM 2.12 35.816 0.102 7.26 2.64 12.86
12/24/2020 1:00:00 AM 2.1 35.78 0.102 7.26 2.61 12.87
12/24/2020 1:15:00 AM 2.07 35.726 0.102 7.25 2.69 12.88
12/24/2020 1:30:00 AM 2.05 35.69 0.102 7.25 2.54 12.88
12/24/2020 1:45:00 AM 2.03 35.654 0.102 7.26 2.84 12.89
12/24/2020 2:00:00 AM 2 35.6 0.102 7.25 2.5 12.89
12/24/2020 2:15:00 AM 1.98 35.564 0.102 7.25 2.5 12.9
12/24/2020 2:30:00 AM 1.97 35.546 0.103 7.26 2.49 12.9
12/24/2020 2:45:00 AM 1.96 35.528 0.103 7.25 2.53 12.91
12/24/2020 3:00:00 AM 1.94 35.492 0.102 7.25 2.44 12.92
12/24/2020 3:15:00 AM 1.92 35.456 0.102 7.25 2.5 12.92
12/24/2020 3:30:00 AM 1.91 35.438 0.102 7.25 2.59 12.92
12/24/2020 3:45:00 AM 1.9 35.42 0.103 7.25 2.51 12.93
12/24/2020 4:00:00 AM 1.88 35.384 0.102 7.25 2.39 12.93
12/24/2020 4:15:00 AM 1.87 35.366 0.103 7.25 2.5 12.93
12/24/2020 4:30:00 AM 1.86 35.348 0.103 7.26 2.54 12.93
12/24/2020 4:45:00 AM 1.86 35.348 0.102 7.25 2.42 12.93
12/24/2020 5:00:00 AM 1.89 35.402 0.103 7.25 2.5 12.93
12/24/2020 5:15:00 AM 1.92 35.456 0.103 7.25 2.66 12.92
12/24/2020 5:30:00 AM 1.96 35.528 0.103 7.26 2.47 12.91
12/24/2020 5:45:00 AM 1.99 35.582 0.103 7.26 2.3 12.9
12/24/2020 6:00:00 AM 2.03 35.654 0.103 7.26 2.49 12.89
12/24/2020 6:15:00 AM 2.07 35.726 0.102 7.26 2.53 12.87
12/24/2020 6:30:00 AM 2.11 35.798 0.103 7.26 2.51 12.86
12/24/2020 6:45:00 AM 2.14 35.852 0.103 7.27 2.58 12.84
12/24/2020 7:00:00 AM 2.17 35.906 0.103 7.27 2.49 12.83
12/24/2020 7:15:00 AM 2.2 35.96 0.103 7.26 2.53 12.82
12/24/2020 7:30:00 AM 2.24 36.032 0.103 7.27 2.62 12.8
12/24/2020 7:45:00 AM 2.27 36.086 0.102 7.27 2.61 12.79
12/24/2020 8:00:00 AM 2.3 36.14 0.102 7.27 2.75 12.8
12/24/2020 8:15:00 AM 2.34 36.212 0.102 7.28 2.51 12.8
12/24/2020 8:30:00 AM 2.38 36.284 0.102 7.29 2.57 12.84
12/24/2020 8:45:00 AM 2.41 36.338 0.102 7.3 2.58 12.9
12/24/2020 9:00:00 AM 2.45 36.41 0.102 7.32 2.44 12.95
12/24/2020 9:15:00 AM 2.5 36.5 0.101 7.33 2.63 13.01
12/24/2020 9:30:00 AM 2.53 36.554 0.101 7.35 2.64 13.04
12/24/2020 9:45:00 AM 2.56 36.608 0.1 7.36 2.57 13.08
12/24/2020 10:00:00 AM 2.6 36.68 0.1 7.38 2.6 13.17
12/24/2020 10:15:00 AM 2.64 36.752 0.1 7.4 2.94 13.23
12/24/2020 10:30:00 AM 2.68 36.824 0.1 7.42 2.58 13.26
12/24/2020 10:45:00 AM 2.72 36.896 0.099 7.43 2.71 13.29
12/24/2020 11:00:00 AM 2.75 36.95 0.099 7.44 2.76 13.3
12/24/2020 11:15:00 AM 2.78 37.004 0.098 7.45 2.73 13.31
12/24/2020 11:30:00 AM 2.8 37.04 0.098 7.46 2.78 13.32
12/24/2020 11:45:00 AM 2.82 37.076 0.098 7.47 2.81 13.32
12/24/2020 12:00:00 PM 2.84 37.112 0.098 7.48 2.89 13.33
12/24/2020 12:15:00 PM 2.84 37.112 0.097 7.48 3.07 13.31
12/24/2020 12:30:00 PM 2.84 37.112 0.097 7.46 3.17 13.27
12/24/2020 12:45:00 PM 2.83 37.094 0.097 7.47 3.17 13.25
12/24/2020 1:00:00 PM 2.81 37.058 0.096 7.47 3.63 13.23
12/24/2020 1:15:00 PM 2.78 37.004 0.096 7.43 3.85 13.21
12/24/2020 1:30:00 PM 2.74 36.932 0.094 7.37 5.12 13.17
12/24/2020 1:45:00 PM 2.71 36.878 0.094 7.34 5.03 13.13
12/24/2020 2:00:00 PM 2.65 36.77 0.094 7.29 5.72 13.09
12/24/2020 2:15:00 PM 2.57 36.626 0.093 7.26 3.9 13.07
12/24/2020 2:30:00 PM 2.47 36.446 0.093 7.19 11.12 13.04
12/24/2020 2:45:00 PM 2.35 36.23 0.092 7.12 9.88 13.04
12/24/2020 3:00:00 PM 2.21 35.978 0.091 7.1 11.23 13.04
12/24/2020 3:15:00 PM 2.06 35.708 0.09 7.04 15.3 13.06
12/24/2020 3:30:00 PM 1.91 35.438 0.087 7.01 18.25 13.08
12/24/2020 3:45:00 PM 1.81 35.258 0.085 6.98 48.14 13.09
12/24/2020 4:00:00 PM 1.76 35.168 0.084 6.95 32.82 13.08
12/24/2020 4:15:00 PM 1.71 35.078 0.082 6.92 53.97 13.09
12/24/2020 4:30:00 PM 1.65 34.97 0.081 6.89 69.7 13.09
12/24/2020 4:45:00 PM 1.57 34.826 0.08 6.84 67.54 13.1
12/24/2020 5:00:00 PM 1.5 34.7 0.08 6.82 94.73 13.13
12/24/2020 5:15:00 PM 1.43 34.574 0.08 6.8 108.88 13.16
12/24/2020 5:30:00 PM 1.35 34.43 0.08 6.8 138.61 13.19
12/24/2020 5:45:00 PM 1.26 34.268 0.08 6.79 159.44 13.22
12/24/2020 6:00:00 PM 1.12 34.016 0.08 6.78 207.44 13.24
12/24/2020 6:15:00 PM 1.09 33.962 0.08 6.75 206.74 13.28
12/24/2020 6:30:00 PM 1.01 33.818 0.077 6.75 231.4 13.31
12/24/2020 6:45:00 PM 1 33.8 0.074 6.74 262.08 13.32
12/24/2020 7:00:00 PM 0.99 33.782 0.071 6.71 263.91 13.33
12/24/2020 7:15:00 PM 0.98 33.764 0.069 6.66 337.15 13.33
12/24/2020 7:30:00 PM 0.99 33.782 0.068 6.67 303.88 13.33
12/24/2020 7:45:00 PM 1 33.8 0.066 6.68 355.63 13.32
12/24/2020 8:00:00 PM 1.03 33.854 0.065 6.67 356.35 13.31
12/24/2020 8:15:00 PM 1.05 33.89 0.064 6.64 284.92 13.3
12/24/2020 8:30:00 PM 1.09 33.962 0.063 6.64 336.45 13.29
12/24/2020 8:45:00 PM 1.15 34.07 0.063 6.64 353.11 13.27
12/24/2020 9:00:00 PM 1.18 34.124 0.062 6.64 304.03 13.26
12/24/2020 9:15:00 PM 1.2 34.16 0.062 6.65 418.58 13.26
12/24/2020 9:30:00 PM 1.24 34.232 0.061 6.63 373.58 13.25
12/24/2020 9:45:00 PM 1.29 34.322 0.061 6.62 338.6 13.23
12/24/2020 10:00:00 PM 1.34 34.412 0.06 6.62 302.93 13.22
12/24/2020 10:15:00 PM 1.41 34.538 0.061 6.63 248.27 13.2
12/24/2020 10:30:00 PM 1.51 34.718 0.062 6.63 282.52 13.16
12/24/2020 10:45:00 PM 1.61 34.898 0.062 6.7 225.25 13.13
12/24/2020 11:00:00 PM 1.69 35.042 0.061 6.65 216.13 13.1
12/24/2020 11:15:00 PM 1.78 35.204 0.06 6.63 219.82 13.06
12/24/2020 11:30:00 PM 1.85 35.33 0.061 6.62 222.99 13.03
12/24/2020 11:45:00 PM 1.9 35.42 0.059 6.61 213.58 13.01
12/25/2020 12:00:00 AM 1.93 35.474 0.06 6.55 249.88 12.99
12/25/2020 12:15:00 AM 1.95 35.51 0.056 6.55 228.03 12.97
12/25/2020 12:30:00 AM 1.96 35.528 0.057 6.53 269.85 12.96
12/25/2020 12:45:00 AM 1.97 35.546 0.058 6.53 285.93 12.95
12/25/2020 1:00:00 AM 1.97 35.546 0.057 6.53 298.16 12.94
12/25/2020 1:15:00 AM 2 35.6 0.056 6.55 298.27 12.92
12/25/2020 1:30:00 AM 1.99 35.582 0.056 6.56 301.62 12.92
12/25/2020 1:45:00 AM 2 35.6 0.056 6.49 317.18 12.92
12/25/2020 2:00:00 AM 2.03 35.654 0.055 6.58 331.67 12.91
12/25/2020 2:15:00 AM 2.07 35.726 0.025 6.43 10519.16 12.89
12/25/2020 2:30:00 AM 2.12 35.816 0.021 6.36 994.86 12.88
12/25/2020 2:45:00 AM 2.16 35.888 0.021 6.45 1274.25 12.87
12/25/2020 3:00:00 AM 2.21 35.978 0.021 6.58 344.8 12.86
12/25/2020 3:15:00 AM 2.28 36.104 0.021 6.57 301.61 12.84
12/25/2020 3:30:00 AM 2.35 36.23 0.021 6.58 315.33 12.82
12/25/2020 3:45:00 AM 2.41 36.338 0.02 6.52 272.13 12.8
12/25/2020 4:00:00 AM 2.47 36.446 0.02 6.52 262.09 12.78
12/25/2020 4:15:00 AM 2.53 36.554 0.02 6.56 222.55 12.77
12/25/2020 4:30:00 AM 2.58 36.644 0.02 6.64 290.16 12.75
12/25/2020 4:45:00 AM 2.62 36.716 0.02 6.6 270.24 12.74
12/25/2020 5:00:00 AM 2.65 36.77 0.02 6.61 263.51 12.73
12/25/2020 5:15:00 AM 2.68 36.824 0.02 6.59 172.97 12.72
12/25/2020 5:30:00 AM 2.71 36.878 0.02 6.6 195.9 12.71
12/25/2020 5:45:00 AM 2.74 36.932 0.02 6.63 144.46 12.7
12/25/2020 6:00:00 AM 2.76 36.968 0.02 6.61 139.35 12.69
12/25/2020 6:15:00 AM 2.78 37.004 0.02 6.6 139.25 12.68
12/25/2020 6:30:00 AM 2.8 37.04 0.02 6.57 128.16 12.68
12/25/2020 6:45:00 AM 2.81 37.058 0.02 6.55 115.81 12.68
12/25/2020 7:00:00 AM 2.81 37.058 0.02 6.56 100.72 12.68
12/25/2020 7:15:00 AM 2.8 37.04 0.02 6.57 100.64 12.68
12/25/2020 7:30:00 AM 2.81 37.058 0.02 6.54 92.44 12.68
12/25/2020 7:45:00 AM 2.83 37.094 0.02 6.58 95.11 12.68
12/25/2020 8:00:00 AM 2.84 37.112 0.02 6.55 112.87 12.68
12/25/2020 8:15:00 AM 2.85 37.13 0.02 6.57 81.09 12.67
12/25/2020 8:30:00 AM 2.87 37.166 0.02 6.56 81.12 12.67
12/25/2020 8:45:00 AM 2.89 37.202 0.02 6.57 78.14 12.66
12/25/2020 9:00:00 AM 2.91 37.238 0.02 6.57 71.8 12.66
12/25/2020 9:15:00 AM 2.94 37.292 0.02 6.56 71.18 12.64
12/25/2020 9:30:00 AM 2.96 37.328 0.02 6.54 67.52 12.64
12/25/2020 9:45:00 AM 2.98 37.364 0.02 6.58 65.89 12.64
12/25/2020 10:00:00 AM 3 37.4 0.02 6.59 72.02 12.63
12/25/2020 10:15:00 AM 3.03 37.454 0.02 6.6 67.14 12.62
12/25/2020 10:30:00 AM 3.05 37.49 0.02 6.58 63.9 12.61
12/25/2020 10:45:00 AM 3.07 37.526 0.02 6.6 57 12.61
12/25/2020 11:00:00 AM 3.09 37.562 0.02 6.59 57.76 12.6
12/25/2020 11:15:00 AM 3.11 37.598 0.02 6.61 56.16 12.59
12/25/2020 11:30:00 AM 3.13 37.634 0.02 6.62 53.54 12.58
12/25/2020 11:45:00 AM 3.14 37.652 0.02 6.62 51.68 12.57
12/25/2020 12:00:00 PM 3.16 37.688 0.02 6.63 50.98 12.56
12/25/2020 12:15:00 PM 3.18 37.724 0.02 6.65 56.22 12.56
12/25/2020 12:30:00 PM 3.2 37.76 0.02 6.62 47.11 12.55
12/25/2020 12:45:00 PM 3.21 37.778 0.02 6.62 38.85 12.54
12/25/2020 1:00:00 PM 3.23 37.814 0.02 6.62 43.91 12.54
12/25/2020 1:15:00 PM 3.25 37.85 0.02 6.65 43.53 12.53
12/25/2020 1:30:00 PM 3.27 37.886 0.02 6.64 41.39 12.53
12/25/2020 1:45:00 PM 3.3 37.94 0.02 6.64 39.99 12.51
12/25/2020 2:00:00 PM 3.31 37.958 0.02 6.65 50.31 12.51
12/25/2020 2:15:00 PM 3.34 38.012 0.02 6.64 48.16 12.51
12/25/2020 2:30:00 PM 3.35 38.03 0.02 6.65 43.1 12.5
12/25/2020 2:45:00 PM 3.37 38.066 0.02 6.66 45.31 12.5
12/25/2020 3:00:00 PM 3.37 38.066 0.02 6.66 38.62 12.49
12/25/2020 3:15:00 PM 3.36 38.048 0.02 6.65 42.89 12.49
12/25/2020 3:30:00 PM 3.36 38.048 0.02 6.68 41.36 12.49
12/25/2020 3:45:00 PM 3.35 38.03 0.02 6.68 65.2 12.49
12/25/2020 4:00:00 PM 3.34 38.012 0.02 6.67 44.62 12.5
12/25/2020 4:15:00 PM 3.33 37.994 0.02 6.68 35.25 12.5
12/25/2020 4:30:00 PM 3.3 37.94 0.02 6.68 34.67 12.51
12/25/2020 4:45:00 PM 3.28 37.904 0.02 6.68 36.1 12.52
12/25/2020 5:00:00 PM 3.25 37.85 0.02 6.67 34.22 12.53
12/25/2020 5:15:00 PM 3.22 37.796 0.02 6.66 35.21 12.55
12/25/2020 5:30:00 PM 3.2 37.76 0.02 6.64 37.9 12.56
12/25/2020 5:45:00 PM 3.17 37.706 0.02 6.65 29.56 12.57
12/25/2020 6:00:00 PM 3.14 37.652 0.02 6.65 34.99 12.58
12/25/2020 6:15:00 PM 3.12 37.616 0.02 6.64 36.87 12.59
12/25/2020 6:30:00 PM 3.09 37.562 0.02 6.65 30.85 12.6
12/25/2020 6:45:00 PM 3.06 37.508 0.02 6.66 31.78 12.61
12/25/2020 7:00:00 PM 3.03 37.454 0.02 6.67 29.52 12.63
12/25/2020 7:15:00 PM 3 37.4 0.02 6.66 25.5 12.64
12/25/2020 7:30:00 PM 2.97 37.346 0.02 6.67 28.29 12.65
12/25/2020 7:45:00 PM 2.94 37.292 0.02 6.66 26.52 12.66
12/25/2020 8:00:00 PM 2.91 37.238 0.02 6.65 26.67 12.68
12/25/2020 8:15:00 PM 2.88 37.184 0.021 6.65 21.93 12.69
12/25/2020 8:30:00 PM 2.85 37.13 0.02 6.64 24.43 12.7
12/25/2020 8:45:00 PM 2.83 37.094 0.021 6.66 25.53 12.71
12/25/2020 9:00:00 PM 2.81 37.058 0.021 6.65 25.42 12.72
12/25/2020 9:15:00 PM 2.79 37.022 0.021 6.66 23.39 12.73
12/25/2020 9:30:00 PM 2.76 36.968 0.021 6.66 22.04 12.73
12/25/2020 9:45:00 PM 2.74 36.932 0.021 6.67 22.66 12.74
12/25/2020 10:00:00 PM 2.71 36.878 0.021 6.67 22.01 12.76
12/25/2020 10:15:00 PM 2.68 36.824 0.021 6.67 21.34 12.77
12/25/2020 10:30:00 PM 2.66 36.788 0.021 6.67 19.8 12.77
12/25/2020 10:45:00 PM 2.63 36.734 0.021 6.67 20.54 12.78
12/25/2020 11:00:00 PM 2.6 36.68 0.021 6.68 20.29 12.79
12/25/2020 11:15:00 PM 2.57 36.626 0.021 6.68 20.1 12.8
12/25/2020 11:30:00 PM 2.54 36.572 0.021 6.69 19.33 12.81
12/25/2020 11:45:00 PM 2.53 36.554 0.021 6.68 18.97 12.82
12/26/2020 12:00:00 AM 2.5 36.5 0.021 6.69 18.83 12.83
12/26/2020 12:15:00 AM 2.47 36.446 0.021 6.69 24.36 12.84
12/26/2020 12:30:00 AM 2.45 36.41 0.021 6.68 15.96 12.84
12/26/2020 12:45:00 AM 2.43 36.374 0.021 6.7 15.61 12.85
12/26/2020 1:00:00 AM 2.4 36.32 0.021 6.7 17.91 12.86
12/26/2020 1:15:00 AM 2.38 36.284 0.021 6.7 18.55 12.87
12/26/2020 1:30:00 AM 2.35 36.23 0.021 6.7 17.5 12.88
12/26/2020 1:45:00 AM 2.33 36.194 0.021 6.7 17.48 12.89
12/26/2020 2:00:00 AM 2.31 36.158 0.021 6.7 18.42 12.89
12/26/2020 2:15:00 AM 2.3 36.14 0.021 6.71 16.84 12.9
12/26/2020 2:30:00 AM 2.27 36.086 0.021 6.71 16.99 12.91
12/26/2020 2:45:00 AM 2.24 36.032 0.021 6.71 17.14 12.92
12/26/2020 3:00:00 AM 2.22 35.996 0.021 6.71 16.68 12.93
12/26/2020 3:15:00 AM 2.21 35.978 0.021 6.71 16.31 12.94
12/26/2020 3:30:00 AM 2.2 35.96 0.021 6.72 15.63 12.95
12/26/2020 3:45:00 AM 2.19 35.942 0.021 6.72 15.49 12.95
12/26/2020 4:00:00 AM 2.17 35.906 0.021 6.72 15.6 12.96
12/26/2020 4:15:00 AM 2.17 35.906 0.021 6.73 15.78 12.96
12/26/2020 4:30:00 AM 2.15 35.87 0.021 6.73 15.48 12.97
12/26/2020 4:45:00 AM 2.15 35.87 0.021 6.72 15.58 12.97
12/26/2020 5:00:00 AM 2.13 35.834 0.021 6.73 15.43 12.98
12/26/2020 5:15:00 AM 2.1 35.78 0.021 6.73 15.3 12.99
12/26/2020 5:30:00 AM 2.08 35.744 0.021 6.73 14.88 13
12/26/2020 5:45:00 AM 2.06 35.708 0.021 6.73 14.99 13.01
12/26/2020 6:00:00 AM 2.04 35.672 0.021 6.73 14.66 13.02
12/26/2020 6:15:00 AM 2.02 35.636 0.021 6.73 15.74 13.03
12/26/2020 6:30:00 AM 2.02 35.636 0.021 6.73 15.23 13.03
12/26/2020 6:45:00 AM 2.01 35.618 0.021 6.74 14.94 13.04
12/26/2020 7:00:00 AM 2 35.6 0.021 6.74 14.45 13.05
12/26/2020 7:15:00 AM 1.98 35.564 0.021 6.74 13.85 13.06
12/26/2020 7:30:00 AM 1.97 35.546 0.021 6.61 14.03 13.06
12/26/2020 7:45:00 AM 1.96 35.528 0.021 6.66 14.01 13.07
12/26/2020 8:00:00 AM 1.97 35.546 0.021 6.68 13.69 13.07
12/26/2020 8:15:00 AM 1.96 35.528 0.021 6.76 13.38 13.08
12/26/2020 8:30:00 AM 1.97 35.546 0.021 6.64 13.75 13.08
12/26/2020 8:45:00 AM 1.97 35.546 0.021 6.71 13.7 13.08
12/26/2020 9:00:00 AM 1.98 35.564 0.021 6.71 13.07 13.08
12/26/2020 9:15:00 AM 2 35.6 0.021 6.72 13.04 13.09
12/26/2020 9:30:00 AM 2.01 35.618 0.021 6.73 13.3 13.09
12/26/2020 9:45:00 AM 2.03 35.654 0.021 6.68 12.82 13.08
12/26/2020 10:00:00 AM 2.04 35.672 0.021 6.72 12.3 13.08
12/26/2020 10:15:00 AM 2.06 35.708 0.021 6.73 12.2 13.08
12/26/2020 10:30:00 AM 2.09 35.762 0.021 6.73 12.82 13.07
12/26/2020 10:45:00 AM 2.11 35.798 0.021 6.74 12.35 13.07
12/26/2020 11:00:00 AM 2.12 35.816 0.021 6.74 12.39 13.06
12/26/2020 11:15:00 AM 2.15 35.87 0.021 6.75 11.58 13.06
12/26/2020 11:30:00 AM 2.18 35.924 0.021 6.75 11.98 13.05
12/26/2020 11:45:00 AM 2.2 35.96 0.021 6.76 11.84 13.04
12/26/2020 12:00:00 PM 2.23 36.014 0.021 6.76 11.6 13.03
12/26/2020 12:15:00 PM 2.27 36.086 0.021 6.76 12.07 13.02
12/26/2020 12:30:00 PM 2.31 36.158 0.021 6.77 12.21 13
12/26/2020 12:45:00 PM 2.35 36.23 0.021 6.77 11.55 12.99
12/26/2020 1:00:00 PM 2.37 36.266 0.021 6.77 11.53 12.98
12/26/2020 1:15:00 PM 2.39 36.302 0.021 6.78 11.51 12.97
12/26/2020 1:30:00 PM 2.41 36.338 0.021 6.77 10.91 12.96
12/26/2020 1:45:00 PM 2.42 36.356 0.021 6.78 11.18 12.96
12/26/2020 2:00:00 PM 2.42 36.356 0.021 6.77 10.59 12.95
12/26/2020 2:15:00 PM 2.43 36.374 0.021 6.77 10.67 12.95
12/26/2020 2:30:00 PM 2.43 36.374 0.021 6.77 10.71 12.94
12/26/2020 2:45:00 PM 2.44 36.392 0.021 6.78 11.06 12.94
12/26/2020 3:00:00 PM 2.44 36.392 0.021 6.77 10.65 12.94
12/26/2020 3:15:00 PM 2.43 36.374 0.021 6.78 10.37 12.94
12/26/2020 3:30:00 PM 2.41 36.338 0.021 6.78 10.4 12.95
12/26/2020 3:45:00 PM 2.4 36.32 0.021 6.78 10.6 12.95
12/26/2020 4:00:00 PM 2.39 36.302 0.021 6.77 10.46 12.95
12/26/2020 4:15:00 PM 2.38 36.284 0.021 6.77 10.52 12.96
12/26/2020 4:30:00 PM 2.35 36.23 0.021 6.78 10.94 12.96
12/26/2020 4:45:00 PM 2.33 36.194 0.021 6.76 10.41 12.97
12/26/2020 5:00:00 PM 2.29 36.122 0.021 6.76 10.89 12.98
12/26/2020 5:15:00 PM 2.26 36.068 0.021 6.76 10.49 12.99
12/26/2020 5:30:00 PM 2.24 36.032 0.021 6.77 10.5 13
12/26/2020 5:45:00 PM 2.21 35.978 0.021 6.74 10.22 13.01
12/26/2020 6:00:00 PM 2.2 35.96 0.021 6.76 10.56 13.02
12/26/2020 6:15:00 PM 2.18 35.924 0.021 6.76 10.54 13.02
12/26/2020 6:30:00 PM 2.16 35.888 0.022 6.76 10.44 13.03
12/26/2020 6:45:00 PM 2.15 35.87 0.022 6.76 10.15 13.04
12/26/2020 7:00:00 PM 2.14 35.852 0.022 6.77 10.25 13.05
12/26/2020 7:15:00 PM 2.12 35.816 0.022 6.76 10.03 13.06
12/26/2020 7:30:00 PM 2.11 35.798 0.022 6.74 10.37 13.07
12/26/2020 7:45:00 PM 2.1 35.78 0.022 6.77 10.26 13.08
12/26/2020 8:00:00 PM 2.09 35.762 0.022 6.77 9.98 13.08
12/26/2020 8:15:00 PM 2.07 35.726 0.022 6.74 9.98 13.09
12/26/2020 8:30:00 PM 2.06 35.708 0.022 6.77 9.77 13.1
12/26/2020 8:45:00 PM 2.06 35.708 0.022 6.77 9.82 13.1
12/26/2020 9:00:00 PM 2.05 35.69 0.022 6.78 9.71 13.1
12/26/2020 9:15:00 PM 2.04 35.672 0.022 6.79 9.79 13.11
12/26/2020 9:30:00 PM 2.04 35.672 0.022 6.75 9.71 13.11
12/26/2020 9:45:00 PM 2.03 35.654 0.022 6.78 9.57 13.11
12/26/2020 10:00:00 PM 2.03 35.654 0.022 6.83 10.09 13.12
12/26/2020 10:15:00 PM 2.03 35.654 0.022 6.76 9.44 13.12
12/26/2020 10:30:00 PM 2.02 35.636 0.022 6.78 9.53 13.12
12/26/2020 10:45:00 PM 2.02 35.636 0.022 6.78 9.4 13.13
12/26/2020 11:00:00 PM 2.01 35.618 0.022 6.79 9.39 13.13
12/26/2020 11:15:00 PM 2.01 35.618 0.022 6.79 9.89 13.13
12/26/2020 11:30:00 PM 2.01 35.618 0.022 6.8 9.43 13.13
12/26/2020 11:45:00 PM 2 35.6 0.022 6.8 9.4 13.13
12/27/2020 12:00:00 AM 2 35.6 0.022 6.79 9.36 13.14
12/27/2020 12:15:00 AM 1.99 35.582 0.022 6.79 9.11 13.14
12/27/2020 12:30:00 AM 1.98 35.564 0.022 6.81 9.15 13.14
12/27/2020 12:45:00 AM 1.98 35.564 0.022 6.8 8.84 13.14
12/27/2020 1:00:00 AM 1.98 35.564 0.022 6.8 9.44 13.15
12/27/2020 1:15:00 AM 1.97 35.546 0.022 6.8 9.03 13.15
12/27/2020 1:30:00 AM 1.97 35.546 0.022 6.8 8.82 13.16
12/27/2020 1:45:00 AM 1.97 35.546 0.022 6.8 8.84 13.16
12/27/2020 2:00:00 AM 1.97 35.546 0.022 6.81 8.53 13.16
12/27/2020 2:15:00 AM 1.98 35.564 0.022 6.8 8.57 13.16
12/27/2020 2:30:00 AM 1.98 35.564 0.022 6.8 8.53 13.16
12/27/2020 2:45:00 AM 1.98 35.564 0.022 6.81 8.65 13.16
12/27/2020 3:00:00 AM 1.99 35.582 0.022 6.81 8.81 13.17
12/27/2020 3:15:00 AM 1.99 35.582 0.022 6.82 8.64 13.17
12/27/2020 3:30:00 AM 1.99 35.582 0.022 6.81 8.74 13.17
12/27/2020 3:45:00 AM 1.99 35.582 0.022 6.81 8.43 13.17
12/27/2020 4:00:00 AM 2 35.6 0.022 6.82 8.64 13.17
12/27/2020 4:15:00 AM 2 35.6 0.022 6.82 8.75 13.17
12/27/2020 4:30:00 AM 2.01 35.618 0.022 6.82 8.52 13.17
12/27/2020 4:45:00 AM 2.01 35.618 0.022 6.82 8.4 13.17
12/27/2020 5:00:00 AM 2.02 35.636 0.022 6.82 8.28 13.17
12/27/2020 5:15:00 AM 2.03 35.654 0.022 6.82 8.54 13.17
12/27/2020 5:30:00 AM 2.03 35.654 0.022 6.83 8.25 13.17
12/27/2020 5:45:00 AM 2.04 35.672 0.022 6.8 8.5 13.17
12/27/2020 6:00:00 AM 2.05 35.69 0.022 6.82 8.52 13.17
12/27/2020 6:15:00 AM 2.06 35.708 0.022 6.82 8.28 13.17
12/27/2020 6:30:00 AM 2.07 35.726 0.022 6.82 8.15 13.17
12/27/2020 6:45:00 AM 2.07 35.726 0.022 6.83 8.39 13.17
12/27/2020 7:00:00 AM 2.08 35.744 0.022 6.83 8.43 13.17
12/27/2020 7:15:00 AM 2.09 35.762 0.022 6.83 8.21 13.17
12/27/2020 7:30:00 AM 2.1 35.78 0.022 6.83 8.22 13.17
12/27/2020 7:45:00 AM 2.11 35.798 0.022 6.84 8.22 13.17
12/27/2020 8:00:00 AM 2.11 35.798 0.022 6.84 8.15 13.16
12/27/2020 8:15:00 AM 2.12 35.816 0.022 6.84 7.98 13.16
12/27/2020 8:30:00 AM 2.13 35.834 0.022 6.84 7.9 13.17
12/27/2020 8:45:00 AM 2.14 35.852 0.022 6.83 8.13 13.17
12/27/2020 9:00:00 AM 2.16 35.888 0.022 6.84 7.86 13.17
12/27/2020 9:15:00 AM 2.18 35.924 0.022 6.84 7.71 13.17
12/27/2020 9:30:00 AM 2.2 35.96 0.022 6.84 7.83 13.17
12/27/2020 9:45:00 AM 2.23 36.014 0.022 6.85 7.85 13.17
12/27/2020 10:00:00 AM 2.27 36.086 0.022 6.85 7.78 13.16
12/27/2020 10:15:00 AM 2.32 36.176 0.022 6.86 7.64 13.15
12/27/2020 10:30:00 AM 2.37 36.266 0.022 6.87 7.91 13.13
12/27/2020 10:45:00 AM 2.43 36.374 0.022 6.88 7.58 13.12
12/27/2020 11:00:00 AM 2.5 36.5 0.022 6.87 7.63 13.1
12/27/2020 11:15:00 AM 2.57 36.626 0.022 6.89 7.64 13.08
12/27/2020 11:30:00 AM 2.65 36.77 0.022 6.86 7.46 13.05
12/27/2020 11:45:00 AM 2.74 36.932 0.022 6.9 7.85 13.02
12/27/2020 12:00:00 PM 2.8 37.04 0.022 6.9 7.8 13
12/27/2020 12:15:00 PM 2.87 37.166 0.022 6.89 8.04 12.97
12/27/2020 12:30:00 PM 2.93 37.274 0.022 6.9 7.89 12.94
12/27/2020 12:45:00 PM 2.96 37.328 0.022 6.87 7.63 12.93
12/27/2020 1:00:00 PM 3 37.4 0.022 6.9 7.74 12.91
12/27/2020 1:15:00 PM 3.05 37.49 0.022 6.89 7.59 12.89
12/27/2020 1:30:00 PM 3.11 37.598 0.022 6.9 7.53 12.86
12/27/2020 1:45:00 PM 3.14 37.652 0.022 6.89 7.47 12.85
12/27/2020 2:00:00 PM 3.17 37.706 0.022 6.89 7.31 12.83
12/27/2020 2:15:00 PM 3.17 37.706 0.022 6.89 7.51 12.82
12/27/2020 2:30:00 PM 3.16 37.688 0.022 6.88 7.56 12.82
12/27/2020 2:45:00 PM 3.14 37.652 0.023 6.89 7.59 12.82
12/27/2020 3:00:00 PM 3.13 37.634 0.023 6.89 7.44 12.82
12/27/2020 3:15:00 PM 3.12 37.616 0.023 6.89 7.83 12.82
12/27/2020 3:30:00 PM 3.11 37.598 0.023 6.88 7.33 12.83
12/27/2020 3:45:00 PM 3.09 37.562 0.023 6.88 7.36 12.83
12/27/2020 4:00:00 PM 3.06 37.508 0.023 6.87 7.43 12.83
12/27/2020 4:15:00 PM 3.03 37.454 0.023 6.88 7.38 12.84
12/27/2020 4:30:00 PM 3 37.4 0.023 6.87 7.57 12.85
12/27/2020 4:45:00 PM 2.97 37.346 0.023 6.86 7.39 12.84
12/27/2020 5:00:00 PM 2.94 37.292 0.023 6.87 7.42 12.85
12/27/2020 5:15:00 PM 2.91 37.238 0.023 6.86 7.46 12.86
12/27/2020 5:30:00 PM 2.88 37.184 0.023 6.86 7.33 12.86
12/27/2020 5:45:00 PM 2.85 37.13 0.023 6.87 7.48 12.87
12/27/2020 6:00:00 PM 2.82 37.076 0.023 6.84 7.45 12.88
12/27/2020 6:15:00 PM 2.8 37.04 0.023 6.86 7.45 12.89
12/27/2020 6:30:00 PM 2.77 36.986 0.023 6.86 7.49 12.9
12/27/2020 6:45:00 PM 2.75 36.95 0.023 6.86 7.6 12.9
12/27/2020 7:00:00 PM 2.72 36.896 0.023 6.85 7.41 12.92
12/27/2020 7:15:00 PM 2.7 36.86 0.023 6.86 7.43 12.92
12/27/2020 7:30:00 PM 2.68 36.824 0.023 6.86 7.28 12.93
12/27/2020 7:45:00 PM 2.65 36.77 0.023 6.85 7.31 12.94
12/27/2020 8:00:00 PM 2.62 36.716 0.023 6.86 7.18 12.95
12/27/2020 8:15:00 PM 2.59 36.662 0.023 6.85 7.15 12.96
12/27/2020 8:30:00 PM 2.57 36.626 0.023 6.8 7.15 12.96
12/27/2020 8:45:00 PM 2.55 36.59 0.023 6.85 7.43 12.97
12/27/2020 9:00:00 PM 2.53 36.554 0.023 6.85 7.21 12.98
12/27/2020 9:15:00 PM 2.51 36.518 0.023 6.85 7.12 12.98
12/27/2020 9:30:00 PM 2.5 36.5 0.023 6.86 7.12 12.99
12/27/2020 9:45:00 PM 2.49 36.482 0.023 6.86 7.15 12.99
12/27/2020 10:00:00 PM 2.48 36.464 0.023 6.87 7.24 12.99
12/27/2020 10:15:00 PM 2.48 36.464 0.023 6.86 7.21 12.99
12/27/2020 10:30:00 PM 2.47 36.446 0.023 6.86 7.08 13
12/27/2020 10:45:00 PM 2.47 36.446 0.023 6.87 7.16 13
12/27/2020 11:00:00 PM 2.47 36.446 0.023 6.88 7.16 13
12/27/2020 11:15:00 PM 2.46 36.428 0.023 6.87 7.2 13
12/27/2020 11:30:00 PM 2.46 36.428 0.023 6.87 7.22 12.99
12/27/2020 11:45:00 PM 2.45 36.41 0.023 6.85 7.28 13
12/28/2020 12:00:00 AM 2.44 36.392 0.023 6.87 7.31 12.99
12/28/2020 12:15:00 AM 2.44 36.392 0.023 6.87 7.22 12.99
12/28/2020 12:30:00 AM 2.43 36.374 0.023 6.88 7.01 12.99
12/28/2020 12:45:00 AM 2.42 36.356 0.023 6.88 7.22 12.99
12/28/2020 1:00:00 AM 2.42 36.356 0.023 6.88 7.01 12.99
12/28/2020 1:15:00 AM 2.41 36.338 0.023 6.89 6.99 12.99
12/28/2020 1:30:00 AM 2.41 36.338 0.023 6.87 7.09 12.99
12/28/2020 1:45:00 AM 2.4 36.32 0.023 6.89 6.96 12.99
12/28/2020 2:00:00 AM 2.4 36.32 0.023 6.87 6.81 12.98
12/28/2020 2:15:00 AM 2.4 36.32 0.023 6.88 7.08 12.98
12/28/2020 2:30:00 AM 2.4 36.32 0.023 6.86 6.89 12.98
12/28/2020 2:45:00 AM 2.41 36.338 0.023 6.88 7.19 12.98
12/28/2020 3:00:00 AM 2.41 36.338 0.023 6.89 6.78 12.98
12/28/2020 3:15:00 AM 2.42 36.356 0.023 6.89 7.14 12.98
12/28/2020 3:30:00 AM 2.43 36.374 0.023 6.89 6.73 12.97
12/28/2020 3:45:00 AM 2.44 36.392 0.023 6.88 6.81 12.96
12/28/2020 4:00:00 AM 2.45 36.41 0.023 6.89 6.73 12.96
12/28/2020 4:15:00 AM 2.47 36.446 0.023 6.9 6.73 12.96
12/28/2020 4:30:00 AM 2.48 36.464 0.023 6.9 6.67 12.95
12/28/2020 4:45:00 AM 2.49 36.482 0.023 6.88 6.99 12.95
12/28/2020 5:00:00 AM 2.43 36.374 0.023 6.9 7.35 12.94
12/28/2020 5:15:00 AM 2.33 36.194 0.023 6.87 6.88 12.95
12/28/2020 5:30:00 AM 2.32 36.176 0.023 6.88 6.95 12.97
12/28/2020 5:45:00 AM 2.33 36.194 0.023 6.89 6.9 12.97
12/28/2020 6:00:00 AM 2.34 36.212 0.023 6.89 6.78 12.98
12/28/2020 6:15:00 AM 2.35 36.23 0.023 6.89 6.82 12.98
12/28/2020 6:30:00 AM 2.38 36.284 0.023 6.9 6.84 12.98
12/28/2020 6:45:00 AM 2.4 36.32 0.023 6.88 6.76 12.97
12/28/2020 7:00:00 AM 2.43 36.374 0.023 6.9 6.83 12.97
12/28/2020 7:15:00 AM 2.46 36.428 0.023 6.9 6.62 12.96
12/28/2020 7:30:00 AM 2.48 36.464 0.023 6.9 6.56 12.95
12/28/2020 7:45:00 AM 2.51 36.518 0.023 6.91 6.54 12.94
12/28/2020 8:00:00 AM 2.53 36.554 0.023 6.91 6.69 12.93
12/28/2020 8:15:00 AM 2.54 36.572 0.023 6.91 6.67 12.93
12/28/2020 8:30:00 AM 2.56 36.608 0.023 6.91 6.71 12.93
12/28/2020 8:45:00 AM 2.6 36.68 0.023 6.92 6.7 12.92
12/28/2020 9:00:00 AM 2.62 36.716 0.023 6.93 6.51 12.91
12/28/2020 9:15:00 AM 2.66 36.788 0.023 6.92 6.35 12.91
12/28/2020 9:30:00 AM 2.7 36.86 0.023